<?xml version="1.0" encoding="UTF-8" standalone="no" ?>
<gpx xmlns="http://www.topografix.com/GPX/1/1" xmlns:xsi="http://www.w3.org/2001/XMLSchema-instance" xsi:schemaLocation="http://www.topografix.com/GPX/1/1 http://www.topografix.com/GPX/1/1/gpx.xsd" version="1.1" creator="VisuGPX - https://www.visugpx.com">
  <metadata>
    <name>tour du Lac Miribel </name>
    <desc><![CDATA[Tour du lac de Miribel au départ du parc de la tete d\'or.]]></desc>
  </metadata>
  <trk>
    <name><![CDATA[Parc Miribel Jonage]]></name>
    <trkseg>
      <trkpt lat="45.77362" lon="4.85642">
        <ele>190</ele>
        <time>2015-09-12T10:56:02.1Z</time>
      </trkpt>
      <trkpt lat="45.77391" lon="4.85647">
        <ele>190</ele>
        <time>2015-09-12T10:56:07.1Z</time>
      </trkpt>
      <trkpt lat="45.77397" lon="4.85693">
        <ele>190</ele>
        <time>2015-09-12T10:56:13.1Z</time>
      </trkpt>
      <trkpt lat="45.77403" lon="4.85744">
        <ele>189</ele>
        <time>2015-09-12T10:56:19.1Z</time>
      </trkpt>
      <trkpt lat="45.77421" lon="4.8578">
        <ele>189</ele>
        <time>2015-09-12T10:56:24.1Z</time>
      </trkpt>
      <trkpt lat="45.77457" lon="4.85804">
        <ele>189</ele>
        <time>2015-09-12T10:56:30.1Z</time>
      </trkpt>
      <trkpt lat="45.77486" lon="4.85815">
        <ele>188</ele>
        <time>2015-09-12T10:56:35.1Z</time>
      </trkpt>
      <trkpt lat="45.77519" lon="4.85823">
        <ele>188</ele>
        <time>2015-09-12T10:56:40.1Z</time>
      </trkpt>
      <trkpt lat="45.77555" lon="4.8583">
        <ele>188</ele>
        <time>2015-09-12T10:56:45.1Z</time>
      </trkpt>
      <trkpt lat="45.77596" lon="4.8583">
        <ele>188</ele>
        <time>2015-09-12T10:56:51.1Z</time>
      </trkpt>
      <trkpt lat="45.77631" lon="4.85828">
        <ele>188</ele>
        <time>2015-09-12T10:56:56.1Z</time>
      </trkpt>
      <trkpt lat="45.77661" lon="4.85824">
        <ele>189</ele>
        <time>2015-09-12T10:57:01.1Z</time>
      </trkpt>
      <trkpt lat="45.77702" lon="4.85821">
        <ele>189</ele>
        <time>2015-09-12T10:57:07.1Z</time>
      </trkpt>
      <trkpt lat="45.77734" lon="4.85825">
        <ele>189</ele>
        <time>2015-09-12T10:57:12.1Z</time>
      </trkpt>
      <trkpt lat="45.77765" lon="4.85833">
        <ele>189</ele>
        <time>2015-09-12T10:57:17.1Z</time>
      </trkpt>
      <trkpt lat="45.77795" lon="4.85841">
        <ele>189</ele>
        <time>2015-09-12T10:57:22.1Z</time>
      </trkpt>
      <trkpt lat="45.77835" lon="4.85851">
        <ele>189</ele>
        <time>2015-09-12T10:57:28.1Z</time>
      </trkpt>
      <trkpt lat="45.77865" lon="4.8586">
        <ele>189</ele>
        <time>2015-09-12T10:57:33.1Z</time>
      </trkpt>
      <trkpt lat="45.77899" lon="4.85865">
        <ele>189</ele>
        <time>2015-09-12T10:57:38.1Z</time>
      </trkpt>
      <trkpt lat="45.77951" lon="4.85865">
        <ele>189</ele>
        <time>2015-09-12T10:57:45.1Z</time>
      </trkpt>
      <trkpt lat="45.77986" lon="4.85869">
        <ele>189</ele>
        <time>2015-09-12T10:57:50.1Z</time>
      </trkpt>
      <trkpt lat="45.7802" lon="4.85872">
        <ele>189</ele>
        <time>2015-09-12T10:57:55.1Z</time>
      </trkpt>
      <trkpt lat="45.78053" lon="4.8587">
        <ele>189</ele>
        <time>2015-09-12T10:58:00.1Z</time>
      </trkpt>
      <trkpt lat="45.78091" lon="4.85866">
        <ele>188</ele>
        <time>2015-09-12T10:58:06.1Z</time>
      </trkpt>
      <trkpt lat="45.78131" lon="4.85863">
        <ele>189</ele>
        <time>2015-09-12T10:58:12.1Z</time>
      </trkpt>
      <trkpt lat="45.78173" lon="4.8586">
        <ele>189</ele>
        <time>2015-09-12T10:58:18.1Z</time>
      </trkpt>
      <trkpt lat="45.78208" lon="4.85855">
        <ele>188</ele>
        <time>2015-09-12T10:58:23.1Z</time>
      </trkpt>
      <trkpt lat="45.78242" lon="4.85846">
        <ele>188</ele>
        <time>2015-09-12T10:58:28.1Z</time>
      </trkpt>
      <trkpt lat="45.7828" lon="4.85822">
        <ele>188</ele>
        <time>2015-09-12T10:58:34.1Z</time>
      </trkpt>
      <trkpt lat="45.78312" lon="4.85839">
        <ele>189</ele>
        <time>2015-09-12T10:58:39.1Z</time>
      </trkpt>
      <trkpt lat="45.78347" lon="4.85868">
        <ele>189</ele>
        <time>2015-09-12T10:58:45.1Z</time>
      </trkpt>
      <trkpt lat="45.78384" lon="4.85887">
        <ele>190</ele>
        <time>2015-09-12T10:58:51.1Z</time>
      </trkpt>
      <trkpt lat="45.7842" lon="4.85897">
        <ele>193</ele>
        <time>2015-09-12T10:58:57.1Z</time>
      </trkpt>
      <trkpt lat="45.7845" lon="4.85903">
        <ele>194</ele>
        <time>2015-09-12T10:59:03.1Z</time>
      </trkpt>
      <trkpt lat="45.78468" lon="4.85909">
        <ele>195</ele>
        <time>2015-09-12T10:59:09.1Z</time>
      </trkpt>
      <trkpt lat="45.78487" lon="4.85911">
        <ele>194</ele>
        <time>2015-09-12T10:59:14.1Z</time>
      </trkpt>
      <trkpt lat="45.78508" lon="4.85905">
        <ele>193</ele>
        <time>2015-09-12T10:59:19.1Z</time>
      </trkpt>
      <trkpt lat="45.78537" lon="4.85896">
        <ele>193</ele>
        <time>2015-09-12T10:59:25.1Z</time>
      </trkpt>
      <trkpt lat="45.78561" lon="4.85896">
        <ele>193</ele>
        <time>2015-09-12T10:59:31.1Z</time>
      </trkpt>
      <trkpt lat="45.78574" lon="4.85898">
        <ele>193</ele>
        <time>2015-09-12T10:59:36.1Z</time>
      </trkpt>
      <trkpt lat="45.78588" lon="4.85899">
        <ele>192</ele>
        <time>2015-09-12T10:59:41.1Z</time>
      </trkpt>
      <trkpt lat="45.78599" lon="4.85899">
        <ele>191</ele>
        <time>2015-09-12T10:59:47.1Z</time>
      </trkpt>
      <trkpt lat="45.78611" lon="4.859">
        <ele>190</ele>
        <time>2015-09-12T10:59:53.1Z</time>
      </trkpt>
      <trkpt lat="45.78612" lon="4.85915">
        <ele>191</ele>
        <time>2015-09-12T10:59:58.1Z</time>
      </trkpt>
      <trkpt lat="45.7861" lon="4.85942">
        <ele>191</ele>
        <time>2015-09-12T11:00:04.1Z</time>
      </trkpt>
      <trkpt lat="45.78607" lon="4.8597">
        <ele>190</ele>
        <time>2015-09-12T11:00:09.1Z</time>
      </trkpt>
      <trkpt lat="45.78598" lon="4.86005">
        <ele>189</ele>
        <time>2015-09-12T11:00:15.1Z</time>
      </trkpt>
      <trkpt lat="45.78594" lon="4.86032">
        <ele>189</ele>
        <time>2015-09-12T11:00:21.1Z</time>
      </trkpt>
      <trkpt lat="45.78596" lon="4.86049">
        <ele>189</ele>
        <time>2015-09-12T11:00:26.1Z</time>
      </trkpt>
      <trkpt lat="45.78605" lon="4.86062">
        <ele>189</ele>
        <time>2015-09-12T11:00:31.1Z</time>
      </trkpt>
      <trkpt lat="45.78608" lon="4.86091">
        <ele>188</ele>
        <time>2015-09-12T11:00:36.1Z</time>
      </trkpt>
      <trkpt lat="45.78604" lon="4.86134">
        <ele>187</ele>
        <time>2015-09-12T11:00:42.1Z</time>
      </trkpt>
      <trkpt lat="45.78602" lon="4.8617">
        <ele>187</ele>
        <time>2015-09-12T11:00:47.1Z</time>
      </trkpt>
      <trkpt lat="45.786" lon="4.86208">
        <ele>187</ele>
        <time>2015-09-12T11:00:52.1Z</time>
      </trkpt>
      <trkpt lat="45.78594" lon="4.86258">
        <ele>187</ele>
        <time>2015-09-12T11:00:58.1Z</time>
      </trkpt>
      <trkpt lat="45.78587" lon="4.86295">
        <ele>188</ele>
        <time>2015-09-12T11:01:03.1Z</time>
      </trkpt>
      <trkpt lat="45.78576" lon="4.86334">
        <ele>189</ele>
        <time>2015-09-12T11:01:09.1Z</time>
      </trkpt>
      <trkpt lat="45.78575" lon="4.86368">
        <ele>189</ele>
        <time>2015-09-12T11:01:14.1Z</time>
      </trkpt>
      <trkpt lat="45.78567" lon="4.86409">
        <ele>189</ele>
        <time>2015-09-12T11:01:20.1Z</time>
      </trkpt>
      <trkpt lat="45.78548" lon="4.86445">
        <ele>190</ele>
        <time>2015-09-12T11:01:26.1Z</time>
      </trkpt>
      <trkpt lat="45.78529" lon="4.8648">
        <ele>190</ele>
        <time>2015-09-12T11:01:32.1Z</time>
      </trkpt>
      <trkpt lat="45.78524" lon="4.86516">
        <ele>191</ele>
        <time>2015-09-12T11:01:37.1Z</time>
      </trkpt>
      <trkpt lat="45.78532" lon="4.86556">
        <ele>192</ele>
        <time>2015-09-12T11:01:42.1Z</time>
      </trkpt>
      <trkpt lat="45.78542" lon="4.86608">
        <ele>191</ele>
        <time>2015-09-12T11:01:48.1Z</time>
      </trkpt>
      <trkpt lat="45.78551" lon="4.8666">
        <ele>191</ele>
        <time>2015-09-12T11:01:54.1Z</time>
      </trkpt>
      <trkpt lat="45.78563" lon="4.86716">
        <ele>192</ele>
        <time>2015-09-12T11:02:00.1Z</time>
      </trkpt>
      <trkpt lat="45.78569" lon="4.86768">
        <ele>193</ele>
        <time>2015-09-12T11:02:06.1Z</time>
      </trkpt>
      <trkpt lat="45.78577" lon="4.86809">
        <ele>192</ele>
        <time>2015-09-12T11:02:11.1Z</time>
      </trkpt>
      <trkpt lat="45.78587" lon="4.86862">
        <ele>192</ele>
        <time>2015-09-12T11:02:17.1Z</time>
      </trkpt>
      <trkpt lat="45.78593" lon="4.86909">
        <ele>192</ele>
        <time>2015-09-12T11:02:22.1Z</time>
      </trkpt>
      <trkpt lat="45.78602" lon="4.86966">
        <ele>192</ele>
        <time>2015-09-12T11:02:28.1Z</time>
      </trkpt>
      <trkpt lat="45.7861" lon="4.87021">
        <ele>192</ele>
        <time>2015-09-12T11:02:34.1Z</time>
      </trkpt>
      <trkpt lat="45.78616" lon="4.87063">
        <ele>192</ele>
        <time>2015-09-12T11:02:39.1Z</time>
      </trkpt>
      <trkpt lat="45.78625" lon="4.87117">
        <ele>193</ele>
        <time>2015-09-12T11:02:45.1Z</time>
      </trkpt>
      <trkpt lat="45.78632" lon="4.87161">
        <ele>192</ele>
        <time>2015-09-12T11:02:50.1Z</time>
      </trkpt>
      <trkpt lat="45.78641" lon="4.87206">
        <ele>192</ele>
        <time>2015-09-12T11:02:55.1Z</time>
      </trkpt>
      <trkpt lat="45.78649" lon="4.87252">
        <ele>193</ele>
        <time>2015-09-12T11:03:00.1Z</time>
      </trkpt>
      <trkpt lat="45.78665" lon="4.87297">
        <ele>192</ele>
        <time>2015-09-12T11:03:05.1Z</time>
      </trkpt>
      <trkpt lat="45.78684" lon="4.8735">
        <ele>192</ele>
        <time>2015-09-12T11:03:11.1Z</time>
      </trkpt>
      <trkpt lat="45.78692" lon="4.87399">
        <ele>190</ele>
        <time>2015-09-12T11:03:16.1Z</time>
      </trkpt>
      <trkpt lat="45.787" lon="4.8746">
        <ele>190</ele>
        <time>2015-09-12T11:03:22.1Z</time>
      </trkpt>
      <trkpt lat="45.78706" lon="4.87513">
        <ele>190</ele>
        <time>2015-09-12T11:03:27.1Z</time>
      </trkpt>
      <trkpt lat="45.78713" lon="4.87563">
        <ele>190</ele>
        <time>2015-09-12T11:03:32.1Z</time>
      </trkpt>
      <trkpt lat="45.78739" lon="4.87613">
        <ele>190</ele>
        <time>2015-09-12T11:03:38.1Z</time>
      </trkpt>
      <trkpt lat="45.7877" lon="4.87643">
        <ele>190</ele>
        <time>2015-09-12T11:03:43.1Z</time>
      </trkpt>
      <trkpt lat="45.78808" lon="4.87677">
        <ele>190</ele>
        <time>2015-09-12T11:03:49.1Z</time>
      </trkpt>
      <trkpt lat="45.78839" lon="4.87707">
        <ele>190</ele>
        <time>2015-09-12T11:03:54.1Z</time>
      </trkpt>
      <trkpt lat="45.78878" lon="4.87742">
        <ele>190</ele>
        <time>2015-09-12T11:04:00.1Z</time>
      </trkpt>
      <trkpt lat="45.78917" lon="4.87778">
        <ele>188</ele>
        <time>2015-09-12T11:04:06.1Z</time>
      </trkpt>
      <trkpt lat="45.78956" lon="4.87813">
        <ele>188</ele>
        <time>2015-09-12T11:04:12.1Z</time>
      </trkpt>
      <trkpt lat="45.78989" lon="4.87844">
        <ele>189</ele>
        <time>2015-09-12T11:04:17.1Z</time>
      </trkpt>
      <trkpt lat="45.79023" lon="4.87875">
        <ele>190</ele>
        <time>2015-09-12T11:04:22.1Z</time>
      </trkpt>
      <trkpt lat="45.79057" lon="4.87906">
        <ele>189</ele>
        <time>2015-09-12T11:04:27.1Z</time>
      </trkpt>
      <trkpt lat="45.79092" lon="4.87938">
        <ele>189</ele>
        <time>2015-09-12T11:04:32.1Z</time>
      </trkpt>
      <trkpt lat="45.79127" lon="4.87971">
        <ele>189</ele>
        <time>2015-09-12T11:04:37.1Z</time>
      </trkpt>
      <trkpt lat="45.79162" lon="4.88005">
        <ele>189</ele>
        <time>2015-09-12T11:04:42.1Z</time>
      </trkpt>
      <trkpt lat="45.79198" lon="4.88037">
        <ele>190</ele>
        <time>2015-09-12T11:04:47.1Z</time>
      </trkpt>
      <trkpt lat="45.79242" lon="4.88068">
        <ele>190</ele>
        <time>2015-09-12T11:04:53.1Z</time>
      </trkpt>
      <trkpt lat="45.79279" lon="4.88095">
        <ele>189</ele>
        <time>2015-09-12T11:04:59.1Z</time>
      </trkpt>
      <trkpt lat="45.79298" lon="4.88139">
        <ele>188</ele>
        <time>2015-09-12T11:05:04.1Z</time>
      </trkpt>
      <trkpt lat="45.79309" lon="4.882">
        <ele>188</ele>
        <time>2015-09-12T11:05:10.1Z</time>
      </trkpt>
      <trkpt lat="45.79306" lon="4.88265">
        <ele>188</ele>
        <time>2015-09-12T11:05:16.1Z</time>
      </trkpt>
      <trkpt lat="45.79293" lon="4.88322">
        <ele>188</ele>
        <time>2015-09-12T11:05:22.1Z</time>
      </trkpt>
      <trkpt lat="45.79271" lon="4.88354">
        <ele>189</ele>
        <time>2015-09-12T11:05:27.1Z</time>
      </trkpt>
      <trkpt lat="45.79243" lon="4.88391">
        <ele>190</ele>
        <time>2015-09-12T11:05:33.1Z</time>
      </trkpt>
      <trkpt lat="45.79222" lon="4.88421">
        <ele>191</ele>
        <time>2015-09-12T11:05:38.1Z</time>
      </trkpt>
      <trkpt lat="45.79201" lon="4.88453">
        <ele>191</ele>
        <time>2015-09-12T11:05:43.1Z</time>
      </trkpt>
      <trkpt lat="45.79171" lon="4.88492">
        <ele>192</ele>
        <time>2015-09-12T11:05:49.1Z</time>
      </trkpt>
      <trkpt lat="45.79145" lon="4.88518">
        <ele>192</ele>
        <time>2015-09-12T11:05:54.1Z</time>
      </trkpt>
      <trkpt lat="45.79112" lon="4.88546">
        <ele>193</ele>
        <time>2015-09-12T11:06:00.1Z</time>
      </trkpt>
      <trkpt lat="45.79086" lon="4.88572">
        <ele>194</ele>
        <time>2015-09-12T11:06:05.1Z</time>
      </trkpt>
      <trkpt lat="45.79059" lon="4.88597">
        <ele>193</ele>
        <time>2015-09-12T11:06:10.1Z</time>
      </trkpt>
      <trkpt lat="45.79033" lon="4.8862">
        <ele>192</ele>
        <time>2015-09-12T11:06:15.1Z</time>
      </trkpt>
      <trkpt lat="45.79001" lon="4.88649">
        <ele>192</ele>
        <time>2015-09-12T11:06:21.1Z</time>
      </trkpt>
      <trkpt lat="45.78974" lon="4.88674">
        <ele>191</ele>
        <time>2015-09-12T11:06:26.1Z</time>
      </trkpt>
      <trkpt lat="45.78943" lon="4.88711">
        <ele>191</ele>
        <time>2015-09-12T11:06:32.1Z</time>
      </trkpt>
      <trkpt lat="45.78914" lon="4.88748">
        <ele>191</ele>
        <time>2015-09-12T11:06:38.1Z</time>
      </trkpt>
      <trkpt lat="45.78889" lon="4.8878">
        <ele>191</ele>
        <time>2015-09-12T11:06:43.1Z</time>
      </trkpt>
      <trkpt lat="45.78868" lon="4.88817">
        <ele>191</ele>
        <time>2015-09-12T11:06:48.1Z</time>
      </trkpt>
      <trkpt lat="45.78845" lon="4.88864">
        <ele>190</ele>
        <time>2015-09-12T11:06:54.1Z</time>
      </trkpt>
      <trkpt lat="45.78822" lon="4.88912">
        <ele>190</ele>
        <time>2015-09-12T11:07:00.1Z</time>
      </trkpt>
      <trkpt lat="45.78804" lon="4.88951">
        <ele>190</ele>
        <time>2015-09-12T11:07:05.1Z</time>
      </trkpt>
      <trkpt lat="45.78782" lon="4.88984">
        <ele>189</ele>
        <time>2015-09-12T11:07:11.1Z</time>
      </trkpt>
      <trkpt lat="45.78761" lon="4.89018">
        <ele>188</ele>
        <time>2015-09-12T11:07:17.1Z</time>
      </trkpt>
      <trkpt lat="45.78741" lon="4.89044">
        <ele>189</ele>
        <time>2015-09-12T11:07:22.1Z</time>
      </trkpt>
      <trkpt lat="45.78714" lon="4.89073">
        <ele>189</ele>
        <time>2015-09-12T11:07:28.1Z</time>
      </trkpt>
      <trkpt lat="45.78687" lon="4.8909">
        <ele>189</ele>
        <time>2015-09-12T11:07:33.1Z</time>
      </trkpt>
      <trkpt lat="45.78657" lon="4.89122">
        <ele>189</ele>
        <time>2015-09-12T11:07:39.1Z</time>
      </trkpt>
      <trkpt lat="45.78624" lon="4.89153">
        <ele>189</ele>
        <time>2015-09-12T11:07:45.1Z</time>
      </trkpt>
      <trkpt lat="45.78594" lon="4.8917">
        <ele>189</ele>
        <time>2015-09-12T11:07:50.1Z</time>
      </trkpt>
      <trkpt lat="45.78556" lon="4.89189">
        <ele>189</ele>
        <time>2015-09-12T11:07:56.1Z</time>
      </trkpt>
      <trkpt lat="45.78527" lon="4.89206">
        <ele>188</ele>
        <time>2015-09-12T11:08:01.1Z</time>
      </trkpt>
      <trkpt lat="45.78499" lon="4.8922">
        <ele>188</ele>
        <time>2015-09-12T11:08:06.1Z</time>
      </trkpt>
      <trkpt lat="45.78469" lon="4.89239">
        <ele>188</ele>
        <time>2015-09-12T11:08:12.1Z</time>
      </trkpt>
      <trkpt lat="45.78453" lon="4.89235">
        <ele>189</ele>
        <time>2015-09-12T11:08:18.1Z</time>
      </trkpt>
      <trkpt lat="45.78451" lon="4.89217">
        <ele>190</ele>
        <time>2015-09-12T11:08:24.1Z</time>
      </trkpt>
      <trkpt lat="45.78433" lon="4.89222">
        <ele>191</ele>
        <time>2015-09-12T11:08:30.1Z</time>
      </trkpt>
      <trkpt lat="45.78424" lon="4.89227">
        <ele>191</ele>
        <time>2015-09-12T11:08:35.1Z</time>
      </trkpt>
      <trkpt lat="45.78409" lon="4.89214">
        <ele>191</ele>
        <time>2015-09-12T11:08:41.1Z</time>
      </trkpt>
      <trkpt lat="45.78417" lon="4.8919">
        <ele>192</ele>
        <time>2015-09-12T11:08:46.1Z</time>
      </trkpt>
      <trkpt lat="45.78431" lon="4.89167">
        <ele>194</ele>
        <time>2015-09-12T11:08:52.1Z</time>
      </trkpt>
      <trkpt lat="45.78413" lon="4.89175">
        <ele>194</ele>
        <time>2015-09-12T11:08:57.1Z</time>
      </trkpt>
      <trkpt lat="45.7839" lon="4.89193">
        <ele>196</ele>
        <time>2015-09-12T11:09:02.1Z</time>
      </trkpt>
      <trkpt lat="45.78368" lon="4.89216">
        <ele>195</ele>
        <time>2015-09-12T11:09:07.1Z</time>
      </trkpt>
      <trkpt lat="45.7836" lon="4.89253">
        <ele>194</ele>
        <time>2015-09-12T11:09:12.1Z</time>
      </trkpt>
      <trkpt lat="45.78368" lon="4.89299">
        <ele>195</ele>
        <time>2015-09-12T11:09:18.1Z</time>
      </trkpt>
      <trkpt lat="45.78378" lon="4.8934">
        <ele>196</ele>
        <time>2015-09-12T11:09:23.1Z</time>
      </trkpt>
      <trkpt lat="45.78388" lon="4.89383">
        <ele>196</ele>
        <time>2015-09-12T11:09:28.1Z</time>
      </trkpt>
      <trkpt lat="45.784" lon="4.89435">
        <ele>195</ele>
        <time>2015-09-12T11:09:34.1Z</time>
      </trkpt>
      <trkpt lat="45.78415" lon="4.89486">
        <ele>194</ele>
        <time>2015-09-12T11:09:40.1Z</time>
      </trkpt>
      <trkpt lat="45.78432" lon="4.89524">
        <ele>193</ele>
        <time>2015-09-12T11:09:45.1Z</time>
      </trkpt>
      <trkpt lat="45.78445" lon="4.89546">
        <ele>191</ele>
        <time>2015-09-12T11:09:50.1Z</time>
      </trkpt>
      <trkpt lat="45.78441" lon="4.89529">
        <ele>191</ele>
        <time>2015-09-12T11:09:56.1Z</time>
      </trkpt>
      <trkpt lat="45.78433" lon="4.89504">
        <ele>190</ele>
        <time>2015-09-12T11:10:01.1Z</time>
      </trkpt>
      <trkpt lat="45.7843" lon="4.89475">
        <ele>189</ele>
        <time>2015-09-12T11:10:06.1Z</time>
      </trkpt>
      <trkpt lat="45.7842" lon="4.89437">
        <ele>189</ele>
        <time>2015-09-12T11:10:12.1Z</time>
      </trkpt>
      <trkpt lat="45.7844" lon="4.89418">
        <ele>189</ele>
        <time>2015-09-12T11:10:18.1Z</time>
      </trkpt>
      <trkpt lat="45.78473" lon="4.89404">
        <ele>189</ele>
        <time>2015-09-12T11:10:24.1Z</time>
      </trkpt>
      <trkpt lat="45.78508" lon="4.89385">
        <ele>189</ele>
        <time>2015-09-12T11:10:30.1Z</time>
      </trkpt>
      <trkpt lat="45.78538" lon="4.89367">
        <ele>190</ele>
        <time>2015-09-12T11:10:35.1Z</time>
      </trkpt>
      <trkpt lat="45.78574" lon="4.89345">
        <ele>190</ele>
        <time>2015-09-12T11:10:41.1Z</time>
      </trkpt>
      <trkpt lat="45.7861" lon="4.89324">
        <ele>191</ele>
        <time>2015-09-12T11:10:47.1Z</time>
      </trkpt>
      <trkpt lat="45.78635" lon="4.89297">
        <ele>190</ele>
        <time>2015-09-12T11:10:53.1Z</time>
      </trkpt>
      <trkpt lat="45.78658" lon="4.89278">
        <ele>190</ele>
        <time>2015-09-12T11:10:58.1Z</time>
      </trkpt>
      <trkpt lat="45.78685" lon="4.89255">
        <ele>189</ele>
        <time>2015-09-12T11:11:03.1Z</time>
      </trkpt>
      <trkpt lat="45.78718" lon="4.89226">
        <ele>189</ele>
        <time>2015-09-12T11:11:09.1Z</time>
      </trkpt>
      <trkpt lat="45.78748" lon="4.89199">
        <ele>189</ele>
        <time>2015-09-12T11:11:15.1Z</time>
      </trkpt>
      <trkpt lat="45.78761" lon="4.8922">
        <ele>189</ele>
        <time>2015-09-12T11:11:20.1Z</time>
      </trkpt>
      <trkpt lat="45.78767" lon="4.89254">
        <ele>189</ele>
        <time>2015-09-12T11:11:25.1Z</time>
      </trkpt>
      <trkpt lat="45.78774" lon="4.89295">
        <ele>190</ele>
        <time>2015-09-12T11:11:30.1Z</time>
      </trkpt>
      <trkpt lat="45.78788" lon="4.89347">
        <ele>190</ele>
        <time>2015-09-12T11:11:36.1Z</time>
      </trkpt>
      <trkpt lat="45.78801" lon="4.89392">
        <ele>191</ele>
        <time>2015-09-12T11:11:41.1Z</time>
      </trkpt>
      <trkpt lat="45.7882" lon="4.89442">
        <ele>190</ele>
        <time>2015-09-12T11:11:47.1Z</time>
      </trkpt>
      <trkpt lat="45.78845" lon="4.89489">
        <ele>191</ele>
        <time>2015-09-12T11:11:53.1Z</time>
      </trkpt>
      <trkpt lat="45.78866" lon="4.89528">
        <ele>191</ele>
        <time>2015-09-12T11:11:58.1Z</time>
      </trkpt>
      <trkpt lat="45.78889" lon="4.89562">
        <ele>190</ele>
        <time>2015-09-12T11:12:03.1Z</time>
      </trkpt>
      <trkpt lat="45.78899" lon="4.89593">
        <ele>190</ele>
        <time>2015-09-12T11:12:08.1Z</time>
      </trkpt>
      <trkpt lat="45.78884" lon="4.89634">
        <ele>190</ele>
        <time>2015-09-12T11:12:14.1Z</time>
      </trkpt>
      <trkpt lat="45.78875" lon="4.89685">
        <ele>191</ele>
        <time>2015-09-12T11:12:20.1Z</time>
      </trkpt>
      <trkpt lat="45.78871" lon="4.89743">
        <ele>191</ele>
        <time>2015-09-12T11:12:26.1Z</time>
      </trkpt>
      <trkpt lat="45.7888" lon="4.89791">
        <ele>190</ele>
        <time>2015-09-12T11:12:31.1Z</time>
      </trkpt>
      <trkpt lat="45.78892" lon="4.89843">
        <ele>190</ele>
        <time>2015-09-12T11:12:36.1Z</time>
      </trkpt>
      <trkpt lat="45.78905" lon="4.89893">
        <ele>191</ele>
        <time>2015-09-12T11:12:41.1Z</time>
      </trkpt>
      <trkpt lat="45.78916" lon="4.89953">
        <ele>191</ele>
        <time>2015-09-12T11:12:47.1Z</time>
      </trkpt>
      <trkpt lat="45.78925" lon="4.9">
        <ele>192</ele>
        <time>2015-09-12T11:12:52.1Z</time>
      </trkpt>
      <trkpt lat="45.78938" lon="4.90044">
        <ele>191</ele>
        <time>2015-09-12T11:12:58.1Z</time>
      </trkpt>
      <trkpt lat="45.78952" lon="4.90082">
        <ele>191</ele>
        <time>2015-09-12T11:13:03.1Z</time>
      </trkpt>
      <trkpt lat="45.78968" lon="4.90118">
        <ele>191</ele>
        <time>2015-09-12T11:13:08.1Z</time>
      </trkpt>
      <trkpt lat="45.78991" lon="4.90162">
        <ele>191</ele>
        <time>2015-09-12T11:13:14.1Z</time>
      </trkpt>
      <trkpt lat="45.79015" lon="4.90195">
        <ele>191</ele>
        <time>2015-09-12T11:13:19.1Z</time>
      </trkpt>
      <trkpt lat="45.79045" lon="4.90227">
        <ele>192</ele>
        <time>2015-09-12T11:13:25.1Z</time>
      </trkpt>
      <trkpt lat="45.79076" lon="4.90263">
        <ele>191</ele>
        <time>2015-09-12T11:13:31.1Z</time>
      </trkpt>
      <trkpt lat="45.791" lon="4.90302">
        <ele>191</ele>
        <time>2015-09-12T11:13:36.1Z</time>
      </trkpt>
      <trkpt lat="45.79117" lon="4.90349">
        <ele>191</ele>
        <time>2015-09-12T11:13:41.1Z</time>
      </trkpt>
      <trkpt lat="45.7913" lon="4.90409">
        <ele>192</ele>
        <time>2015-09-12T11:13:47.1Z</time>
      </trkpt>
      <trkpt lat="45.79134" lon="4.90471">
        <ele>192</ele>
        <time>2015-09-12T11:13:53.1Z</time>
      </trkpt>
      <trkpt lat="45.79131" lon="4.90526">
        <ele>192</ele>
        <time>2015-09-12T11:13:58.1Z</time>
      </trkpt>
      <trkpt lat="45.79126" lon="4.90582">
        <ele>192</ele>
        <time>2015-09-12T11:14:03.1Z</time>
      </trkpt>
      <trkpt lat="45.7912" lon="4.90646">
        <ele>192</ele>
        <time>2015-09-12T11:14:09.1Z</time>
      </trkpt>
      <trkpt lat="45.79113" lon="4.90709">
        <ele>192</ele>
        <time>2015-09-12T11:14:15.1Z</time>
      </trkpt>
      <trkpt lat="45.79111" lon="4.90774">
        <ele>191</ele>
        <time>2015-09-12T11:14:21.1Z</time>
      </trkpt>
      <trkpt lat="45.79113" lon="4.90827">
        <ele>190</ele>
        <time>2015-09-12T11:14:26.1Z</time>
      </trkpt>
      <trkpt lat="45.7912" lon="4.90881">
        <ele>190</ele>
        <time>2015-09-12T11:14:31.1Z</time>
      </trkpt>
      <trkpt lat="45.79133" lon="4.90944">
        <ele>190</ele>
        <time>2015-09-12T11:14:37.1Z</time>
      </trkpt>
      <trkpt lat="45.79146" lon="4.90995">
        <ele>190</ele>
        <time>2015-09-12T11:14:42.1Z</time>
      </trkpt>
      <trkpt lat="45.7916" lon="4.91052">
        <ele>189</ele>
        <time>2015-09-12T11:14:48.1Z</time>
      </trkpt>
      <trkpt lat="45.79175" lon="4.91106">
        <ele>189</ele>
        <time>2015-09-12T11:14:54.1Z</time>
      </trkpt>
      <trkpt lat="45.79188" lon="4.91168">
        <ele>188</ele>
        <time>2015-09-12T11:15:00.1Z</time>
      </trkpt>
      <trkpt lat="45.79202" lon="4.91233">
        <ele>188</ele>
        <time>2015-09-12T11:15:06.1Z</time>
      </trkpt>
      <trkpt lat="45.79214" lon="4.91298">
        <ele>190</ele>
        <time>2015-09-12T11:15:12.1Z</time>
      </trkpt>
      <trkpt lat="45.79225" lon="4.91351">
        <ele>191</ele>
        <time>2015-09-12T11:15:17.1Z</time>
      </trkpt>
      <trkpt lat="45.79241" lon="4.91419">
        <ele>190</ele>
        <time>2015-09-12T11:15:23.1Z</time>
      </trkpt>
      <trkpt lat="45.79256" lon="4.91478">
        <ele>189</ele>
        <time>2015-09-12T11:15:28.1Z</time>
      </trkpt>
      <trkpt lat="45.79273" lon="4.9155">
        <ele>189</ele>
        <time>2015-09-12T11:15:34.1Z</time>
      </trkpt>
      <trkpt lat="45.79289" lon="4.91623">
        <ele>189</ele>
        <time>2015-09-12T11:15:40.1Z</time>
      </trkpt>
      <trkpt lat="45.79306" lon="4.91693">
        <ele>190</ele>
        <time>2015-09-12T11:15:46.1Z</time>
      </trkpt>
      <trkpt lat="45.79319" lon="4.9175">
        <ele>190</ele>
        <time>2015-09-12T11:15:51.1Z</time>
      </trkpt>
      <trkpt lat="45.79333" lon="4.91806">
        <ele>190</ele>
        <time>2015-09-12T11:15:56.1Z</time>
      </trkpt>
      <trkpt lat="45.79348" lon="4.91871">
        <ele>189</ele>
        <time>2015-09-12T11:16:02.1Z</time>
      </trkpt>
      <trkpt lat="45.7936" lon="4.91924">
        <ele>190</ele>
        <time>2015-09-12T11:16:07.1Z</time>
      </trkpt>
      <trkpt lat="45.79371" lon="4.91974">
        <ele>190</ele>
        <time>2015-09-12T11:16:12.1Z</time>
      </trkpt>
      <trkpt lat="45.79383" lon="4.92026">
        <ele>190</ele>
        <time>2015-09-12T11:16:17.1Z</time>
      </trkpt>
      <trkpt lat="45.79395" lon="4.92077">
        <ele>190</ele>
        <time>2015-09-12T11:16:22.1Z</time>
      </trkpt>
      <trkpt lat="45.79409" lon="4.92139">
        <ele>191</ele>
        <time>2015-09-12T11:16:28.1Z</time>
      </trkpt>
      <trkpt lat="45.79424" lon="4.92201">
        <ele>191</ele>
        <time>2015-09-12T11:16:34.1Z</time>
      </trkpt>
      <trkpt lat="45.79435" lon="4.92246">
        <ele>192</ele>
        <time>2015-09-12T11:16:39.1Z</time>
      </trkpt>
      <trkpt lat="45.79445" lon="4.92296">
        <ele>192</ele>
        <time>2015-09-12T11:16:45.1Z</time>
      </trkpt>
      <trkpt lat="45.79456" lon="4.92343">
        <ele>188</ele>
        <time>2015-09-12T11:16:51.1Z</time>
      </trkpt>
      <trkpt lat="45.79468" lon="4.92382">
        <ele>187</ele>
        <time>2015-09-12T11:16:56.1Z</time>
      </trkpt>
      <trkpt lat="45.79482" lon="4.92434">
        <ele>189</ele>
        <time>2015-09-12T11:17:02.1Z</time>
      </trkpt>
      <trkpt lat="45.79502" lon="4.92468">
        <ele>191</ele>
        <time>2015-09-12T11:17:07.1Z</time>
      </trkpt>
      <trkpt lat="45.79531" lon="4.92493">
        <ele>192</ele>
        <time>2015-09-12T11:17:12.1Z</time>
      </trkpt>
      <trkpt lat="45.79572" lon="4.92519">
        <ele>192</ele>
        <time>2015-09-12T11:17:18.1Z</time>
      </trkpt>
      <trkpt lat="45.79609" lon="4.92536">
        <ele>191</ele>
        <time>2015-09-12T11:17:23.1Z</time>
      </trkpt>
      <trkpt lat="45.79659" lon="4.92552">
        <ele>191</ele>
        <time>2015-09-12T11:17:29.1Z</time>
      </trkpt>
      <trkpt lat="45.79708" lon="4.9257">
        <ele>192</ele>
        <time>2015-09-12T11:17:35.1Z</time>
      </trkpt>
      <trkpt lat="45.79747" lon="4.92595">
        <ele>191</ele>
        <time>2015-09-12T11:17:40.1Z</time>
      </trkpt>
      <trkpt lat="45.7979" lon="4.92638">
        <ele>190</ele>
        <time>2015-09-12T11:17:46.1Z</time>
      </trkpt>
      <trkpt lat="45.79823" lon="4.92677">
        <ele>190</ele>
        <time>2015-09-12T11:17:51.1Z</time>
      </trkpt>
      <trkpt lat="45.7987" lon="4.92703">
        <ele>191</ele>
        <time>2015-09-12T11:17:57.1Z</time>
      </trkpt>
      <trkpt lat="45.79916" lon="4.92719">
        <ele>191</ele>
        <time>2015-09-12T11:18:03.1Z</time>
      </trkpt>
      <trkpt lat="45.79953" lon="4.92727">
        <ele>191</ele>
        <time>2015-09-12T11:18:08.1Z</time>
      </trkpt>
      <trkpt lat="45.79999" lon="4.92725">
        <ele>192</ele>
        <time>2015-09-12T11:18:14.1Z</time>
      </trkpt>
      <trkpt lat="45.80046" lon="4.92713">
        <ele>191</ele>
        <time>2015-09-12T11:18:20.1Z</time>
      </trkpt>
      <trkpt lat="45.80093" lon="4.92695">
        <ele>191</ele>
        <time>2015-09-12T11:18:26.1Z</time>
      </trkpt>
      <trkpt lat="45.80127" lon="4.92658">
        <ele>190</ele>
        <time>2015-09-12T11:18:32.1Z</time>
      </trkpt>
      <trkpt lat="45.80139" lon="4.92612">
        <ele>188</ele>
        <time>2015-09-12T11:18:37.1Z</time>
      </trkpt>
      <trkpt lat="45.80176" lon="4.92601">
        <ele>188</ele>
        <time>2015-09-12T11:18:43.1Z</time>
      </trkpt>
      <trkpt lat="45.80195" lon="4.92638">
        <ele>188</ele>
        <time>2015-09-12T11:18:48.1Z</time>
      </trkpt>
      <trkpt lat="45.80213" lon="4.92698">
        <ele>187</ele>
        <time>2015-09-12T11:18:54.1Z</time>
      </trkpt>
      <trkpt lat="45.80222" lon="4.92749">
        <ele>186</ele>
        <time>2015-09-12T11:18:59.1Z</time>
      </trkpt>
      <trkpt lat="45.80224" lon="4.928">
        <ele>190</ele>
        <time>2015-09-12T11:19:05.1Z</time>
      </trkpt>
      <trkpt lat="45.8023" lon="4.9285">
        <ele>191</ele>
        <time>2015-09-12T11:19:11.1Z</time>
      </trkpt>
      <trkpt lat="45.8024" lon="4.92902">
        <ele>192</ele>
        <time>2015-09-12T11:19:17.1Z</time>
      </trkpt>
      <trkpt lat="45.80249" lon="4.92948">
        <ele>194</ele>
        <time>2015-09-12T11:19:22.1Z</time>
      </trkpt>
      <trkpt lat="45.80261" lon="4.93002">
        <ele>193</ele>
        <time>2015-09-12T11:19:28.1Z</time>
      </trkpt>
      <trkpt lat="45.80268" lon="4.93051">
        <ele>193</ele>
        <time>2015-09-12T11:19:33.1Z</time>
      </trkpt>
      <trkpt lat="45.80279" lon="4.93108">
        <ele>194</ele>
        <time>2015-09-12T11:19:39.1Z</time>
      </trkpt>
      <trkpt lat="45.80289" lon="4.93166">
        <ele>194</ele>
        <time>2015-09-12T11:19:45.1Z</time>
      </trkpt>
      <trkpt lat="45.80296" lon="4.93215">
        <ele>194</ele>
        <time>2015-09-12T11:19:50.1Z</time>
      </trkpt>
      <trkpt lat="45.80301" lon="4.93265">
        <ele>194</ele>
        <time>2015-09-12T11:19:55.1Z</time>
      </trkpt>
      <trkpt lat="45.80305" lon="4.93313">
        <ele>195</ele>
        <time>2015-09-12T11:20:00.1Z</time>
      </trkpt>
      <trkpt lat="45.80313" lon="4.93353">
        <ele>195</ele>
        <time>2015-09-12T11:20:05.1Z</time>
      </trkpt>
      <trkpt lat="45.80319" lon="4.93392">
        <ele>192</ele>
        <time>2015-09-12T11:20:11.1Z</time>
      </trkpt>
      <trkpt lat="45.80317" lon="4.93416">
        <ele>192</ele>
        <time>2015-09-12T11:20:17.1Z</time>
      </trkpt>
      <trkpt lat="45.80328" lon="4.9342">
        <ele>192</ele>
        <time>2015-09-12T11:20:23.1Z</time>
      </trkpt>
      <trkpt lat="45.80349" lon="4.93407">
        <ele>192</ele>
        <time>2015-09-12T11:20:29.1Z</time>
      </trkpt>
      <trkpt lat="45.80388" lon="4.9339">
        <ele>190</ele>
        <time>2015-09-12T11:20:35.1Z</time>
      </trkpt>
      <trkpt lat="45.80431" lon="4.93372">
        <ele>189</ele>
        <time>2015-09-12T11:20:41.1Z</time>
      </trkpt>
      <trkpt lat="45.80471" lon="4.93355">
        <ele>188</ele>
        <time>2015-09-12T11:20:47.1Z</time>
      </trkpt>
      <trkpt lat="45.80488" lon="4.93356">
        <ele>190</ele>
        <time>2015-09-12T11:20:53.1Z</time>
      </trkpt>
      <trkpt lat="45.80494" lon="4.93363">
        <ele>192</ele>
        <time>2015-09-12T11:20:59.1Z</time>
      </trkpt>
      <trkpt lat="45.80497" lon="4.93354">
        <ele>192</ele>
        <time>2015-09-12T11:21:04.1Z</time>
      </trkpt>
      <trkpt lat="45.80498" lon="4.93355">
        <ele>192</ele>
        <time>2015-09-12T11:21:10.1Z</time>
      </trkpt>
      <trkpt lat="45.80489" lon="4.93372">
        <ele>193</ele>
        <time>2015-09-12T11:21:16.1Z</time>
      </trkpt>
      <trkpt lat="45.80489" lon="4.93408">
        <ele>193</ele>
        <time>2015-09-12T11:21:22.1Z</time>
      </trkpt>
      <trkpt lat="45.80498" lon="4.93449">
        <ele>193</ele>
        <time>2015-09-12T11:21:28.1Z</time>
      </trkpt>
      <trkpt lat="45.80512" lon="4.93485">
        <ele>191</ele>
        <time>2015-09-12T11:21:33.1Z</time>
      </trkpt>
      <trkpt lat="45.80534" lon="4.93523">
        <ele>191</ele>
        <time>2015-09-12T11:21:39.1Z</time>
      </trkpt>
      <trkpt lat="45.80555" lon="4.93545">
        <ele>192</ele>
        <time>2015-09-12T11:21:44.1Z</time>
      </trkpt>
      <trkpt lat="45.8058" lon="4.93561">
        <ele>193</ele>
        <time>2015-09-12T11:21:50.1Z</time>
      </trkpt>
      <trkpt lat="45.80612" lon="4.93556">
        <ele>193</ele>
        <time>2015-09-12T11:21:56.1Z</time>
      </trkpt>
      <trkpt lat="45.80639" lon="4.93536">
        <ele>192</ele>
        <time>2015-09-12T11:22:02.1Z</time>
      </trkpt>
      <trkpt lat="45.80661" lon="4.93513">
        <ele>191</ele>
        <time>2015-09-12T11:22:08.1Z</time>
      </trkpt>
      <trkpt lat="45.8068" lon="4.93503">
        <ele>191</ele>
        <time>2015-09-12T11:22:13.1Z</time>
      </trkpt>
      <trkpt lat="45.80706" lon="4.93519">
        <ele>191</ele>
        <time>2015-09-12T11:22:19.1Z</time>
      </trkpt>
      <trkpt lat="45.80736" lon="4.93529">
        <ele>191</ele>
        <time>2015-09-12T11:22:25.1Z</time>
      </trkpt>
      <trkpt lat="45.80759" lon="4.93516">
        <ele>191</ele>
        <time>2015-09-12T11:22:30.1Z</time>
      </trkpt>
      <trkpt lat="45.80786" lon="4.93537">
        <ele>191</ele>
        <time>2015-09-12T11:22:36.1Z</time>
      </trkpt>
      <trkpt lat="45.80807" lon="4.93552">
        <ele>191</ele>
        <time>2015-09-12T11:22:41.1Z</time>
      </trkpt>
      <trkpt lat="45.80826" lon="4.93572">
        <ele>192</ele>
        <time>2015-09-12T11:22:47.1Z</time>
      </trkpt>
      <trkpt lat="45.80847" lon="4.93583">
        <ele>193</ele>
        <time>2015-09-12T11:22:52.1Z</time>
      </trkpt>
      <trkpt lat="45.80881" lon="4.93587">
        <ele>195</ele>
        <time>2015-09-12T11:22:58.1Z</time>
      </trkpt>
      <trkpt lat="45.80898" lon="4.93625">
        <ele>195</ele>
        <time>2015-09-12T11:23:04.1Z</time>
      </trkpt>
      <trkpt lat="45.80903" lon="4.93664">
        <ele>195</ele>
        <time>2015-09-12T11:23:09.1Z</time>
      </trkpt>
      <trkpt lat="45.80922" lon="4.93709">
        <ele>195</ele>
        <time>2015-09-12T11:23:15.1Z</time>
      </trkpt>
      <trkpt lat="45.8094" lon="4.93747">
        <ele>194</ele>
        <time>2015-09-12T11:23:20.1Z</time>
      </trkpt>
      <trkpt lat="45.80954" lon="4.9379">
        <ele>193</ele>
        <time>2015-09-12T11:23:25.1Z</time>
      </trkpt>
      <trkpt lat="45.80967" lon="4.93844">
        <ele>193</ele>
        <time>2015-09-12T11:23:31.1Z</time>
      </trkpt>
      <trkpt lat="45.80975" lon="4.93898">
        <ele>195</ele>
        <time>2015-09-12T11:23:37.1Z</time>
      </trkpt>
      <trkpt lat="45.8098" lon="4.93952">
        <ele>194</ele>
        <time>2015-09-12T11:23:43.1Z</time>
      </trkpt>
      <trkpt lat="45.80984" lon="4.93999">
        <ele>194</ele>
        <time>2015-09-12T11:23:49.1Z</time>
      </trkpt>
      <trkpt lat="45.80993" lon="4.94037">
        <ele>193</ele>
        <time>2015-09-12T11:23:54.1Z</time>
      </trkpt>
      <trkpt lat="45.81013" lon="4.94068">
        <ele>193</ele>
        <time>2015-09-12T11:23:59.1Z</time>
      </trkpt>
      <trkpt lat="45.81035" lon="4.94095">
        <ele>193</ele>
        <time>2015-09-12T11:24:04.1Z</time>
      </trkpt>
      <trkpt lat="45.81046" lon="4.94131">
        <ele>194</ele>
        <time>2015-09-12T11:24:10.1Z</time>
      </trkpt>
      <trkpt lat="45.81047" lon="4.94156">
        <ele>194</ele>
        <time>2015-09-12T11:24:15.1Z</time>
      </trkpt>
      <trkpt lat="45.81043" lon="4.94192">
        <ele>193</ele>
        <time>2015-09-12T11:24:21.1Z</time>
      </trkpt>
      <trkpt lat="45.81034" lon="4.94218">
        <ele>194</ele>
        <time>2015-09-12T11:24:26.1Z</time>
      </trkpt>
      <trkpt lat="45.81035" lon="4.94252">
        <ele>194</ele>
        <time>2015-09-12T11:24:32.1Z</time>
      </trkpt>
      <trkpt lat="45.81034" lon="4.94291">
        <ele>194</ele>
        <time>2015-09-12T11:24:37.1Z</time>
      </trkpt>
      <trkpt lat="45.81037" lon="4.94331">
        <ele>194</ele>
        <time>2015-09-12T11:24:43.1Z</time>
      </trkpt>
      <trkpt lat="45.81027" lon="4.94365">
        <ele>194</ele>
        <time>2015-09-12T11:24:49.1Z</time>
      </trkpt>
      <trkpt lat="45.81011" lon="4.94381">
        <ele>193</ele>
        <time>2015-09-12T11:24:54.1Z</time>
      </trkpt>
      <trkpt lat="45.81002" lon="4.944">
        <ele>192</ele>
        <time>2015-09-12T11:25:00.1Z</time>
      </trkpt>
      <trkpt lat="45.81007" lon="4.94416">
        <ele>192</ele>
        <time>2015-09-12T11:25:05.1Z</time>
      </trkpt>
      <trkpt lat="45.8102" lon="4.94432">
        <ele>192</ele>
        <time>2015-09-12T11:25:11.1Z</time>
      </trkpt>
      <trkpt lat="45.81032" lon="4.94443">
        <ele>193</ele>
        <time>2015-09-12T11:25:16.1Z</time>
      </trkpt>
      <trkpt lat="45.81041" lon="4.94451">
        <ele>193</ele>
        <time>2015-09-12T11:25:21.1Z</time>
      </trkpt>
      <trkpt lat="45.81055" lon="4.9446">
        <ele>193</ele>
        <time>2015-09-12T11:25:27.1Z</time>
      </trkpt>
      <trkpt lat="45.81057" lon="4.94479">
        <ele>193</ele>
        <time>2015-09-12T11:25:32.1Z</time>
      </trkpt>
      <trkpt lat="45.8107" lon="4.94488">
        <ele>193</ele>
        <time>2015-09-12T11:25:37.1Z</time>
      </trkpt>
      <trkpt lat="45.81075" lon="4.94511">
        <ele>193</ele>
        <time>2015-09-12T11:25:43.1Z</time>
      </trkpt>
      <trkpt lat="45.81085" lon="4.9452">
        <ele>193</ele>
        <time>2015-09-12T11:25:49.1Z</time>
      </trkpt>
      <trkpt lat="45.81089" lon="4.94521">
        <ele>193</ele>
        <time>2015-09-12T11:25:54.1Z</time>
      </trkpt>
      <trkpt lat="45.81094" lon="4.94521">
        <ele>194</ele>
        <time>2015-09-12T11:26:00.1Z</time>
      </trkpt>
      <trkpt lat="45.81101" lon="4.94521">
        <ele>194</ele>
        <time>2015-09-12T11:26:05.1Z</time>
      </trkpt>
      <trkpt lat="45.81112" lon="4.94538">
        <ele>193</ele>
        <time>2015-09-12T11:26:10.1Z</time>
      </trkpt>
      <trkpt lat="45.81123" lon="4.94561">
        <ele>194</ele>
        <time>2015-09-12T11:26:16.1Z</time>
      </trkpt>
      <trkpt lat="45.81131" lon="4.94582">
        <ele>194</ele>
        <time>2015-09-12T11:26:21.1Z</time>
      </trkpt>
      <trkpt lat="45.81137" lon="4.94615">
        <ele>194</ele>
        <time>2015-09-12T11:26:27.1Z</time>
      </trkpt>
      <trkpt lat="45.8114" lon="4.94645">
        <ele>194</ele>
        <time>2015-09-12T11:26:32.1Z</time>
      </trkpt>
      <trkpt lat="45.81142" lon="4.94684">
        <ele>194</ele>
        <time>2015-09-12T11:26:38.1Z</time>
      </trkpt>
      <trkpt lat="45.81147" lon="4.94721">
        <ele>194</ele>
        <time>2015-09-12T11:26:43.1Z</time>
      </trkpt>
      <trkpt lat="45.8115" lon="4.94763">
        <ele>194</ele>
        <time>2015-09-12T11:26:49.1Z</time>
      </trkpt>
      <trkpt lat="45.81154" lon="4.94788">
        <ele>194</ele>
        <time>2015-09-12T11:26:54.1Z</time>
      </trkpt>
      <trkpt lat="45.81165" lon="4.948">
        <ele>194</ele>
        <time>2015-09-12T11:27:00.1Z</time>
      </trkpt>
      <trkpt lat="45.8117" lon="4.94811">
        <ele>194</ele>
        <time>2015-09-12T11:27:06.1Z</time>
      </trkpt>
      <trkpt lat="45.81183" lon="4.94824">
        <ele>194</ele>
        <time>2015-09-12T11:27:12.1Z</time>
      </trkpt>
      <trkpt lat="45.81197" lon="4.94834">
        <ele>195</ele>
        <time>2015-09-12T11:27:17.1Z</time>
      </trkpt>
      <trkpt lat="45.81207" lon="4.94828">
        <ele>195</ele>
        <time>2015-09-12T11:27:22.1Z</time>
      </trkpt>
      <trkpt lat="45.81221" lon="4.94816">
        <ele>195</ele>
        <time>2015-09-12T11:27:28.1Z</time>
      </trkpt>
      <trkpt lat="45.81237" lon="4.94819">
        <ele>196</ele>
        <time>2015-09-12T11:27:34.1Z</time>
      </trkpt>
      <trkpt lat="45.81249" lon="4.94836">
        <ele>195</ele>
        <time>2015-09-12T11:27:39.1Z</time>
      </trkpt>
      <trkpt lat="45.81255" lon="4.94854">
        <ele>195</ele>
        <time>2015-09-12T11:27:45.1Z</time>
      </trkpt>
      <trkpt lat="45.81248" lon="4.94872">
        <ele>194</ele>
        <time>2015-09-12T11:27:50.1Z</time>
      </trkpt>
      <trkpt lat="45.81232" lon="4.94873">
        <ele>194</ele>
        <time>2015-09-12T11:27:56.1Z</time>
      </trkpt>
      <trkpt lat="45.81223" lon="4.94871">
        <ele>194</ele>
        <time>2015-09-12T11:28:01.1Z</time>
      </trkpt>
      <trkpt lat="45.81202" lon="4.94868">
        <ele>194</ele>
        <time>2015-09-12T11:28:07.1Z</time>
      </trkpt>
      <trkpt lat="45.81192" lon="4.94883">
        <ele>194</ele>
        <time>2015-09-12T11:28:12.1Z</time>
      </trkpt>
      <trkpt lat="45.8118" lon="4.94899">
        <ele>194</ele>
        <time>2015-09-12T11:28:18.1Z</time>
      </trkpt>
      <trkpt lat="45.81178" lon="4.94921">
        <ele>195</ele>
        <time>2015-09-12T11:28:23.1Z</time>
      </trkpt>
      <trkpt lat="45.81167" lon="4.9494">
        <ele>194</ele>
        <time>2015-09-12T11:28:29.1Z</time>
      </trkpt>
      <trkpt lat="45.81164" lon="4.94957">
        <ele>193</ele>
        <time>2015-09-12T11:28:35.1Z</time>
      </trkpt>
      <trkpt lat="45.81149" lon="4.9496">
        <ele>193</ele>
        <time>2015-09-12T11:28:40.1Z</time>
      </trkpt>
      <trkpt lat="45.81125" lon="4.94952">
        <ele>193</ele>
        <time>2015-09-12T11:28:46.1Z</time>
      </trkpt>
      <trkpt lat="45.81109" lon="4.9495">
        <ele>192</ele>
        <time>2015-09-12T11:28:51.1Z</time>
      </trkpt>
      <trkpt lat="45.81102" lon="4.94952">
        <ele>192</ele>
        <time>2015-09-12T11:28:57.1Z</time>
      </trkpt>
      <trkpt lat="45.81091" lon="4.94947">
        <ele>192</ele>
        <time>2015-09-12T11:29:03.1Z</time>
      </trkpt>
      <trkpt lat="45.81072" lon="4.94947">
        <ele>190</ele>
        <time>2015-09-12T11:29:09.1Z</time>
      </trkpt>
      <trkpt lat="45.81057" lon="4.94941">
        <ele>188</ele>
        <time>2015-09-12T11:29:14.1Z</time>
      </trkpt>
      <trkpt lat="45.8104" lon="4.94929">
        <ele>186</ele>
        <time>2015-09-12T11:29:19.1Z</time>
      </trkpt>
      <trkpt lat="45.81013" lon="4.94921">
        <ele>186</ele>
        <time>2015-09-12T11:29:25.1Z</time>
      </trkpt>
      <trkpt lat="45.80982" lon="4.94909">
        <ele>185</ele>
        <time>2015-09-12T11:29:31.1Z</time>
      </trkpt>
      <trkpt lat="45.80948" lon="4.9489">
        <ele>185</ele>
        <time>2015-09-12T11:29:37.1Z</time>
      </trkpt>
      <trkpt lat="45.80922" lon="4.94868">
        <ele>186</ele>
        <time>2015-09-12T11:29:42.1Z</time>
      </trkpt>
      <trkpt lat="45.80893" lon="4.94838">
        <ele>186</ele>
        <time>2015-09-12T11:29:48.1Z</time>
      </trkpt>
      <trkpt lat="45.8087" lon="4.94811">
        <ele>186</ele>
        <time>2015-09-12T11:29:53.1Z</time>
      </trkpt>
      <trkpt lat="45.80849" lon="4.94785">
        <ele>186</ele>
        <time>2015-09-12T11:29:58.1Z</time>
      </trkpt>
      <trkpt lat="45.80832" lon="4.94758">
        <ele>186</ele>
        <time>2015-09-12T11:30:03.1Z</time>
      </trkpt>
      <trkpt lat="45.80809" lon="4.94747">
        <ele>186</ele>
        <time>2015-09-12T11:30:09.1Z</time>
      </trkpt>
      <trkpt lat="45.80792" lon="4.94757">
        <ele>187</ele>
        <time>2015-09-12T11:30:14.1Z</time>
      </trkpt>
      <trkpt lat="45.80779" lon="4.94776">
        <ele>187</ele>
        <time>2015-09-12T11:30:20.1Z</time>
      </trkpt>
      <trkpt lat="45.80783" lon="4.94806">
        <ele>187</ele>
        <time>2015-09-12T11:30:26.1Z</time>
      </trkpt>
      <trkpt lat="45.80792" lon="4.94836">
        <ele>187</ele>
        <time>2015-09-12T11:30:32.1Z</time>
      </trkpt>
      <trkpt lat="45.80802" lon="4.94856">
        <ele>187</ele>
        <time>2015-09-12T11:30:38.1Z</time>
      </trkpt>
      <trkpt lat="45.80811" lon="4.94867">
        <ele>187</ele>
        <time>2015-09-12T11:30:43.1Z</time>
      </trkpt>
      <trkpt lat="45.80824" lon="4.94881">
        <ele>186</ele>
        <time>2015-09-12T11:30:49.1Z</time>
      </trkpt>
      <trkpt lat="45.80848" lon="4.94896">
        <ele>185</ele>
        <time>2015-09-12T11:30:54.1Z</time>
      </trkpt>
      <trkpt lat="45.8087" lon="4.94909">
        <ele>187</ele>
        <time>2015-09-12T11:30:59.1Z</time>
      </trkpt>
      <trkpt lat="45.80886" lon="4.94928">
        <ele>189</ele>
        <time>2015-09-12T11:31:04.1Z</time>
      </trkpt>
      <trkpt lat="45.80901" lon="4.94951">
        <ele>189</ele>
        <time>2015-09-12T11:31:09.1Z</time>
      </trkpt>
      <trkpt lat="45.80917" lon="4.94977">
        <ele>189</ele>
        <time>2015-09-12T11:31:14.1Z</time>
      </trkpt>
      <trkpt lat="45.80933" lon="4.95004">
        <ele>189</ele>
        <time>2015-09-12T11:31:19.1Z</time>
      </trkpt>
      <trkpt lat="45.80951" lon="4.95031">
        <ele>189</ele>
        <time>2015-09-12T11:31:24.1Z</time>
      </trkpt>
      <trkpt lat="45.80968" lon="4.95055">
        <ele>189</ele>
        <time>2015-09-12T11:31:29.1Z</time>
      </trkpt>
      <trkpt lat="45.80988" lon="4.95089">
        <ele>190</ele>
        <time>2015-09-12T11:31:35.1Z</time>
      </trkpt>
      <trkpt lat="45.81006" lon="4.95116">
        <ele>190</ele>
        <time>2015-09-12T11:31:40.1Z</time>
      </trkpt>
      <trkpt lat="45.81029" lon="4.95148">
        <ele>190</ele>
        <time>2015-09-12T11:31:46.1Z</time>
      </trkpt>
      <trkpt lat="45.81052" lon="4.95167">
        <ele>190</ele>
        <time>2015-09-12T11:31:51.1Z</time>
      </trkpt>
      <trkpt lat="45.81078" lon="4.9519">
        <ele>189</ele>
        <time>2015-09-12T11:31:57.1Z</time>
      </trkpt>
      <trkpt lat="45.81092" lon="4.95223">
        <ele>189</ele>
        <time>2015-09-12T11:32:03.1Z</time>
      </trkpt>
      <trkpt lat="45.81091" lon="4.95258">
        <ele>188</ele>
        <time>2015-09-12T11:32:09.1Z</time>
      </trkpt>
      <trkpt lat="45.81093" lon="4.9528">
        <ele>188</ele>
        <time>2015-09-12T11:32:14.1Z</time>
      </trkpt>
      <trkpt lat="45.81093" lon="4.95307">
        <ele>188</ele>
        <time>2015-09-12T11:32:20.1Z</time>
      </trkpt>
      <trkpt lat="45.81097" lon="4.9533">
        <ele>189</ele>
        <time>2015-09-12T11:32:26.1Z</time>
      </trkpt>
      <trkpt lat="45.81115" lon="4.95337">
        <ele>190</ele>
        <time>2015-09-12T11:32:32.1Z</time>
      </trkpt>
      <trkpt lat="45.81129" lon="4.95343">
        <ele>190</ele>
        <time>2015-09-12T11:32:37.1Z</time>
      </trkpt>
      <trkpt lat="45.81136" lon="4.95363">
        <ele>188</ele>
        <time>2015-09-12T11:32:43.1Z</time>
      </trkpt>
      <trkpt lat="45.81144" lon="4.95371">
        <ele>188</ele>
        <time>2015-09-12T11:32:49.1Z</time>
      </trkpt>
      <trkpt lat="45.81151" lon="4.95377">
        <ele>189</ele>
        <time>2015-09-12T11:32:55.1Z</time>
      </trkpt>
      <trkpt lat="45.81167" lon="4.95375">
        <ele>188</ele>
        <time>2015-09-12T11:33:00.1Z</time>
      </trkpt>
      <trkpt lat="45.81187" lon="4.9537">
        <ele>187</ele>
        <time>2015-09-12T11:33:05.1Z</time>
      </trkpt>
      <trkpt lat="45.81203" lon="4.95368">
        <ele>187</ele>
        <time>2015-09-12T11:33:10.1Z</time>
      </trkpt>
      <trkpt lat="45.8122" lon="4.95365">
        <ele>189</ele>
        <time>2015-09-12T11:33:15.1Z</time>
      </trkpt>
      <trkpt lat="45.81241" lon="4.95356">
        <ele>190</ele>
        <time>2015-09-12T11:33:20.1Z</time>
      </trkpt>
      <trkpt lat="45.81255" lon="4.9538">
        <ele>190</ele>
        <time>2015-09-12T11:33:26.1Z</time>
      </trkpt>
      <trkpt lat="45.81274" lon="4.95415">
        <ele>191</ele>
        <time>2015-09-12T11:33:32.1Z</time>
      </trkpt>
      <trkpt lat="45.8129" lon="4.95448">
        <ele>191</ele>
        <time>2015-09-12T11:33:38.1Z</time>
      </trkpt>
      <trkpt lat="45.81288" lon="4.95483">
        <ele>192</ele>
        <time>2015-09-12T11:33:43.1Z</time>
      </trkpt>
      <trkpt lat="45.813" lon="4.9552">
        <ele>191</ele>
        <time>2015-09-12T11:33:49.1Z</time>
      </trkpt>
      <trkpt lat="45.81313" lon="4.95549">
        <ele>191</ele>
        <time>2015-09-12T11:33:54.1Z</time>
      </trkpt>
      <trkpt lat="45.8132" lon="4.95582">
        <ele>192</ele>
        <time>2015-09-12T11:33:59.1Z</time>
      </trkpt>
      <trkpt lat="45.81327" lon="4.9562">
        <ele>193</ele>
        <time>2015-09-12T11:34:04.1Z</time>
      </trkpt>
      <trkpt lat="45.81327" lon="4.95667">
        <ele>193</ele>
        <time>2015-09-12T11:34:10.1Z</time>
      </trkpt>
      <trkpt lat="45.81323" lon="4.95702">
        <ele>192</ele>
        <time>2015-09-12T11:34:16.1Z</time>
      </trkpt>
      <trkpt lat="45.81306" lon="4.95725">
        <ele>192</ele>
        <time>2015-09-12T11:34:21.1Z</time>
      </trkpt>
      <trkpt lat="45.81304" lon="4.95756">
        <ele>191</ele>
        <time>2015-09-12T11:34:26.1Z</time>
      </trkpt>
      <trkpt lat="45.8131" lon="4.95799">
        <ele>192</ele>
        <time>2015-09-12T11:34:32.1Z</time>
      </trkpt>
      <trkpt lat="45.81301" lon="4.95839">
        <ele>193</ele>
        <time>2015-09-12T11:34:37.1Z</time>
      </trkpt>
      <trkpt lat="45.81277" lon="4.95866">
        <ele>191</ele>
        <time>2015-09-12T11:34:42.1Z</time>
      </trkpt>
      <trkpt lat="45.81244" lon="4.95896">
        <ele>191</ele>
        <time>2015-09-12T11:34:48.1Z</time>
      </trkpt>
      <trkpt lat="45.81227" lon="4.95923">
        <ele>191</ele>
        <time>2015-09-12T11:34:53.1Z</time>
      </trkpt>
      <trkpt lat="45.8122" lon="4.95952">
        <ele>190</ele>
        <time>2015-09-12T11:34:58.1Z</time>
      </trkpt>
      <trkpt lat="45.81216" lon="4.95974">
        <ele>190</ele>
        <time>2015-09-12T11:35:03.1Z</time>
      </trkpt>
      <trkpt lat="45.81213" lon="4.96003">
        <ele>192</ele>
        <time>2015-09-12T11:35:08.1Z</time>
      </trkpt>
      <trkpt lat="45.81208" lon="4.96042">
        <ele>192</ele>
        <time>2015-09-12T11:35:13.1Z</time>
      </trkpt>
      <trkpt lat="45.812" lon="4.96079">
        <ele>191</ele>
        <time>2015-09-12T11:35:18.1Z</time>
      </trkpt>
      <trkpt lat="45.81189" lon="4.96109">
        <ele>190</ele>
        <time>2015-09-12T11:35:23.1Z</time>
      </trkpt>
      <trkpt lat="45.81181" lon="4.96158">
        <ele>191</ele>
        <time>2015-09-12T11:35:29.1Z</time>
      </trkpt>
      <trkpt lat="45.81172" lon="4.962">
        <ele>193</ele>
        <time>2015-09-12T11:35:34.1Z</time>
      </trkpt>
      <trkpt lat="45.81167" lon="4.96238">
        <ele>193</ele>
        <time>2015-09-12T11:35:39.1Z</time>
      </trkpt>
      <trkpt lat="45.81169" lon="4.9626">
        <ele>190</ele>
        <time>2015-09-12T11:35:44.1Z</time>
      </trkpt>
      <trkpt lat="45.81183" lon="4.96255">
        <ele>189</ele>
        <time>2015-09-12T11:35:49.1Z</time>
      </trkpt>
      <trkpt lat="45.81205" lon="4.96247">
        <ele>189</ele>
        <time>2015-09-12T11:35:54.1Z</time>
      </trkpt>
      <trkpt lat="45.81232" lon="4.96232">
        <ele>189</ele>
        <time>2015-09-12T11:36:00.1Z</time>
      </trkpt>
      <trkpt lat="45.81251" lon="4.9621">
        <ele>189</ele>
        <time>2015-09-12T11:36:05.1Z</time>
      </trkpt>
      <trkpt lat="45.81265" lon="4.96191">
        <ele>190</ele>
        <time>2015-09-12T11:36:10.1Z</time>
      </trkpt>
      <trkpt lat="45.81279" lon="4.9619">
        <ele>191</ele>
        <time>2015-09-12T11:36:15.1Z</time>
      </trkpt>
      <trkpt lat="45.81287" lon="4.962">
        <ele>190</ele>
        <time>2015-09-12T11:36:20.1Z</time>
      </trkpt>
      <trkpt lat="45.81297" lon="4.96226">
        <ele>190</ele>
        <time>2015-09-12T11:36:26.1Z</time>
      </trkpt>
      <trkpt lat="45.81308" lon="4.96236">
        <ele>189</ele>
        <time>2015-09-12T11:36:32.1Z</time>
      </trkpt>
      <trkpt lat="45.81324" lon="4.96239">
        <ele>189</ele>
        <time>2015-09-12T11:36:37.1Z</time>
      </trkpt>
      <trkpt lat="45.81337" lon="4.96248">
        <ele>189</ele>
        <time>2015-09-12T11:36:42.1Z</time>
      </trkpt>
      <trkpt lat="45.81352" lon="4.96258">
        <ele>189</ele>
        <time>2015-09-12T11:36:47.1Z</time>
      </trkpt>
      <trkpt lat="45.81373" lon="4.96271">
        <ele>189</ele>
        <time>2015-09-12T11:36:53.1Z</time>
      </trkpt>
      <trkpt lat="45.81394" lon="4.96287">
        <ele>189</ele>
        <time>2015-09-12T11:36:59.1Z</time>
      </trkpt>
      <trkpt lat="45.81414" lon="4.96314">
        <ele>189</ele>
        <time>2015-09-12T11:37:05.1Z</time>
      </trkpt>
      <trkpt lat="45.81435" lon="4.96348">
        <ele>189</ele>
        <time>2015-09-12T11:37:11.1Z</time>
      </trkpt>
      <trkpt lat="45.81456" lon="4.96374">
        <ele>189</ele>
        <time>2015-09-12T11:37:17.1Z</time>
      </trkpt>
      <trkpt lat="45.81473" lon="4.96394">
        <ele>189</ele>
        <time>2015-09-12T11:37:23.1Z</time>
      </trkpt>
      <trkpt lat="45.81488" lon="4.96414">
        <ele>189</ele>
        <time>2015-09-12T11:37:29.1Z</time>
      </trkpt>
      <trkpt lat="45.81488" lon="4.96439">
        <ele>189</ele>
        <time>2015-09-12T11:37:34.1Z</time>
      </trkpt>
      <trkpt lat="45.81483" lon="4.96454">
        <ele>189</ele>
        <time>2015-09-12T11:37:40.1Z</time>
      </trkpt>
      <trkpt lat="45.81495" lon="4.96471">
        <ele>189</ele>
        <time>2015-09-12T11:37:46.1Z</time>
      </trkpt>
      <trkpt lat="45.81503" lon="4.96488">
        <ele>189</ele>
        <time>2015-09-12T11:37:51.1Z</time>
      </trkpt>
      <trkpt lat="45.81506" lon="4.96509">
        <ele>189</ele>
        <time>2015-09-12T11:37:57.1Z</time>
      </trkpt>
      <trkpt lat="45.815" lon="4.96534">
        <ele>188</ele>
        <time>2015-09-12T11:38:02.1Z</time>
      </trkpt>
      <trkpt lat="45.81508" lon="4.96569">
        <ele>187</ele>
        <time>2015-09-12T11:38:08.1Z</time>
      </trkpt>
      <trkpt lat="45.81508" lon="4.96604">
        <ele>186</ele>
        <time>2015-09-12T11:38:13.1Z</time>
      </trkpt>
      <trkpt lat="45.81512" lon="4.96638">
        <ele>186</ele>
        <time>2015-09-12T11:38:19.1Z</time>
      </trkpt>
      <trkpt lat="45.81517" lon="4.96667">
        <ele>186</ele>
        <time>2015-09-12T11:38:24.1Z</time>
      </trkpt>
      <trkpt lat="45.81525" lon="4.96701">
        <ele>186</ele>
        <time>2015-09-12T11:38:30.1Z</time>
      </trkpt>
      <trkpt lat="45.81524" lon="4.96742">
        <ele>187</ele>
        <time>2015-09-12T11:38:36.1Z</time>
      </trkpt>
      <trkpt lat="45.81519" lon="4.96766">
        <ele>186</ele>
        <time>2015-09-12T11:38:41.1Z</time>
      </trkpt>
      <trkpt lat="45.8153" lon="4.96798">
        <ele>186</ele>
        <time>2015-09-12T11:38:47.1Z</time>
      </trkpt>
      <trkpt lat="45.81537" lon="4.96824">
        <ele>186</ele>
        <time>2015-09-12T11:38:52.1Z</time>
      </trkpt>
      <trkpt lat="45.81538" lon="4.96851">
        <ele>186</ele>
        <time>2015-09-12T11:38:58.1Z</time>
      </trkpt>
      <trkpt lat="45.81535" lon="4.96869">
        <ele>186</ele>
        <time>2015-09-12T11:39:03.1Z</time>
      </trkpt>
      <trkpt lat="45.81538" lon="4.96895">
        <ele>186</ele>
        <time>2015-09-12T11:39:09.1Z</time>
      </trkpt>
      <trkpt lat="45.81546" lon="4.96917">
        <ele>187</ele>
        <time>2015-09-12T11:39:15.1Z</time>
      </trkpt>
      <trkpt lat="45.81542" lon="4.96945">
        <ele>187</ele>
        <time>2015-09-12T11:39:20.1Z</time>
      </trkpt>
      <trkpt lat="45.81542" lon="4.96973">
        <ele>187</ele>
        <time>2015-09-12T11:39:25.1Z</time>
      </trkpt>
      <trkpt lat="45.8155" lon="4.97003">
        <ele>187</ele>
        <time>2015-09-12T11:39:31.1Z</time>
      </trkpt>
      <trkpt lat="45.81555" lon="4.97038">
        <ele>188</ele>
        <time>2015-09-12T11:39:37.1Z</time>
      </trkpt>
      <trkpt lat="45.81563" lon="4.97069">
        <ele>187</ele>
        <time>2015-09-12T11:39:43.1Z</time>
      </trkpt>
      <trkpt lat="45.81569" lon="4.971">
        <ele>187</ele>
        <time>2015-09-12T11:39:49.1Z</time>
      </trkpt>
      <trkpt lat="45.81572" lon="4.97137">
        <ele>187</ele>
        <time>2015-09-12T11:39:55.1Z</time>
      </trkpt>
      <trkpt lat="45.81576" lon="4.97162">
        <ele>187</ele>
        <time>2015-09-12T11:40:00.1Z</time>
      </trkpt>
      <trkpt lat="45.81572" lon="4.97189">
        <ele>188</ele>
        <time>2015-09-12T11:40:05.1Z</time>
      </trkpt>
      <trkpt lat="45.81572" lon="4.97219">
        <ele>188</ele>
        <time>2015-09-12T11:40:11.1Z</time>
      </trkpt>
      <trkpt lat="45.8157" lon="4.97246">
        <ele>187</ele>
        <time>2015-09-12T11:40:16.1Z</time>
      </trkpt>
      <trkpt lat="45.81554" lon="4.97269">
        <ele>186</ele>
        <time>2015-09-12T11:40:22.1Z</time>
      </trkpt>
      <trkpt lat="45.81548" lon="4.97294">
        <ele>186</ele>
        <time>2015-09-12T11:40:27.1Z</time>
      </trkpt>
      <trkpt lat="45.81531" lon="4.97305">
        <ele>186</ele>
        <time>2015-09-12T11:40:33.1Z</time>
      </trkpt>
      <trkpt lat="45.81526" lon="4.97317">
        <ele>186</ele>
        <time>2015-09-12T11:40:38.1Z</time>
      </trkpt>
      <trkpt lat="45.81531" lon="4.97333">
        <ele>186</ele>
        <time>2015-09-12T11:40:44.1Z</time>
      </trkpt>
      <trkpt lat="45.81542" lon="4.9734">
        <ele>187</ele>
        <time>2015-09-12T11:40:49.1Z</time>
      </trkpt>
      <trkpt lat="45.8155" lon="4.97351">
        <ele>186</ele>
        <time>2015-09-12T11:40:54.1Z</time>
      </trkpt>
      <trkpt lat="45.81552" lon="4.97365">
        <ele>188</ele>
        <time>2015-09-12T11:40:59.1Z</time>
      </trkpt>
      <trkpt lat="45.8156" lon="4.97381">
        <ele>188</ele>
        <time>2015-09-12T11:41:05.1Z</time>
      </trkpt>
      <trkpt lat="45.81564" lon="4.97411">
        <ele>188</ele>
        <time>2015-09-12T11:41:11.1Z</time>
      </trkpt>
      <trkpt lat="45.81551" lon="4.97437">
        <ele>187</ele>
        <time>2015-09-12T11:41:16.1Z</time>
      </trkpt>
      <trkpt lat="45.81538" lon="4.97465">
        <ele>187</ele>
        <time>2015-09-12T11:41:21.1Z</time>
      </trkpt>
      <trkpt lat="45.81539" lon="4.97498">
        <ele>187</ele>
        <time>2015-09-12T11:41:27.1Z</time>
      </trkpt>
      <trkpt lat="45.81539" lon="4.97517">
        <ele>188</ele>
        <time>2015-09-12T11:41:32.1Z</time>
      </trkpt>
      <trkpt lat="45.8152" lon="4.97538">
        <ele>188</ele>
        <time>2015-09-12T11:41:38.1Z</time>
      </trkpt>
      <trkpt lat="45.815" lon="4.97556">
        <ele>188</ele>
        <time>2015-09-12T11:41:43.1Z</time>
      </trkpt>
      <trkpt lat="45.8148" lon="4.9758">
        <ele>187</ele>
        <time>2015-09-12T11:41:49.1Z</time>
      </trkpt>
      <trkpt lat="45.81483" lon="4.97603">
        <ele>187</ele>
        <time>2015-09-12T11:41:55.1Z</time>
      </trkpt>
      <trkpt lat="45.81505" lon="4.97631">
        <ele>188</ele>
        <time>2015-09-12T11:42:01.1Z</time>
      </trkpt>
      <trkpt lat="45.81533" lon="4.97663">
        <ele>188</ele>
        <time>2015-09-12T11:42:07.1Z</time>
      </trkpt>
      <trkpt lat="45.81561" lon="4.97701">
        <ele>188</ele>
        <time>2015-09-12T11:42:13.1Z</time>
      </trkpt>
      <trkpt lat="45.81583" lon="4.9772">
        <ele>188</ele>
        <time>2015-09-12T11:42:18.1Z</time>
      </trkpt>
      <trkpt lat="45.81599" lon="4.97737">
        <ele>189</ele>
        <time>2015-09-12T11:42:24.1Z</time>
      </trkpt>
      <trkpt lat="45.81607" lon="4.97772">
        <ele>189</ele>
        <time>2015-09-12T11:42:29.1Z</time>
      </trkpt>
      <trkpt lat="45.81604" lon="4.97795">
        <ele>188</ele>
        <time>2015-09-12T11:42:35.1Z</time>
      </trkpt>
      <trkpt lat="45.81586" lon="4.97803">
        <ele>188</ele>
        <time>2015-09-12T11:42:40.1Z</time>
      </trkpt>
      <trkpt lat="45.81579" lon="4.97818">
        <ele>188</ele>
        <time>2015-09-12T11:42:46.1Z</time>
      </trkpt>
      <trkpt lat="45.81592" lon="4.97843">
        <ele>189</ele>
        <time>2015-09-12T11:42:52.1Z</time>
      </trkpt>
      <trkpt lat="45.81585" lon="4.97873">
        <ele>189</ele>
        <time>2015-09-12T11:42:57.1Z</time>
      </trkpt>
      <trkpt lat="45.81572" lon="4.97904">
        <ele>189</ele>
        <time>2015-09-12T11:43:02.1Z</time>
      </trkpt>
      <trkpt lat="45.8156" lon="4.9794">
        <ele>188</ele>
        <time>2015-09-12T11:43:07.1Z</time>
      </trkpt>
      <trkpt lat="45.81547" lon="4.97969">
        <ele>188</ele>
        <time>2015-09-12T11:43:12.1Z</time>
      </trkpt>
      <trkpt lat="45.81533" lon="4.97998">
        <ele>188</ele>
        <time>2015-09-12T11:43:18.1Z</time>
      </trkpt>
      <trkpt lat="45.81519" lon="4.98021">
        <ele>188</ele>
        <time>2015-09-12T11:43:23.1Z</time>
      </trkpt>
      <trkpt lat="45.81506" lon="4.9802">
        <ele>189</ele>
        <time>2015-09-12T11:43:28.1Z</time>
      </trkpt>
      <trkpt lat="45.81498" lon="4.98035">
        <ele>188</ele>
        <time>2015-09-12T11:43:33.1Z</time>
      </trkpt>
      <trkpt lat="45.81495" lon="4.98066">
        <ele>189</ele>
        <time>2015-09-12T11:43:38.1Z</time>
      </trkpt>
      <trkpt lat="45.81488" lon="4.9809">
        <ele>188</ele>
        <time>2015-09-12T11:43:43.1Z</time>
      </trkpt>
      <trkpt lat="45.81506" lon="4.98123">
        <ele>188</ele>
        <time>2015-09-12T11:43:49.1Z</time>
      </trkpt>
      <trkpt lat="45.8151" lon="4.98161">
        <ele>189</ele>
        <time>2015-09-12T11:43:55.1Z</time>
      </trkpt>
      <trkpt lat="45.81486" lon="4.98193">
        <ele>188</ele>
        <time>2015-09-12T11:44:01.1Z</time>
      </trkpt>
      <trkpt lat="45.81462" lon="4.98226">
        <ele>189</ele>
        <time>2015-09-12T11:44:07.1Z</time>
      </trkpt>
      <trkpt lat="45.81451" lon="4.98254">
        <ele>189</ele>
        <time>2015-09-12T11:44:12.1Z</time>
      </trkpt>
      <trkpt lat="45.81439" lon="4.98282">
        <ele>188</ele>
        <time>2015-09-12T11:44:17.1Z</time>
      </trkpt>
      <trkpt lat="45.81421" lon="4.98309">
        <ele>188</ele>
        <time>2015-09-12T11:44:22.1Z</time>
      </trkpt>
      <trkpt lat="45.81397" lon="4.98337">
        <ele>188</ele>
        <time>2015-09-12T11:44:28.1Z</time>
      </trkpt>
      <trkpt lat="45.81374" lon="4.98359">
        <ele>187</ele>
        <time>2015-09-12T11:44:34.1Z</time>
      </trkpt>
      <trkpt lat="45.81363" lon="4.98383">
        <ele>187</ele>
        <time>2015-09-12T11:44:40.1Z</time>
      </trkpt>
      <trkpt lat="45.8138" lon="4.98412">
        <ele>188</ele>
        <time>2015-09-12T11:44:46.1Z</time>
      </trkpt>
      <trkpt lat="45.81398" lon="4.9844">
        <ele>189</ele>
        <time>2015-09-12T11:44:51.1Z</time>
      </trkpt>
      <trkpt lat="45.81417" lon="4.98469">
        <ele>188</ele>
        <time>2015-09-12T11:44:56.1Z</time>
      </trkpt>
      <trkpt lat="45.8144" lon="4.985">
        <ele>188</ele>
        <time>2015-09-12T11:45:02.1Z</time>
      </trkpt>
      <trkpt lat="45.81451" lon="4.9852">
        <ele>188</ele>
        <time>2015-09-12T11:45:07.1Z</time>
      </trkpt>
      <trkpt lat="45.81441" lon="4.98528">
        <ele>188</ele>
        <time>2015-09-12T11:45:12.1Z</time>
      </trkpt>
      <trkpt lat="45.81435" lon="4.98552">
        <ele>189</ele>
        <time>2015-09-12T11:45:17.1Z</time>
      </trkpt>
      <trkpt lat="45.81431" lon="4.98585">
        <ele>189</ele>
        <time>2015-09-12T11:45:22.1Z</time>
      </trkpt>
      <trkpt lat="45.81421" lon="4.98625">
        <ele>188</ele>
        <time>2015-09-12T11:45:28.1Z</time>
      </trkpt>
      <trkpt lat="45.8141" lon="4.98668">
        <ele>187</ele>
        <time>2015-09-12T11:45:34.1Z</time>
      </trkpt>
      <trkpt lat="45.81401" lon="4.98709">
        <ele>187</ele>
        <time>2015-09-12T11:45:39.1Z</time>
      </trkpt>
      <trkpt lat="45.81387" lon="4.98759">
        <ele>187</ele>
        <time>2015-09-12T11:45:45.1Z</time>
      </trkpt>
      <trkpt lat="45.81373" lon="4.9881">
        <ele>187</ele>
        <time>2015-09-12T11:45:51.1Z</time>
      </trkpt>
      <trkpt lat="45.81366" lon="4.98849">
        <ele>187</ele>
        <time>2015-09-12T11:45:56.1Z</time>
      </trkpt>
      <trkpt lat="45.81357" lon="4.98886">
        <ele>187</ele>
        <time>2015-09-12T11:46:01.1Z</time>
      </trkpt>
      <trkpt lat="45.81348" lon="4.98931">
        <ele>187</ele>
        <time>2015-09-12T11:46:07.1Z</time>
      </trkpt>
      <trkpt lat="45.81346" lon="4.9898">
        <ele>187</ele>
        <time>2015-09-12T11:46:12.1Z</time>
      </trkpt>
      <trkpt lat="45.81333" lon="4.99">
        <ele>187</ele>
        <time>2015-09-12T11:46:17.1Z</time>
      </trkpt>
      <trkpt lat="45.8131" lon="4.98979">
        <ele>189</ele>
        <time>2015-09-12T11:46:23.1Z</time>
      </trkpt>
      <trkpt lat="45.81288" lon="4.98955">
        <ele>189</ele>
        <time>2015-09-12T11:46:28.1Z</time>
      </trkpt>
      <trkpt lat="45.81258" lon="4.98922">
        <ele>190</ele>
        <time>2015-09-12T11:46:34.1Z</time>
      </trkpt>
      <trkpt lat="45.81236" lon="4.98893">
        <ele>190</ele>
        <time>2015-09-12T11:46:39.1Z</time>
      </trkpt>
      <trkpt lat="45.81215" lon="4.98863">
        <ele>189</ele>
        <time>2015-09-12T11:46:44.1Z</time>
      </trkpt>
      <trkpt lat="45.81184" lon="4.98832">
        <ele>189</ele>
        <time>2015-09-12T11:46:50.1Z</time>
      </trkpt>
      <trkpt lat="45.81159" lon="4.98829">
        <ele>188</ele>
        <time>2015-09-12T11:46:55.1Z</time>
      </trkpt>
      <trkpt lat="45.81138" lon="4.98853">
        <ele>188</ele>
        <time>2015-09-12T11:47:00.1Z</time>
      </trkpt>
      <trkpt lat="45.81118" lon="4.98886">
        <ele>188</ele>
        <time>2015-09-12T11:47:05.1Z</time>
      </trkpt>
      <trkpt lat="45.81092" lon="4.98916">
        <ele>188</ele>
        <time>2015-09-12T11:47:11.1Z</time>
      </trkpt>
      <trkpt lat="45.8107" lon="4.98946">
        <ele>188</ele>
        <time>2015-09-12T11:47:16.1Z</time>
      </trkpt>
      <trkpt lat="45.81044" lon="4.98985">
        <ele>188</ele>
        <time>2015-09-12T11:47:22.1Z</time>
      </trkpt>
      <trkpt lat="45.81028" lon="4.99026">
        <ele>188</ele>
        <time>2015-09-12T11:47:27.1Z</time>
      </trkpt>
      <trkpt lat="45.8101" lon="4.99068">
        <ele>188</ele>
        <time>2015-09-12T11:47:32.1Z</time>
      </trkpt>
      <trkpt lat="45.80981" lon="4.9911">
        <ele>188</ele>
        <time>2015-09-12T11:47:38.1Z</time>
      </trkpt>
      <trkpt lat="45.80951" lon="4.99151">
        <ele>188</ele>
        <time>2015-09-12T11:47:44.1Z</time>
      </trkpt>
      <trkpt lat="45.80922" lon="4.99194">
        <ele>188</ele>
        <time>2015-09-12T11:47:50.1Z</time>
      </trkpt>
      <trkpt lat="45.80898" lon="4.9924">
        <ele>187</ele>
        <time>2015-09-12T11:47:56.1Z</time>
      </trkpt>
      <trkpt lat="45.8088" lon="4.99277">
        <ele>188</ele>
        <time>2015-09-12T11:48:01.1Z</time>
      </trkpt>
      <trkpt lat="45.80876" lon="4.9932">
        <ele>189</ele>
        <time>2015-09-12T11:48:06.1Z</time>
      </trkpt>
      <trkpt lat="45.80888" lon="4.99361">
        <ele>189</ele>
        <time>2015-09-12T11:48:11.1Z</time>
      </trkpt>
      <trkpt lat="45.809" lon="4.99413">
        <ele>189</ele>
        <time>2015-09-12T11:48:17.1Z</time>
      </trkpt>
      <trkpt lat="45.80911" lon="4.99467">
        <ele>189</ele>
        <time>2015-09-12T11:48:23.1Z</time>
      </trkpt>
      <trkpt lat="45.8092" lon="4.99519">
        <ele>189</ele>
        <time>2015-09-12T11:48:29.1Z</time>
      </trkpt>
      <trkpt lat="45.80927" lon="4.99565">
        <ele>189</ele>
        <time>2015-09-12T11:48:34.1Z</time>
      </trkpt>
      <trkpt lat="45.80908" lon="4.99598">
        <ele>188</ele>
        <time>2015-09-12T11:48:40.1Z</time>
      </trkpt>
      <trkpt lat="45.80886" lon="4.99576">
        <ele>188</ele>
        <time>2015-09-12T11:48:45.1Z</time>
      </trkpt>
      <trkpt lat="45.80852" lon="4.99572">
        <ele>188</ele>
        <time>2015-09-12T11:48:51.1Z</time>
      </trkpt>
      <trkpt lat="45.80821" lon="4.99582">
        <ele>189</ele>
        <time>2015-09-12T11:48:56.1Z</time>
      </trkpt>
      <trkpt lat="45.8079" lon="4.99595">
        <ele>189</ele>
        <time>2015-09-12T11:49:01.1Z</time>
      </trkpt>
      <trkpt lat="45.80755" lon="4.99613">
        <ele>189</ele>
        <time>2015-09-12T11:49:07.1Z</time>
      </trkpt>
      <trkpt lat="45.80754" lon="4.99638">
        <ele>189</ele>
        <time>2015-09-12T11:49:12.1Z</time>
      </trkpt>
      <trkpt lat="45.80774" lon="4.99655">
        <ele>189</ele>
        <time>2015-09-12T11:49:18.1Z</time>
      </trkpt>
      <trkpt lat="45.80793" lon="4.99677">
        <ele>190</ele>
        <time>2015-09-12T11:49:23.1Z</time>
      </trkpt>
      <trkpt lat="45.80811" lon="4.99716">
        <ele>190</ele>
        <time>2015-09-12T11:49:29.1Z</time>
      </trkpt>
      <trkpt lat="45.80826" lon="4.99764">
        <ele>191</ele>
        <time>2015-09-12T11:49:35.1Z</time>
      </trkpt>
      <trkpt lat="45.80839" lon="4.99815">
        <ele>192</ele>
        <time>2015-09-12T11:49:41.1Z</time>
      </trkpt>
      <trkpt lat="45.80858" lon="4.99867">
        <ele>192</ele>
        <time>2015-09-12T11:49:47.1Z</time>
      </trkpt>
      <trkpt lat="45.80877" lon="4.99912">
        <ele>192</ele>
        <time>2015-09-12T11:49:52.1Z</time>
      </trkpt>
      <trkpt lat="45.80895" lon="4.99956">
        <ele>191</ele>
        <time>2015-09-12T11:49:57.1Z</time>
      </trkpt>
      <trkpt lat="45.80915" lon="5.00013">
        <ele>190</ele>
        <time>2015-09-12T11:50:03.1Z</time>
      </trkpt>
      <trkpt lat="45.80927" lon="5.00064">
        <ele>190</ele>
        <time>2015-09-12T11:50:08.1Z</time>
      </trkpt>
      <trkpt lat="45.80938" lon="5.00126">
        <ele>191</ele>
        <time>2015-09-12T11:50:14.1Z</time>
      </trkpt>
      <trkpt lat="45.80947" lon="5.00177">
        <ele>192</ele>
        <time>2015-09-12T11:50:19.1Z</time>
      </trkpt>
      <trkpt lat="45.80952" lon="5.00227">
        <ele>192</ele>
        <time>2015-09-12T11:50:24.1Z</time>
      </trkpt>
      <trkpt lat="45.80957" lon="5.00286">
        <ele>193</ele>
        <time>2015-09-12T11:50:30.1Z</time>
      </trkpt>
      <trkpt lat="45.80964" lon="5.00347">
        <ele>192</ele>
        <time>2015-09-12T11:50:36.1Z</time>
      </trkpt>
      <trkpt lat="45.80967" lon="5.00398">
        <ele>192</ele>
        <time>2015-09-12T11:50:41.1Z</time>
      </trkpt>
      <trkpt lat="45.80965" lon="5.0046">
        <ele>192</ele>
        <time>2015-09-12T11:50:47.1Z</time>
      </trkpt>
      <trkpt lat="45.80959" lon="5.00512">
        <ele>192</ele>
        <time>2015-09-12T11:50:52.1Z</time>
      </trkpt>
      <trkpt lat="45.80948" lon="5.00572">
        <ele>192</ele>
        <time>2015-09-12T11:50:58.1Z</time>
      </trkpt>
      <trkpt lat="45.80938" lon="5.00627">
        <ele>191</ele>
        <time>2015-09-12T11:51:04.1Z</time>
      </trkpt>
      <trkpt lat="45.80931" lon="5.00664">
        <ele>189</ele>
        <time>2015-09-12T11:51:09.1Z</time>
      </trkpt>
      <trkpt lat="45.80917" lon="5.00672">
        <ele>188</ele>
        <time>2015-09-12T11:51:15.1Z</time>
      </trkpt>
      <trkpt lat="45.80903" lon="5.0066">
        <ele>188</ele>
        <time>2015-09-12T11:51:20.1Z</time>
      </trkpt>
      <trkpt lat="45.80882" lon="5.00643">
        <ele>187</ele>
        <time>2015-09-12T11:51:26.1Z</time>
      </trkpt>
      <trkpt lat="45.80864" lon="5.00629">
        <ele>188</ele>
        <time>2015-09-12T11:51:31.1Z</time>
      </trkpt>
      <trkpt lat="45.80839" lon="5.00612">
        <ele>188</ele>
        <time>2015-09-12T11:51:37.1Z</time>
      </trkpt>
      <trkpt lat="45.80816" lon="5.00598">
        <ele>188</ele>
        <time>2015-09-12T11:51:42.1Z</time>
      </trkpt>
      <trkpt lat="45.80786" lon="5.0059">
        <ele>189</ele>
        <time>2015-09-12T11:51:48.1Z</time>
      </trkpt>
      <trkpt lat="45.80763" lon="5.00584">
        <ele>189</ele>
        <time>2015-09-12T11:51:53.1Z</time>
      </trkpt>
      <trkpt lat="45.80753" lon="5.00601">
        <ele>190</ele>
        <time>2015-09-12T11:51:58.1Z</time>
      </trkpt>
      <trkpt lat="45.80763" lon="5.00617">
        <ele>189</ele>
        <time>2015-09-12T11:52:04.1Z</time>
      </trkpt>
      <trkpt lat="45.80777" lon="5.00633">
        <ele>190</ele>
        <time>2015-09-12T11:52:09.1Z</time>
      </trkpt>
      <trkpt lat="45.80789" lon="5.00659">
        <ele>189</ele>
        <time>2015-09-12T11:52:15.1Z</time>
      </trkpt>
      <trkpt lat="45.80815" lon="5.00684">
        <ele>189</ele>
        <time>2015-09-12T11:52:21.1Z</time>
      </trkpt>
      <trkpt lat="45.80832" lon="5.007">
        <ele>190</ele>
        <time>2015-09-12T11:52:26.1Z</time>
      </trkpt>
      <trkpt lat="45.80831" lon="5.00725">
        <ele>190</ele>
        <time>2015-09-12T11:52:32.1Z</time>
      </trkpt>
      <trkpt lat="45.80825" lon="5.00758">
        <ele>191</ele>
        <time>2015-09-12T11:52:38.1Z</time>
      </trkpt>
      <trkpt lat="45.80819" lon="5.00781">
        <ele>191</ele>
        <time>2015-09-12T11:52:43.1Z</time>
      </trkpt>
      <trkpt lat="45.80814" lon="5.0081">
        <ele>190</ele>
        <time>2015-09-12T11:52:49.1Z</time>
      </trkpt>
      <trkpt lat="45.80808" lon="5.00831">
        <ele>190</ele>
        <time>2015-09-12T11:52:54.1Z</time>
      </trkpt>
      <trkpt lat="45.80804" lon="5.0086">
        <ele>191</ele>
        <time>2015-09-12T11:52:59.1Z</time>
      </trkpt>
      <trkpt lat="45.80798" lon="5.00895">
        <ele>191</ele>
        <time>2015-09-12T11:53:05.1Z</time>
      </trkpt>
      <trkpt lat="45.80789" lon="5.00928">
        <ele>191</ele>
        <time>2015-09-12T11:53:11.1Z</time>
      </trkpt>
      <trkpt lat="45.80783" lon="5.00958">
        <ele>191</ele>
        <time>2015-09-12T11:53:16.1Z</time>
      </trkpt>
      <trkpt lat="45.80774" lon="5.00985">
        <ele>191</ele>
        <time>2015-09-12T11:53:22.1Z</time>
      </trkpt>
      <trkpt lat="45.80755" lon="5.00976">
        <ele>190</ele>
        <time>2015-09-12T11:53:27.1Z</time>
      </trkpt>
      <trkpt lat="45.80726" lon="5.00959">
        <ele>190</ele>
        <time>2015-09-12T11:53:33.1Z</time>
      </trkpt>
      <trkpt lat="45.80701" lon="5.00953">
        <ele>190</ele>
        <time>2015-09-12T11:53:39.1Z</time>
      </trkpt>
      <trkpt lat="45.80677" lon="5.00948">
        <ele>189</ele>
        <time>2015-09-12T11:53:44.1Z</time>
      </trkpt>
      <trkpt lat="45.80661" lon="5.00958">
        <ele>189</ele>
        <time>2015-09-12T11:53:49.1Z</time>
      </trkpt>
      <trkpt lat="45.80656" lon="5.01001">
        <ele>189</ele>
        <time>2015-09-12T11:53:55.1Z</time>
      </trkpt>
      <trkpt lat="45.80647" lon="5.0105">
        <ele>189</ele>
        <time>2015-09-12T11:54:01.1Z</time>
      </trkpt>
      <trkpt lat="45.8064" lon="5.0109">
        <ele>190</ele>
        <time>2015-09-12T11:54:06.1Z</time>
      </trkpt>
      <trkpt lat="45.80635" lon="5.01133">
        <ele>191</ele>
        <time>2015-09-12T11:54:11.1Z</time>
      </trkpt>
      <trkpt lat="45.80627" lon="5.01175">
        <ele>190</ele>
        <time>2015-09-12T11:54:16.1Z</time>
      </trkpt>
      <trkpt lat="45.80618" lon="5.01224">
        <ele>190</ele>
        <time>2015-09-12T11:54:22.1Z</time>
      </trkpt>
      <trkpt lat="45.806" lon="5.01254">
        <ele>189</ele>
        <time>2015-09-12T11:54:27.1Z</time>
      </trkpt>
      <trkpt lat="45.80569" lon="5.0127">
        <ele>188</ele>
        <time>2015-09-12T11:54:33.1Z</time>
      </trkpt>
      <trkpt lat="45.80543" lon="5.01289">
        <ele>189</ele>
        <time>2015-09-12T11:54:38.1Z</time>
      </trkpt>
      <trkpt lat="45.80523" lon="5.01318">
        <ele>189</ele>
        <time>2015-09-12T11:54:43.1Z</time>
      </trkpt>
      <trkpt lat="45.80503" lon="5.01351">
        <ele>189</ele>
        <time>2015-09-12T11:54:49.1Z</time>
      </trkpt>
      <trkpt lat="45.80489" lon="5.01317">
        <ele>188</ele>
        <time>2015-09-12T11:54:55.1Z</time>
      </trkpt>
      <trkpt lat="45.80472" lon="5.01287">
        <ele>189</ele>
        <time>2015-09-12T11:55:00.1Z</time>
      </trkpt>
      <trkpt lat="45.80453" lon="5.01287">
        <ele>189</ele>
        <time>2015-09-12T11:55:05.1Z</time>
      </trkpt>
      <trkpt lat="45.80429" lon="5.01289">
        <ele>189</ele>
        <time>2015-09-12T11:55:10.1Z</time>
      </trkpt>
      <trkpt lat="45.80407" lon="5.01264">
        <ele>190</ele>
        <time>2015-09-12T11:55:16.1Z</time>
      </trkpt>
      <trkpt lat="45.80378" lon="5.01253">
        <ele>189</ele>
        <time>2015-09-12T11:55:22.1Z</time>
      </trkpt>
      <trkpt lat="45.80351" lon="5.01263">
        <ele>190</ele>
        <time>2015-09-12T11:55:27.1Z</time>
      </trkpt>
      <trkpt lat="45.80319" lon="5.01253">
        <ele>190</ele>
        <time>2015-09-12T11:55:33.1Z</time>
      </trkpt>
      <trkpt lat="45.80298" lon="5.01216">
        <ele>189</ele>
        <time>2015-09-12T11:55:39.1Z</time>
      </trkpt>
      <trkpt lat="45.80281" lon="5.01184">
        <ele>189</ele>
        <time>2015-09-12T11:55:44.1Z</time>
      </trkpt>
      <trkpt lat="45.80267" lon="5.0115">
        <ele>190</ele>
        <time>2015-09-12T11:55:49.1Z</time>
      </trkpt>
      <trkpt lat="45.80257" lon="5.01113">
        <ele>191</ele>
        <time>2015-09-12T11:55:54.1Z</time>
      </trkpt>
      <trkpt lat="45.80256" lon="5.01073">
        <ele>191</ele>
        <time>2015-09-12T11:55:59.1Z</time>
      </trkpt>
      <trkpt lat="45.80254" lon="5.01023">
        <ele>189</ele>
        <time>2015-09-12T11:56:05.1Z</time>
      </trkpt>
      <trkpt lat="45.80238" lon="5.00977">
        <ele>190</ele>
        <time>2015-09-12T11:56:11.1Z</time>
      </trkpt>
      <trkpt lat="45.80223" lon="5.0094">
        <ele>190</ele>
        <time>2015-09-12T11:56:16.1Z</time>
      </trkpt>
      <trkpt lat="45.80202" lon="5.00899">
        <ele>190</ele>
        <time>2015-09-12T11:56:22.1Z</time>
      </trkpt>
      <trkpt lat="45.80187" lon="5.00864">
        <ele>191</ele>
        <time>2015-09-12T11:56:27.1Z</time>
      </trkpt>
      <trkpt lat="45.80171" lon="5.00829">
        <ele>191</ele>
        <time>2015-09-12T11:56:32.1Z</time>
      </trkpt>
      <trkpt lat="45.80152" lon="5.00786">
        <ele>189</ele>
        <time>2015-09-12T11:56:38.1Z</time>
      </trkpt>
      <trkpt lat="45.80138" lon="5.0075">
        <ele>187</ele>
        <time>2015-09-12T11:56:43.1Z</time>
      </trkpt>
      <trkpt lat="45.80121" lon="5.00705">
        <ele>188</ele>
        <time>2015-09-12T11:56:49.1Z</time>
      </trkpt>
      <trkpt lat="45.80099" lon="5.00662">
        <ele>187</ele>
        <time>2015-09-12T11:56:55.1Z</time>
      </trkpt>
      <trkpt lat="45.80073" lon="5.00641">
        <ele>188</ele>
        <time>2015-09-12T11:57:00.1Z</time>
      </trkpt>
      <trkpt lat="45.80048" lon="5.00606">
        <ele>188</ele>
        <time>2015-09-12T11:57:06.1Z</time>
      </trkpt>
      <trkpt lat="45.80036" lon="5.00568">
        <ele>188</ele>
        <time>2015-09-12T11:57:11.1Z</time>
      </trkpt>
      <trkpt lat="45.80017" lon="5.00552">
        <ele>189</ele>
        <time>2015-09-12T11:57:17.1Z</time>
      </trkpt>
      <trkpt lat="45.80003" lon="5.00574">
        <ele>189</ele>
        <time>2015-09-12T11:57:22.1Z</time>
      </trkpt>
      <trkpt lat="45.79982" lon="5.00615">
        <ele>189</ele>
        <time>2015-09-12T11:57:28.1Z</time>
      </trkpt>
      <trkpt lat="45.79966" lon="5.00653">
        <ele>189</ele>
        <time>2015-09-12T11:57:33.1Z</time>
      </trkpt>
      <trkpt lat="45.79936" lon="5.00658">
        <ele>187</ele>
        <time>2015-09-12T11:57:38.1Z</time>
      </trkpt>
      <trkpt lat="45.799" lon="5.00649">
        <ele>187</ele>
        <time>2015-09-12T11:57:44.1Z</time>
      </trkpt>
      <trkpt lat="45.79884" lon="5.00617">
        <ele>187</ele>
        <time>2015-09-12T11:57:49.1Z</time>
      </trkpt>
      <trkpt lat="45.79861" lon="5.00576">
        <ele>189</ele>
        <time>2015-09-12T11:57:55.1Z</time>
      </trkpt>
      <trkpt lat="45.79835" lon="5.0055">
        <ele>189</ele>
        <time>2015-09-12T11:58:00.1Z</time>
      </trkpt>
      <trkpt lat="45.7981" lon="5.00525">
        <ele>190</ele>
        <time>2015-09-12T11:58:05.1Z</time>
      </trkpt>
      <trkpt lat="45.79781" lon="5.00495">
        <ele>190</ele>
        <time>2015-09-12T11:58:11.1Z</time>
      </trkpt>
      <trkpt lat="45.79747" lon="5.00489">
        <ele>190</ele>
        <time>2015-09-12T11:58:17.1Z</time>
      </trkpt>
      <trkpt lat="45.79722" lon="5.005">
        <ele>190</ele>
        <time>2015-09-12T11:58:22.1Z</time>
      </trkpt>
      <trkpt lat="45.79699" lon="5.0051">
        <ele>189</ele>
        <time>2015-09-12T11:58:28.1Z</time>
      </trkpt>
      <trkpt lat="45.79688" lon="5.00484">
        <ele>190</ele>
        <time>2015-09-12T11:58:33.1Z</time>
      </trkpt>
      <trkpt lat="45.79678" lon="5.0044">
        <ele>190</ele>
        <time>2015-09-12T11:58:39.1Z</time>
      </trkpt>
      <trkpt lat="45.79668" lon="5.00399">
        <ele>190</ele>
        <time>2015-09-12T11:58:44.1Z</time>
      </trkpt>
      <trkpt lat="45.79655" lon="5.00346">
        <ele>190</ele>
        <time>2015-09-12T11:58:50.1Z</time>
      </trkpt>
      <trkpt lat="45.79645" lon="5.00293">
        <ele>189</ele>
        <time>2015-09-12T11:58:56.1Z</time>
      </trkpt>
      <trkpt lat="45.7964" lon="5.00258">
        <ele>189</ele>
        <time>2015-09-12T11:59:01.1Z</time>
      </trkpt>
      <trkpt lat="45.79639" lon="5.00234">
        <ele>189</ele>
        <time>2015-09-12T11:59:07.1Z</time>
      </trkpt>
      <trkpt lat="45.79646" lon="5.00199">
        <ele>189</ele>
        <time>2015-09-12T11:59:13.1Z</time>
      </trkpt>
      <trkpt lat="45.79647" lon="5.00159">
        <ele>189</ele>
        <time>2015-09-12T11:59:19.1Z</time>
      </trkpt>
      <trkpt lat="45.79643" lon="5.00135">
        <ele>189</ele>
        <time>2015-09-12T11:59:24.1Z</time>
      </trkpt>
      <trkpt lat="45.79643" lon="5.00118">
        <ele>190</ele>
        <time>2015-09-12T11:59:29.1Z</time>
      </trkpt>
      <trkpt lat="45.79645" lon="5.0008">
        <ele>190</ele>
        <time>2015-09-12T11:59:35.1Z</time>
      </trkpt>
      <trkpt lat="45.79647" lon="5.00044">
        <ele>190</ele>
        <time>2015-09-12T11:59:40.1Z</time>
      </trkpt>
      <trkpt lat="45.79652" lon="4.99998">
        <ele>190</ele>
        <time>2015-09-12T11:59:46.1Z</time>
      </trkpt>
      <trkpt lat="45.79665" lon="4.99958">
        <ele>190</ele>
        <time>2015-09-12T11:59:51.1Z</time>
      </trkpt>
      <trkpt lat="45.79685" lon="4.99907">
        <ele>190</ele>
        <time>2015-09-12T11:59:57.1Z</time>
      </trkpt>
      <trkpt lat="45.79704" lon="4.99857">
        <ele>190</ele>
        <time>2015-09-12T12:00:03.1Z</time>
      </trkpt>
      <trkpt lat="45.79706" lon="4.99833">
        <ele>190</ele>
        <time>2015-09-12T12:00:08.1Z</time>
      </trkpt>
      <trkpt lat="45.79684" lon="4.99812">
        <ele>190</ele>
        <time>2015-09-12T12:00:14.1Z</time>
      </trkpt>
      <trkpt lat="45.79655" lon="4.99781">
        <ele>190</ele>
        <time>2015-09-12T12:00:20.1Z</time>
      </trkpt>
      <trkpt lat="45.7963" lon="4.99757">
        <ele>190</ele>
        <time>2015-09-12T12:00:25.1Z</time>
      </trkpt>
      <trkpt lat="45.79604" lon="4.99734">
        <ele>190</ele>
        <time>2015-09-12T12:00:30.1Z</time>
      </trkpt>
      <trkpt lat="45.79578" lon="4.99712">
        <ele>190</ele>
        <time>2015-09-12T12:00:35.1Z</time>
      </trkpt>
      <trkpt lat="45.79546" lon="4.99688">
        <ele>190</ele>
        <time>2015-09-12T12:00:41.1Z</time>
      </trkpt>
      <trkpt lat="45.79519" lon="4.99665">
        <ele>189</ele>
        <time>2015-09-12T12:00:46.1Z</time>
      </trkpt>
      <trkpt lat="45.79491" lon="4.9964">
        <ele>189</ele>
        <time>2015-09-12T12:00:51.1Z</time>
      </trkpt>
      <trkpt lat="45.79457" lon="4.99613">
        <ele>188</ele>
        <time>2015-09-12T12:00:57.1Z</time>
      </trkpt>
      <trkpt lat="45.7943" lon="4.99617">
        <ele>188</ele>
        <time>2015-09-12T12:01:02.1Z</time>
      </trkpt>
      <trkpt lat="45.79406" lon="4.9964">
        <ele>190</ele>
        <time>2015-09-12T12:01:07.1Z</time>
      </trkpt>
      <trkpt lat="45.79377" lon="4.99667">
        <ele>191</ele>
        <time>2015-09-12T12:01:13.1Z</time>
      </trkpt>
      <trkpt lat="45.79352" lon="4.9969">
        <ele>191</ele>
        <time>2015-09-12T12:01:18.1Z</time>
      </trkpt>
      <trkpt lat="45.79323" lon="4.99718">
        <ele>191</ele>
        <time>2015-09-12T12:01:24.1Z</time>
      </trkpt>
      <trkpt lat="45.79299" lon="4.99742">
        <ele>191</ele>
        <time>2015-09-12T12:01:29.1Z</time>
      </trkpt>
      <trkpt lat="45.79277" lon="4.99765">
        <ele>192</ele>
        <time>2015-09-12T12:01:34.1Z</time>
      </trkpt>
      <trkpt lat="45.7925" lon="4.99792">
        <ele>193</ele>
        <time>2015-09-12T12:01:40.1Z</time>
      </trkpt>
      <trkpt lat="45.79227" lon="4.99814">
        <ele>192</ele>
        <time>2015-09-12T12:01:45.1Z</time>
      </trkpt>
      <trkpt lat="45.79199" lon="4.99842">
        <ele>191</ele>
        <time>2015-09-12T12:01:51.1Z</time>
      </trkpt>
      <trkpt lat="45.79173" lon="4.99867">
        <ele>191</ele>
        <time>2015-09-12T12:01:56.1Z</time>
      </trkpt>
      <trkpt lat="45.79142" lon="4.99897">
        <ele>190</ele>
        <time>2015-09-12T12:02:02.1Z</time>
      </trkpt>
      <trkpt lat="45.79118" lon="4.99925">
        <ele>190</ele>
        <time>2015-09-12T12:02:07.1Z</time>
      </trkpt>
      <trkpt lat="45.79092" lon="4.99959">
        <ele>191</ele>
        <time>2015-09-12T12:02:13.1Z</time>
      </trkpt>
      <trkpt lat="45.79063" lon="4.99981">
        <ele>191</ele>
        <time>2015-09-12T12:02:19.1Z</time>
      </trkpt>
      <trkpt lat="45.79036" lon="5.00004">
        <ele>192</ele>
        <time>2015-09-12T12:02:25.1Z</time>
      </trkpt>
      <trkpt lat="45.7901" lon="5.0003">
        <ele>192</ele>
        <time>2015-09-12T12:02:31.1Z</time>
      </trkpt>
      <trkpt lat="45.78987" lon="5.00051">
        <ele>192</ele>
        <time>2015-09-12T12:02:36.1Z</time>
      </trkpt>
      <trkpt lat="45.7896" lon="5.00078">
        <ele>191</ele>
        <time>2015-09-12T12:02:42.1Z</time>
      </trkpt>
      <trkpt lat="45.78933" lon="5.00104">
        <ele>191</ele>
        <time>2015-09-12T12:02:48.1Z</time>
      </trkpt>
      <trkpt lat="45.7891" lon="5.00126">
        <ele>191</ele>
        <time>2015-09-12T12:02:53.1Z</time>
      </trkpt>
      <trkpt lat="45.78887" lon="5.00152">
        <ele>191</ele>
        <time>2015-09-12T12:02:58.1Z</time>
      </trkpt>
      <trkpt lat="45.78861" lon="5.00187">
        <ele>191</ele>
        <time>2015-09-12T12:03:04.1Z</time>
      </trkpt>
      <trkpt lat="45.7884" lon="5.00218">
        <ele>191</ele>
        <time>2015-09-12T12:03:09.1Z</time>
      </trkpt>
      <trkpt lat="45.7882" lon="5.0025">
        <ele>191</ele>
        <time>2015-09-12T12:03:14.1Z</time>
      </trkpt>
      <trkpt lat="45.78803" lon="5.00284">
        <ele>191</ele>
        <time>2015-09-12T12:03:19.1Z</time>
      </trkpt>
      <trkpt lat="45.78782" lon="5.00328">
        <ele>191</ele>
        <time>2015-09-12T12:03:25.1Z</time>
      </trkpt>
      <trkpt lat="45.78767" lon="5.00368">
        <ele>191</ele>
        <time>2015-09-12T12:03:30.1Z</time>
      </trkpt>
      <trkpt lat="45.78754" lon="5.00411">
        <ele>191</ele>
        <time>2015-09-12T12:03:35.1Z</time>
      </trkpt>
      <trkpt lat="45.78743" lon="5.00454">
        <ele>191</ele>
        <time>2015-09-12T12:03:40.1Z</time>
      </trkpt>
      <trkpt lat="45.78732" lon="5.00508">
        <ele>191</ele>
        <time>2015-09-12T12:03:46.1Z</time>
      </trkpt>
      <trkpt lat="45.78726" lon="5.00553">
        <ele>191</ele>
        <time>2015-09-12T12:03:51.1Z</time>
      </trkpt>
      <trkpt lat="45.78721" lon="5.00608">
        <ele>191</ele>
        <time>2015-09-12T12:03:57.1Z</time>
      </trkpt>
      <trkpt lat="45.78718" lon="5.00653">
        <ele>191</ele>
        <time>2015-09-12T12:04:02.1Z</time>
      </trkpt>
      <trkpt lat="45.78719" lon="5.007">
        <ele>191</ele>
        <time>2015-09-12T12:04:07.1Z</time>
      </trkpt>
      <trkpt lat="45.78723" lon="5.00756">
        <ele>191</ele>
        <time>2015-09-12T12:04:13.1Z</time>
      </trkpt>
      <trkpt lat="45.78728" lon="5.00801">
        <ele>191</ele>
        <time>2015-09-12T12:04:18.1Z</time>
      </trkpt>
      <trkpt lat="45.78734" lon="5.00845">
        <ele>191</ele>
        <time>2015-09-12T12:04:23.1Z</time>
      </trkpt>
      <trkpt lat="45.78742" lon="5.00897">
        <ele>191</ele>
        <time>2015-09-12T12:04:29.1Z</time>
      </trkpt>
      <trkpt lat="45.78748" lon="5.00939">
        <ele>191</ele>
        <time>2015-09-12T12:04:34.1Z</time>
      </trkpt>
      <trkpt lat="45.78747" lon="5.00984">
        <ele>192</ele>
        <time>2015-09-12T12:04:40.1Z</time>
      </trkpt>
      <trkpt lat="45.78751" lon="5.01022">
        <ele>193</ele>
        <time>2015-09-12T12:04:45.1Z</time>
      </trkpt>
      <trkpt lat="45.78754" lon="5.0107">
        <ele>194</ele>
        <time>2015-09-12T12:04:51.1Z</time>
      </trkpt>
      <trkpt lat="45.78754" lon="5.01097">
        <ele>196</ele>
        <time>2015-09-12T12:04:56.1Z</time>
      </trkpt>
      <trkpt lat="45.78755" lon="5.01112">
        <ele>196</ele>
        <time>2015-09-12T12:05:01.1Z</time>
      </trkpt>
      <trkpt lat="45.78762" lon="5.01116">
        <ele>197</ele>
        <time>2015-09-12T12:05:07.1Z</time>
      </trkpt>
      <trkpt lat="45.78762" lon="5.0112">
        <ele>197</ele>
        <time>2015-09-12T12:05:12.1Z</time>
      </trkpt>
      <trkpt lat="45.78762" lon="5.01123">
        <ele>197</ele>
        <time>2015-09-12T12:05:18.1Z</time>
      </trkpt>
      <trkpt lat="45.78762" lon="5.01123">
        <ele>197</ele>
        <time>2015-09-12T12:05:23.1Z</time>
      </trkpt>
      <trkpt lat="45.78763" lon="5.01123">
        <ele>197</ele>
        <time>2015-09-12T12:05:30.1Z</time>
      </trkpt>
      <trkpt lat="45.78762" lon="5.01122">
        <ele>197</ele>
        <time>2015-09-12T12:05:35.1Z</time>
      </trkpt>
      <trkpt lat="45.78763" lon="5.01123">
        <ele>197</ele>
        <time>2015-09-12T12:05:43.1Z</time>
      </trkpt>
      <trkpt lat="45.78762" lon="5.01123">
        <ele>197</ele>
        <time>2015-09-12T12:05:48.1Z</time>
      </trkpt>
      <trkpt lat="45.78762" lon="5.01123">
        <ele>197</ele>
        <time>2015-09-12T12:05:54.1Z</time>
      </trkpt>
      <trkpt lat="45.78762" lon="5.01122">
        <ele>197</ele>
        <time>2015-09-12T12:05:59.1Z</time>
      </trkpt>
      <trkpt lat="45.78757" lon="5.01122">
        <ele>198</ele>
        <time>2015-09-12T12:06:05.1Z</time>
      </trkpt>
      <trkpt lat="45.78757" lon="5.01114">
        <ele>197</ele>
        <time>2015-09-12T12:06:10.1Z</time>
      </trkpt>
      <trkpt lat="45.78765" lon="5.01112">
        <ele>196</ele>
        <time>2015-09-12T12:06:16.1Z</time>
      </trkpt>
      <trkpt lat="45.78769" lon="5.0111">
        <ele>196</ele>
        <time>2015-09-12T12:06:22.1Z</time>
      </trkpt>
      <trkpt lat="45.78769" lon="5.01109">
        <ele>197</ele>
        <time>2015-09-12T12:06:27.1Z</time>
      </trkpt>
      <trkpt lat="45.78769" lon="5.01109">
        <ele>197</ele>
        <time>2015-09-12T12:06:33.1Z</time>
      </trkpt>
      <trkpt lat="45.78769" lon="5.01106">
        <ele>196</ele>
        <time>2015-09-12T12:06:38.1Z</time>
      </trkpt>
      <trkpt lat="45.7876" lon="5.01117">
        <ele>197</ele>
        <time>2015-09-12T12:06:44.1Z</time>
      </trkpt>
      <trkpt lat="45.78755" lon="5.01143">
        <ele>197</ele>
        <time>2015-09-12T12:06:50.1Z</time>
      </trkpt>
      <trkpt lat="45.78752" lon="5.01179">
        <ele>195</ele>
        <time>2015-09-12T12:06:56.1Z</time>
      </trkpt>
      <trkpt lat="45.78753" lon="5.01187">
        <ele>195</ele>
        <time>2015-09-12T12:07:02.1Z</time>
      </trkpt>
      <trkpt lat="45.78752" lon="5.01185">
        <ele>194</ele>
        <time>2015-09-12T12:07:08.1Z</time>
      </trkpt>
      <trkpt lat="45.78754" lon="5.01167">
        <ele>194</ele>
        <time>2015-09-12T12:07:14.1Z</time>
      </trkpt>
      <trkpt lat="45.78755" lon="5.01147">
        <ele>194</ele>
        <time>2015-09-12T12:07:19.1Z</time>
      </trkpt>
      <trkpt lat="45.78755" lon="5.01127">
        <ele>195</ele>
        <time>2015-09-12T12:07:24.1Z</time>
      </trkpt>
      <trkpt lat="45.7874" lon="5.01118">
        <ele>196</ele>
        <time>2015-09-12T12:07:29.1Z</time>
      </trkpt>
      <trkpt lat="45.78715" lon="5.01116">
        <ele>199</ele>
        <time>2015-09-12T12:07:35.1Z</time>
      </trkpt>
      <trkpt lat="45.78691" lon="5.01113">
        <ele>199</ele>
        <time>2015-09-12T12:07:40.1Z</time>
      </trkpt>
      <trkpt lat="45.78668" lon="5.01112">
        <ele>198</ele>
        <time>2015-09-12T12:07:45.1Z</time>
      </trkpt>
      <trkpt lat="45.78653" lon="5.01111">
        <ele>198</ele>
        <time>2015-09-12T12:07:50.1Z</time>
      </trkpt>
      <trkpt lat="45.78645" lon="5.01111">
        <ele>197</ele>
        <time>2015-09-12T12:07:56.1Z</time>
      </trkpt>
      <trkpt lat="45.78656" lon="5.0111">
        <ele>197</ele>
        <time>2015-09-12T12:08:01.1Z</time>
      </trkpt>
      <trkpt lat="45.7868" lon="5.01111">
        <ele>197</ele>
        <time>2015-09-12T12:08:07.1Z</time>
      </trkpt>
      <trkpt lat="45.7871" lon="5.01112">
        <ele>197</ele>
        <time>2015-09-12T12:08:13.1Z</time>
      </trkpt>
      <trkpt lat="45.78736" lon="5.01113">
        <ele>196</ele>
        <time>2015-09-12T12:08:18.1Z</time>
      </trkpt>
      <trkpt lat="45.78757" lon="5.01115">
        <ele>196</ele>
        <time>2015-09-12T12:08:23.1Z</time>
      </trkpt>
      <trkpt lat="45.78776" lon="5.01095">
        <ele>196</ele>
        <time>2015-09-12T12:08:29.1Z</time>
      </trkpt>
      <trkpt lat="45.78785" lon="5.0106">
        <ele>194</ele>
        <time>2015-09-12T12:08:34.1Z</time>
      </trkpt>
      <trkpt lat="45.78788" lon="5.01">
        <ele>192</ele>
        <time>2015-09-12T12:08:40.1Z</time>
      </trkpt>
      <trkpt lat="45.78795" lon="5.00955">
        <ele>190</ele>
        <time>2015-09-12T12:08:46.1Z</time>
      </trkpt>
      <trkpt lat="45.78807" lon="5.00949">
        <ele>191</ele>
        <time>2015-09-12T12:08:51.1Z</time>
      </trkpt>
      <trkpt lat="45.78808" lon="5.00945">
        <ele>191</ele>
        <time>2015-09-12T12:08:56.1Z</time>
      </trkpt>
      <trkpt lat="45.78804" lon="5.00944">
        <ele>192</ele>
        <time>2015-09-12T12:09:01.1Z</time>
      </trkpt>
      <trkpt lat="45.78794" lon="5.00945">
        <ele>191</ele>
        <time>2015-09-12T12:09:07.1Z</time>
      </trkpt>
      <trkpt lat="45.78789" lon="5.00958">
        <ele>191</ele>
        <time>2015-09-12T12:09:12.1Z</time>
      </trkpt>
      <trkpt lat="45.78786" lon="5.00988">
        <ele>192</ele>
        <time>2015-09-12T12:09:17.1Z</time>
      </trkpt>
      <trkpt lat="45.78785" lon="5.01028">
        <ele>193</ele>
        <time>2015-09-12T12:09:22.1Z</time>
      </trkpt>
      <trkpt lat="45.78782" lon="5.01068">
        <ele>195</ele>
        <time>2015-09-12T12:09:27.1Z</time>
      </trkpt>
      <trkpt lat="45.7877" lon="5.01102">
        <ele>197</ele>
        <time>2015-09-12T12:09:32.1Z</time>
      </trkpt>
      <trkpt lat="45.78754" lon="5.01126">
        <ele>197</ele>
        <time>2015-09-12T12:09:38.1Z</time>
      </trkpt>
      <trkpt lat="45.78753" lon="5.01173">
        <ele>196</ele>
        <time>2015-09-12T12:09:44.1Z</time>
      </trkpt>
      <trkpt lat="45.78745" lon="5.01221">
        <ele>195</ele>
        <time>2015-09-12T12:09:49.1Z</time>
      </trkpt>
      <trkpt lat="45.7874" lon="5.01271">
        <ele>193</ele>
        <time>2015-09-12T12:09:54.1Z</time>
      </trkpt>
      <trkpt lat="45.78735" lon="5.01319">
        <ele>190</ele>
        <time>2015-09-12T12:09:59.1Z</time>
      </trkpt>
      <trkpt lat="45.78741" lon="5.01349">
        <ele>189</ele>
        <time>2015-09-12T12:10:05.1Z</time>
      </trkpt>
      <trkpt lat="45.78749" lon="5.01356">
        <ele>189</ele>
        <time>2015-09-12T12:10:10.1Z</time>
      </trkpt>
      <trkpt lat="45.78762" lon="5.01365">
        <ele>189</ele>
        <time>2015-09-12T12:10:16.1Z</time>
      </trkpt>
      <trkpt lat="45.78783" lon="5.01384">
        <ele>189</ele>
        <time>2015-09-12T12:10:22.1Z</time>
      </trkpt>
      <trkpt lat="45.78796" lon="5.01417">
        <ele>188</ele>
        <time>2015-09-12T12:10:28.1Z</time>
      </trkpt>
      <trkpt lat="45.78812" lon="5.01459">
        <ele>189</ele>
        <time>2015-09-12T12:10:33.1Z</time>
      </trkpt>
      <trkpt lat="45.78829" lon="5.01511">
        <ele>189</ele>
        <time>2015-09-12T12:10:39.1Z</time>
      </trkpt>
      <trkpt lat="45.78837" lon="5.01545">
        <ele>189</ele>
        <time>2015-09-12T12:10:44.1Z</time>
      </trkpt>
      <trkpt lat="45.78838" lon="5.01562">
        <ele>189</ele>
        <time>2015-09-12T12:10:50.1Z</time>
      </trkpt>
      <trkpt lat="45.78851" lon="5.01566">
        <ele>189</ele>
        <time>2015-09-12T12:10:56.1Z</time>
      </trkpt>
      <trkpt lat="45.78865" lon="5.01579">
        <ele>189</ele>
        <time>2015-09-12T12:11:02.1Z</time>
      </trkpt>
      <trkpt lat="45.78889" lon="5.01596">
        <ele>189</ele>
        <time>2015-09-12T12:11:07.1Z</time>
      </trkpt>
      <trkpt lat="45.7891" lon="5.01615">
        <ele>189</ele>
        <time>2015-09-12T12:11:12.1Z</time>
      </trkpt>
      <trkpt lat="45.78917" lon="5.01625">
        <ele>190</ele>
        <time>2015-09-12T12:11:17.1Z</time>
      </trkpt>
      <trkpt lat="45.78918" lon="5.01627">
        <ele>189</ele>
        <time>2015-09-12T12:11:23.1Z</time>
      </trkpt>
      <trkpt lat="45.7892" lon="5.01627">
        <ele>190</ele>
        <time>2015-09-12T12:11:28.1Z</time>
      </trkpt>
      <trkpt lat="45.78923" lon="5.01626">
        <ele>190</ele>
        <time>2015-09-12T12:11:33.1Z</time>
      </trkpt>
      <trkpt lat="45.78923" lon="5.01628">
        <ele>190</ele>
        <time>2015-09-12T12:11:39.1Z</time>
      </trkpt>
      <trkpt lat="45.78923" lon="5.01629">
        <ele>190</ele>
        <time>2015-09-12T12:11:45.1Z</time>
      </trkpt>
      <trkpt lat="45.78916" lon="5.01623">
        <ele>189</ele>
        <time>2015-09-12T12:11:51.1Z</time>
      </trkpt>
      <trkpt lat="45.78902" lon="5.01612">
        <ele>189</ele>
        <time>2015-09-12T12:11:56.1Z</time>
      </trkpt>
      <trkpt lat="45.78876" lon="5.01591">
        <ele>189</ele>
        <time>2015-09-12T12:12:02.1Z</time>
      </trkpt>
      <trkpt lat="45.78853" lon="5.0158">
        <ele>189</ele>
        <time>2015-09-12T12:12:08.1Z</time>
      </trkpt>
      <trkpt lat="45.78852" lon="5.01581">
        <ele>190</ele>
        <time>2015-09-12T12:12:14.1Z</time>
      </trkpt>
      <trkpt lat="45.78851" lon="5.01581">
        <ele>190</ele>
        <time>2015-09-12T12:12:19.1Z</time>
      </trkpt>
      <trkpt lat="45.78851" lon="5.0158">
        <ele>190</ele>
        <time>2015-09-12T12:12:24.1Z</time>
      </trkpt>
      <trkpt lat="45.78851" lon="5.0158">
        <ele>191</ele>
        <time>2015-09-12T12:12:30.1Z</time>
      </trkpt>
      <trkpt lat="45.7885" lon="5.01581">
        <ele>190</ele>
        <time>2015-09-12T12:12:36.1Z</time>
      </trkpt>
      <trkpt lat="45.7885" lon="5.01581">
        <ele>189</ele>
        <time>2015-09-12T12:12:41.1Z</time>
      </trkpt>
      <trkpt lat="45.78849" lon="5.0158">
        <ele>189</ele>
        <time>2015-09-12T12:12:46.1Z</time>
      </trkpt>
      <trkpt lat="45.78848" lon="5.01579">
        <ele>190</ele>
        <time>2015-09-12T12:12:51.1Z</time>
      </trkpt>
      <trkpt lat="45.78848" lon="5.01579">
        <ele>190</ele>
        <time>2015-09-12T12:12:57.1Z</time>
      </trkpt>
      <trkpt lat="45.78847" lon="5.01579">
        <ele>190</ele>
        <time>2015-09-12T12:13:03.1Z</time>
      </trkpt>
      <trkpt lat="45.78848" lon="5.01578">
        <ele>190</ele>
        <time>2015-09-12T12:13:09.1Z</time>
      </trkpt>
      <trkpt lat="45.78848" lon="5.01578">
        <ele>190</ele>
        <time>2015-09-12T12:13:15.1Z</time>
      </trkpt>
      <trkpt lat="45.78848" lon="5.01578">
        <ele>190</ele>
        <time>2015-09-12T12:13:20.1Z</time>
      </trkpt>
      <trkpt lat="45.78848" lon="5.01576">
        <ele>190</ele>
        <time>2015-09-12T12:13:26.1Z</time>
      </trkpt>
      <trkpt lat="45.78857" lon="5.01581">
        <ele>190</ele>
        <time>2015-09-12T12:13:32.1Z</time>
      </trkpt>
      <trkpt lat="45.78873" lon="5.01591">
        <ele>189</ele>
        <time>2015-09-12T12:13:37.1Z</time>
      </trkpt>
      <trkpt lat="45.78897" lon="5.01611">
        <ele>189</ele>
        <time>2015-09-12T12:13:42.1Z</time>
      </trkpt>
      <trkpt lat="45.78921" lon="5.01623">
        <ele>189</ele>
        <time>2015-09-12T12:13:47.1Z</time>
      </trkpt>
      <trkpt lat="45.7896" lon="5.01616">
        <ele>189</ele>
        <time>2015-09-12T12:13:53.1Z</time>
      </trkpt>
      <trkpt lat="45.78999" lon="5.01592">
        <ele>188</ele>
        <time>2015-09-12T12:13:59.1Z</time>
      </trkpt>
      <trkpt lat="45.79017" lon="5.01556">
        <ele>189</ele>
        <time>2015-09-12T12:14:04.1Z</time>
      </trkpt>
      <trkpt lat="45.79035" lon="5.01518">
        <ele>189</ele>
        <time>2015-09-12T12:14:09.1Z</time>
      </trkpt>
      <trkpt lat="45.79071" lon="5.01486">
        <ele>189</ele>
        <time>2015-09-12T12:14:15.1Z</time>
      </trkpt>
      <trkpt lat="45.79101" lon="5.01458">
        <ele>188</ele>
        <time>2015-09-12T12:14:20.1Z</time>
      </trkpt>
      <trkpt lat="45.79129" lon="5.01431">
        <ele>188</ele>
        <time>2015-09-12T12:14:25.1Z</time>
      </trkpt>
      <trkpt lat="45.79161" lon="5.01393">
        <ele>188</ele>
        <time>2015-09-12T12:14:31.1Z</time>
      </trkpt>
      <trkpt lat="45.7919" lon="5.01368">
        <ele>188</ele>
        <time>2015-09-12T12:14:36.1Z</time>
      </trkpt>
      <trkpt lat="45.7922" lon="5.01341">
        <ele>188</ele>
        <time>2015-09-12T12:14:41.1Z</time>
      </trkpt>
      <trkpt lat="45.79243" lon="5.01305">
        <ele>190</ele>
        <time>2015-09-12T12:14:46.1Z</time>
      </trkpt>
      <trkpt lat="45.79249" lon="5.01252">
        <ele>190</ele>
        <time>2015-09-12T12:14:52.1Z</time>
      </trkpt>
      <trkpt lat="45.79257" lon="5.01209">
        <ele>189</ele>
        <time>2015-09-12T12:14:57.1Z</time>
      </trkpt>
      <trkpt lat="45.79292" lon="5.01178">
        <ele>190</ele>
        <time>2015-09-12T12:15:03.1Z</time>
      </trkpt>
      <trkpt lat="45.79329" lon="5.01146">
        <ele>189</ele>
        <time>2015-09-12T12:15:09.1Z</time>
      </trkpt>
      <trkpt lat="45.79361" lon="5.01123">
        <ele>189</ele>
        <time>2015-09-12T12:15:14.1Z</time>
      </trkpt>
      <trkpt lat="45.79402" lon="5.01097">
        <ele>189</ele>
        <time>2015-09-12T12:15:20.1Z</time>
      </trkpt>
      <trkpt lat="45.79442" lon="5.01077">
        <ele>190</ele>
        <time>2015-09-12T12:15:26.1Z</time>
      </trkpt>
      <trkpt lat="45.79476" lon="5.01069">
        <ele>189</ele>
        <time>2015-09-12T12:15:31.1Z</time>
      </trkpt>
      <trkpt lat="45.79518" lon="5.01063">
        <ele>189</ele>
        <time>2015-09-12T12:15:37.1Z</time>
      </trkpt>
      <trkpt lat="45.79554" lon="5.0106">
        <ele>189</ele>
        <time>2015-09-12T12:15:42.1Z</time>
      </trkpt>
      <trkpt lat="45.79588" lon="5.01055">
        <ele>189</ele>
        <time>2015-09-12T12:15:47.1Z</time>
      </trkpt>
      <trkpt lat="45.79616" lon="5.01056">
        <ele>188</ele>
        <time>2015-09-12T12:15:53.1Z</time>
      </trkpt>
      <trkpt lat="45.79641" lon="5.01066">
        <ele>188</ele>
        <time>2015-09-12T12:15:58.1Z</time>
      </trkpt>
      <trkpt lat="45.79664" lon="5.01076">
        <ele>188</ele>
        <time>2015-09-12T12:16:03.1Z</time>
      </trkpt>
      <trkpt lat="45.7967" lon="5.01111">
        <ele>188</ele>
        <time>2015-09-12T12:16:09.1Z</time>
      </trkpt>
      <trkpt lat="45.79678" lon="5.01131">
        <ele>188</ele>
        <time>2015-09-12T12:16:14.1Z</time>
      </trkpt>
      <trkpt lat="45.79699" lon="5.01122">
        <ele>188</ele>
        <time>2015-09-12T12:16:20.1Z</time>
      </trkpt>
      <trkpt lat="45.79725" lon="5.01094">
        <ele>187</ele>
        <time>2015-09-12T12:16:26.1Z</time>
      </trkpt>
      <trkpt lat="45.79741" lon="5.01069">
        <ele>188</ele>
        <time>2015-09-12T12:16:31.1Z</time>
      </trkpt>
      <trkpt lat="45.79757" lon="5.01053">
        <ele>188</ele>
        <time>2015-09-12T12:16:36.1Z</time>
      </trkpt>
      <trkpt lat="45.79769" lon="5.01017">
        <ele>187</ele>
        <time>2015-09-12T12:16:42.1Z</time>
      </trkpt>
      <trkpt lat="45.79787" lon="5.00996">
        <ele>187</ele>
        <time>2015-09-12T12:16:48.1Z</time>
      </trkpt>
      <trkpt lat="45.79791" lon="5.00975">
        <ele>187</ele>
        <time>2015-09-12T12:16:54.1Z</time>
      </trkpt>
      <trkpt lat="45.79783" lon="5.00948">
        <ele>186</ele>
        <time>2015-09-12T12:16:59.1Z</time>
      </trkpt>
      <trkpt lat="45.79766" lon="5.0091">
        <ele>187</ele>
        <time>2015-09-12T12:17:05.1Z</time>
      </trkpt>
      <trkpt lat="45.79749" lon="5.00882">
        <ele>188</ele>
        <time>2015-09-12T12:17:10.1Z</time>
      </trkpt>
      <trkpt lat="45.79736" lon="5.00849">
        <ele>188</ele>
        <time>2015-09-12T12:17:15.1Z</time>
      </trkpt>
      <trkpt lat="45.79732" lon="5.00797">
        <ele>188</ele>
        <time>2015-09-12T12:17:21.1Z</time>
      </trkpt>
      <trkpt lat="45.79725" lon="5.00751">
        <ele>188</ele>
        <time>2015-09-12T12:17:26.1Z</time>
      </trkpt>
      <trkpt lat="45.79712" lon="5.00699">
        <ele>188</ele>
        <time>2015-09-12T12:17:32.1Z</time>
      </trkpt>
      <trkpt lat="45.79692" lon="5.00651">
        <ele>188</ele>
        <time>2015-09-12T12:17:38.1Z</time>
      </trkpt>
      <trkpt lat="45.79681" lon="5.00612">
        <ele>187</ele>
        <time>2015-09-12T12:17:43.1Z</time>
      </trkpt>
      <trkpt lat="45.79673" lon="5.00589">
        <ele>186</ele>
        <time>2015-09-12T12:17:48.1Z</time>
      </trkpt>
      <trkpt lat="45.79686" lon="5.00555">
        <ele>187</ele>
        <time>2015-09-12T12:17:54.1Z</time>
      </trkpt>
      <trkpt lat="45.79682" lon="5.00517">
        <ele>187</ele>
        <time>2015-09-12T12:18:00.1Z</time>
      </trkpt>
      <trkpt lat="45.79672" lon="5.00468">
        <ele>187</ele>
        <time>2015-09-12T12:18:06.1Z</time>
      </trkpt>
      <trkpt lat="45.79663" lon="5.00422">
        <ele>187</ele>
        <time>2015-09-12T12:18:12.1Z</time>
      </trkpt>
      <trkpt lat="45.79654" lon="5.0038">
        <ele>187</ele>
        <time>2015-09-12T12:18:17.1Z</time>
      </trkpt>
      <trkpt lat="45.79646" lon="5.00337">
        <ele>188</ele>
        <time>2015-09-12T12:18:22.1Z</time>
      </trkpt>
      <trkpt lat="45.79637" lon="5.00293">
        <ele>188</ele>
        <time>2015-09-12T12:18:27.1Z</time>
      </trkpt>
      <trkpt lat="45.79629" lon="5.00259">
        <ele>188</ele>
        <time>2015-09-12T12:18:32.1Z</time>
      </trkpt>
      <trkpt lat="45.79634" lon="5.00226">
        <ele>187</ele>
        <time>2015-09-12T12:18:38.1Z</time>
      </trkpt>
      <trkpt lat="45.79642" lon="5.00188">
        <ele>188</ele>
        <time>2015-09-12T12:18:43.1Z</time>
      </trkpt>
      <trkpt lat="45.79644" lon="5.0015">
        <ele>188</ele>
        <time>2015-09-12T12:18:48.1Z</time>
      </trkpt>
      <trkpt lat="45.79639" lon="5.00127">
        <ele>188</ele>
        <time>2015-09-12T12:18:54.1Z</time>
      </trkpt>
      <trkpt lat="45.79643" lon="5.00098">
        <ele>188</ele>
        <time>2015-09-12T12:18:59.1Z</time>
      </trkpt>
      <trkpt lat="45.79647" lon="5.00046">
        <ele>188</ele>
        <time>2015-09-12T12:19:05.1Z</time>
      </trkpt>
      <trkpt lat="45.79653" lon="5.00003">
        <ele>188</ele>
        <time>2015-09-12T12:19:10.1Z</time>
      </trkpt>
      <trkpt lat="45.79663" lon="4.99956">
        <ele>188</ele>
        <time>2015-09-12T12:19:15.1Z</time>
      </trkpt>
      <trkpt lat="45.79681" lon="4.999">
        <ele>187</ele>
        <time>2015-09-12T12:19:21.1Z</time>
      </trkpt>
      <trkpt lat="45.79702" lon="4.99855">
        <ele>187</ele>
        <time>2015-09-12T12:19:27.1Z</time>
      </trkpt>
      <trkpt lat="45.7971" lon="4.99832">
        <ele>188</ele>
        <time>2015-09-12T12:19:32.1Z</time>
      </trkpt>
      <trkpt lat="45.79701" lon="4.99824">
        <ele>188</ele>
        <time>2015-09-12T12:19:38.1Z</time>
      </trkpt>
      <trkpt lat="45.79683" lon="4.99808">
        <ele>188</ele>
        <time>2015-09-12T12:19:43.1Z</time>
      </trkpt>
      <trkpt lat="45.79655" lon="4.99779">
        <ele>188</ele>
        <time>2015-09-12T12:19:49.1Z</time>
      </trkpt>
      <trkpt lat="45.79636" lon="4.99752">
        <ele>189</ele>
        <time>2015-09-12T12:19:54.1Z</time>
      </trkpt>
      <trkpt lat="45.79613" lon="4.99722">
        <ele>189</ele>
        <time>2015-09-12T12:20:00.1Z</time>
      </trkpt>
      <trkpt lat="45.79606" lon="4.9972">
        <ele>188</ele>
        <time>2015-09-12T12:20:05.1Z</time>
      </trkpt>
      <trkpt lat="45.79613" lon="4.99723">
        <ele>188</ele>
        <time>2015-09-12T12:20:11.1Z</time>
      </trkpt>
      <trkpt lat="45.79613" lon="4.99702">
        <ele>187</ele>
        <time>2015-09-12T12:20:17.1Z</time>
      </trkpt>
      <trkpt lat="45.79609" lon="4.99674">
        <ele>187</ele>
        <time>2015-09-12T12:20:22.1Z</time>
      </trkpt>
      <trkpt lat="45.79593" lon="4.99655">
        <ele>189</ele>
        <time>2015-09-12T12:20:28.1Z</time>
      </trkpt>
      <trkpt lat="45.79569" lon="4.99629">
        <ele>189</ele>
        <time>2015-09-12T12:20:34.1Z</time>
      </trkpt>
      <trkpt lat="45.7955" lon="4.99607">
        <ele>188</ele>
        <time>2015-09-12T12:20:39.1Z</time>
      </trkpt>
      <trkpt lat="45.79523" lon="4.99577">
        <ele>188</ele>
        <time>2015-09-12T12:20:45.1Z</time>
      </trkpt>
      <trkpt lat="45.79502" lon="4.99558">
        <ele>189</ele>
        <time>2015-09-12T12:20:50.1Z</time>
      </trkpt>
      <trkpt lat="45.79484" lon="4.9954">
        <ele>190</ele>
        <time>2015-09-12T12:20:55.1Z</time>
      </trkpt>
      <trkpt lat="45.79477" lon="4.99523">
        <ele>192</ele>
        <time>2015-09-12T12:21:01.1Z</time>
      </trkpt>
      <trkpt lat="45.79477" lon="4.99511">
        <ele>192</ele>
        <time>2015-09-12T12:21:06.1Z</time>
      </trkpt>
      <trkpt lat="45.79483" lon="4.99509">
        <ele>192</ele>
        <time>2015-09-12T12:21:12.1Z</time>
      </trkpt>
      <trkpt lat="45.79477" lon="4.99521">
        <ele>192</ele>
        <time>2015-09-12T12:21:18.1Z</time>
      </trkpt>
      <trkpt lat="45.79462" lon="4.99537">
        <ele>192</ele>
        <time>2015-09-12T12:21:23.1Z</time>
      </trkpt>
      <trkpt lat="45.79449" lon="4.99555">
        <ele>191</ele>
        <time>2015-09-12T12:21:28.1Z</time>
      </trkpt>
      <trkpt lat="45.79435" lon="4.99573">
        <ele>192</ele>
        <time>2015-09-12T12:21:34.1Z</time>
      </trkpt>
      <trkpt lat="45.7944" lon="4.99574">
        <ele>192</ele>
        <time>2015-09-12T12:21:40.1Z</time>
      </trkpt>
      <trkpt lat="45.79447" lon="4.99556">
        <ele>191</ele>
        <time>2015-09-12T12:21:45.1Z</time>
      </trkpt>
      <trkpt lat="45.79464" lon="4.99528">
        <ele>191</ele>
        <time>2015-09-12T12:21:51.1Z</time>
      </trkpt>
      <trkpt lat="45.79479" lon="4.99503">
        <ele>191</ele>
        <time>2015-09-12T12:21:56.1Z</time>
      </trkpt>
      <trkpt lat="45.79496" lon="4.99474">
        <ele>191</ele>
        <time>2015-09-12T12:22:01.1Z</time>
      </trkpt>
      <trkpt lat="45.79515" lon="4.99431">
        <ele>191</ele>
        <time>2015-09-12T12:22:07.1Z</time>
      </trkpt>
      <trkpt lat="45.79528" lon="4.99395">
        <ele>190</ele>
        <time>2015-09-12T12:22:12.1Z</time>
      </trkpt>
      <trkpt lat="45.79535" lon="4.99366">
        <ele>191</ele>
        <time>2015-09-12T12:22:17.1Z</time>
      </trkpt>
      <trkpt lat="45.7954" lon="4.99344">
        <ele>191</ele>
        <time>2015-09-12T12:22:23.1Z</time>
      </trkpt>
      <trkpt lat="45.79548" lon="4.99317">
        <ele>190</ele>
        <time>2015-09-12T12:22:28.1Z</time>
      </trkpt>
      <trkpt lat="45.79556" lon="4.99278">
        <ele>190</ele>
        <time>2015-09-12T12:22:33.1Z</time>
      </trkpt>
      <trkpt lat="45.79564" lon="4.99234">
        <ele>190</ele>
        <time>2015-09-12T12:22:38.1Z</time>
      </trkpt>
      <trkpt lat="45.79572" lon="4.99184">
        <ele>191</ele>
        <time>2015-09-12T12:22:44.1Z</time>
      </trkpt>
      <trkpt lat="45.79572" lon="4.99146">
        <ele>192</ele>
        <time>2015-09-12T12:22:50.1Z</time>
      </trkpt>
      <trkpt lat="45.7957" lon="4.99111">
        <ele>195</ele>
        <time>2015-09-12T12:22:56.1Z</time>
      </trkpt>
      <trkpt lat="45.79571" lon="4.99092">
        <ele>196</ele>
        <time>2015-09-12T12:23:02.1Z</time>
      </trkpt>
      <trkpt lat="45.79569" lon="4.99083">
        <ele>196</ele>
        <time>2015-09-12T12:23:07.1Z</time>
      </trkpt>
      <trkpt lat="45.79565" lon="4.99078">
        <ele>196</ele>
        <time>2015-09-12T12:23:12.1Z</time>
      </trkpt>
      <trkpt lat="45.79568" lon="4.99088">
        <ele>196</ele>
        <time>2015-09-12T12:23:18.1Z</time>
      </trkpt>
      <trkpt lat="45.7957" lon="4.99091">
        <ele>196</ele>
        <time>2015-09-12T12:23:23.1Z</time>
      </trkpt>
      <trkpt lat="45.79571" lon="4.9909">
        <ele>196</ele>
        <time>2015-09-12T12:23:29.1Z</time>
      </trkpt>
      <trkpt lat="45.79574" lon="4.99089">
        <ele>196</ele>
        <time>2015-09-12T12:23:34.1Z</time>
      </trkpt>
      <trkpt lat="45.79585" lon="4.99083">
        <ele>196</ele>
        <time>2015-09-12T12:23:40.1Z</time>
      </trkpt>
      <trkpt lat="45.79603" lon="4.99071">
        <ele>195</ele>
        <time>2015-09-12T12:23:45.1Z</time>
      </trkpt>
      <trkpt lat="45.79642" lon="4.99049">
        <ele>193</ele>
        <time>2015-09-12T12:23:51.1Z</time>
      </trkpt>
      <trkpt lat="45.79686" lon="4.99025">
        <ele>191</ele>
        <time>2015-09-12T12:23:57.1Z</time>
      </trkpt>
      <trkpt lat="45.79721" lon="4.99004">
        <ele>190</ele>
        <time>2015-09-12T12:24:02.1Z</time>
      </trkpt>
      <trkpt lat="45.79765" lon="4.9898">
        <ele>187</ele>
        <time>2015-09-12T12:24:08.1Z</time>
      </trkpt>
      <trkpt lat="45.79805" lon="4.98956">
        <ele>187</ele>
        <time>2015-09-12T12:24:14.1Z</time>
      </trkpt>
      <trkpt lat="45.79842" lon="4.98936">
        <ele>188</ele>
        <time>2015-09-12T12:24:19.1Z</time>
      </trkpt>
      <trkpt lat="45.79887" lon="4.98911">
        <ele>187</ele>
        <time>2015-09-12T12:24:25.1Z</time>
      </trkpt>
      <trkpt lat="45.79923" lon="4.98888">
        <ele>188</ele>
        <time>2015-09-12T12:24:30.1Z</time>
      </trkpt>
      <trkpt lat="45.79967" lon="4.98864">
        <ele>187</ele>
        <time>2015-09-12T12:24:36.1Z</time>
      </trkpt>
      <trkpt lat="45.80001" lon="4.98844">
        <ele>186</ele>
        <time>2015-09-12T12:24:41.1Z</time>
      </trkpt>
      <trkpt lat="45.80035" lon="4.98824">
        <ele>186</ele>
        <time>2015-09-12T12:24:46.1Z</time>
      </trkpt>
      <trkpt lat="45.80069" lon="4.98807">
        <ele>186</ele>
        <time>2015-09-12T12:24:51.1Z</time>
      </trkpt>
      <trkpt lat="45.80102" lon="4.98791">
        <ele>185</ele>
        <time>2015-09-12T12:24:56.1Z</time>
      </trkpt>
      <trkpt lat="45.80138" lon="4.98767">
        <ele>185</ele>
        <time>2015-09-12T12:25:02.1Z</time>
      </trkpt>
      <trkpt lat="45.80168" lon="4.98755">
        <ele>186</ele>
        <time>2015-09-12T12:25:07.1Z</time>
      </trkpt>
      <trkpt lat="45.80195" lon="4.98735">
        <ele>186</ele>
        <time>2015-09-12T12:25:13.1Z</time>
      </trkpt>
      <trkpt lat="45.80214" lon="4.9871">
        <ele>187</ele>
        <time>2015-09-12T12:25:18.1Z</time>
      </trkpt>
      <trkpt lat="45.80239" lon="4.98689">
        <ele>187</ele>
        <time>2015-09-12T12:25:23.1Z</time>
      </trkpt>
      <trkpt lat="45.80264" lon="4.98662">
        <ele>188</ele>
        <time>2015-09-12T12:25:29.1Z</time>
      </trkpt>
      <trkpt lat="45.80278" lon="4.9863">
        <ele>189</ele>
        <time>2015-09-12T12:25:34.1Z</time>
      </trkpt>
      <trkpt lat="45.80285" lon="4.98591">
        <ele>188</ele>
        <time>2015-09-12T12:25:39.1Z</time>
      </trkpt>
      <trkpt lat="45.80298" lon="4.98557">
        <ele>188</ele>
        <time>2015-09-12T12:25:44.1Z</time>
      </trkpt>
      <trkpt lat="45.80306" lon="4.98519">
        <ele>189</ele>
        <time>2015-09-12T12:25:49.1Z</time>
      </trkpt>
      <trkpt lat="45.80312" lon="4.98474">
        <ele>189</ele>
        <time>2015-09-12T12:25:55.1Z</time>
      </trkpt>
      <trkpt lat="45.80321" lon="4.98438">
        <ele>189</ele>
        <time>2015-09-12T12:26:00.1Z</time>
      </trkpt>
      <trkpt lat="45.80326" lon="4.98413">
        <ele>188</ele>
        <time>2015-09-12T12:26:05.1Z</time>
      </trkpt>
      <trkpt lat="45.80331" lon="4.98383">
        <ele>186</ele>
        <time>2015-09-12T12:26:11.1Z</time>
      </trkpt>
      <trkpt lat="45.80334" lon="4.98358">
        <ele>186</ele>
        <time>2015-09-12T12:26:16.1Z</time>
      </trkpt>
      <trkpt lat="45.80336" lon="4.98326">
        <ele>185</ele>
        <time>2015-09-12T12:26:21.1Z</time>
      </trkpt>
      <trkpt lat="45.8034" lon="4.98278">
        <ele>186</ele>
        <time>2015-09-12T12:26:27.1Z</time>
      </trkpt>
      <trkpt lat="45.80352" lon="4.98244">
        <ele>186</ele>
        <time>2015-09-12T12:26:33.1Z</time>
      </trkpt>
      <trkpt lat="45.80373" lon="4.98221">
        <ele>187</ele>
        <time>2015-09-12T12:26:39.1Z</time>
      </trkpt>
      <trkpt lat="45.80383" lon="4.982">
        <ele>186</ele>
        <time>2015-09-12T12:26:44.1Z</time>
      </trkpt>
      <trkpt lat="45.80393" lon="4.98178">
        <ele>186</ele>
        <time>2015-09-12T12:26:50.1Z</time>
      </trkpt>
      <trkpt lat="45.80385" lon="4.98157">
        <ele>186</ele>
        <time>2015-09-12T12:26:55.1Z</time>
      </trkpt>
      <trkpt lat="45.80369" lon="4.98119">
        <ele>186</ele>
        <time>2015-09-12T12:27:01.1Z</time>
      </trkpt>
      <trkpt lat="45.8035" lon="4.98101">
        <ele>185</ele>
        <time>2015-09-12T12:27:06.1Z</time>
      </trkpt>
      <trkpt lat="45.80342" lon="4.98094">
        <ele>188</ele>
        <time>2015-09-12T12:27:11.1Z</time>
      </trkpt>
      <trkpt lat="45.80335" lon="4.98096">
        <ele>190</ele>
        <time>2015-09-12T12:27:17.1Z</time>
      </trkpt>
      <trkpt lat="45.80318" lon="4.98119">
        <ele>192</ele>
        <time>2015-09-12T12:27:23.1Z</time>
      </trkpt>
      <trkpt lat="45.80298" lon="4.98145">
        <ele>190</ele>
        <time>2015-09-12T12:27:29.1Z</time>
      </trkpt>
      <trkpt lat="45.80275" lon="4.98173">
        <ele>188</ele>
        <time>2015-09-12T12:27:34.1Z</time>
      </trkpt>
      <trkpt lat="45.80249" lon="4.98195">
        <ele>187</ele>
        <time>2015-09-12T12:27:40.1Z</time>
      </trkpt>
      <trkpt lat="45.80216" lon="4.98208">
        <ele>183</ele>
        <time>2015-09-12T12:27:46.1Z</time>
      </trkpt>
      <trkpt lat="45.80195" lon="4.98218">
        <ele>184</ele>
        <time>2015-09-12T12:27:51.1Z</time>
      </trkpt>
      <trkpt lat="45.80178" lon="4.98248">
        <ele>186</ele>
        <time>2015-09-12T12:27:57.1Z</time>
      </trkpt>
      <trkpt lat="45.80163" lon="4.98278">
        <ele>186</ele>
        <time>2015-09-12T12:28:02.1Z</time>
      </trkpt>
      <trkpt lat="45.80144" lon="4.98305">
        <ele>186</ele>
        <time>2015-09-12T12:28:07.1Z</time>
      </trkpt>
      <trkpt lat="45.80119" lon="4.98326">
        <ele>189</ele>
        <time>2015-09-12T12:28:12.1Z</time>
      </trkpt>
      <trkpt lat="45.80094" lon="4.98343">
        <ele>188</ele>
        <time>2015-09-12T12:28:17.1Z</time>
      </trkpt>
      <trkpt lat="45.80066" lon="4.98363">
        <ele>188</ele>
        <time>2015-09-12T12:28:23.1Z</time>
      </trkpt>
      <trkpt lat="45.80048" lon="4.98374">
        <ele>188</ele>
        <time>2015-09-12T12:28:28.1Z</time>
      </trkpt>
      <trkpt lat="45.80034" lon="4.9835">
        <ele>187</ele>
        <time>2015-09-12T12:28:33.1Z</time>
      </trkpt>
      <trkpt lat="45.80025" lon="4.98316">
        <ele>187</ele>
        <time>2015-09-12T12:28:38.1Z</time>
      </trkpt>
      <trkpt lat="45.80007" lon="4.98278">
        <ele>187</ele>
        <time>2015-09-12T12:28:44.1Z</time>
      </trkpt>
      <trkpt lat="45.79996" lon="4.9824">
        <ele>187</ele>
        <time>2015-09-12T12:28:49.1Z</time>
      </trkpt>
      <trkpt lat="45.7999" lon="4.9819">
        <ele>187</ele>
        <time>2015-09-12T12:28:54.1Z</time>
      </trkpt>
      <trkpt lat="45.79976" lon="4.98158">
        <ele>186</ele>
        <time>2015-09-12T12:29:00.1Z</time>
      </trkpt>
      <trkpt lat="45.79965" lon="4.98123">
        <ele>185</ele>
        <time>2015-09-12T12:29:05.1Z</time>
      </trkpt>
      <trkpt lat="45.79956" lon="4.98086">
        <ele>186</ele>
        <time>2015-09-12T12:29:10.1Z</time>
      </trkpt>
      <trkpt lat="45.79956" lon="4.98049">
        <ele>187</ele>
        <time>2015-09-12T12:29:16.1Z</time>
      </trkpt>
      <trkpt lat="45.7996" lon="4.98019">
        <ele>188</ele>
        <time>2015-09-12T12:29:21.1Z</time>
      </trkpt>
      <trkpt lat="45.79941" lon="4.98003">
        <ele>187</ele>
        <time>2015-09-12T12:29:26.1Z</time>
      </trkpt>
      <trkpt lat="45.79913" lon="4.98009">
        <ele>187</ele>
        <time>2015-09-12T12:29:31.1Z</time>
      </trkpt>
      <trkpt lat="45.7988" lon="4.98028">
        <ele>187</ele>
        <time>2015-09-12T12:29:37.1Z</time>
      </trkpt>
      <trkpt lat="45.79852" lon="4.98046">
        <ele>186</ele>
        <time>2015-09-12T12:29:42.1Z</time>
      </trkpt>
      <trkpt lat="45.79818" lon="4.9806">
        <ele>186</ele>
        <time>2015-09-12T12:29:47.1Z</time>
      </trkpt>
      <trkpt lat="45.79788" lon="4.98071">
        <ele>187</ele>
        <time>2015-09-12T12:29:52.1Z</time>
      </trkpt>
      <trkpt lat="45.79757" lon="4.98077">
        <ele>187</ele>
        <time>2015-09-12T12:29:58.1Z</time>
      </trkpt>
      <trkpt lat="45.79728" lon="4.98067">
        <ele>187</ele>
        <time>2015-09-12T12:30:03.1Z</time>
      </trkpt>
      <trkpt lat="45.79706" lon="4.98028">
        <ele>187</ele>
        <time>2015-09-12T12:30:09.1Z</time>
      </trkpt>
      <trkpt lat="45.79695" lon="4.97988">
        <ele>186</ele>
        <time>2015-09-12T12:30:14.1Z</time>
      </trkpt>
      <trkpt lat="45.7967" lon="4.97976">
        <ele>185</ele>
        <time>2015-09-12T12:30:20.1Z</time>
      </trkpt>
      <trkpt lat="45.79641" lon="4.9796">
        <ele>185</ele>
        <time>2015-09-12T12:30:25.1Z</time>
      </trkpt>
      <trkpt lat="45.79623" lon="4.97923">
        <ele>186</ele>
        <time>2015-09-12T12:30:30.1Z</time>
      </trkpt>
      <trkpt lat="45.79607" lon="4.97875">
        <ele>186</ele>
        <time>2015-09-12T12:30:35.1Z</time>
      </trkpt>
      <trkpt lat="45.79594" lon="4.97837">
        <ele>187</ele>
        <time>2015-09-12T12:30:40.1Z</time>
      </trkpt>
      <trkpt lat="45.79588" lon="4.97808">
        <ele>188</ele>
        <time>2015-09-12T12:30:45.1Z</time>
      </trkpt>
      <trkpt lat="45.79586" lon="4.97786">
        <ele>189</ele>
        <time>2015-09-12T12:30:51.1Z</time>
      </trkpt>
      <trkpt lat="45.796" lon="4.97757">
        <ele>190</ele>
        <time>2015-09-12T12:30:56.1Z</time>
      </trkpt>
      <trkpt lat="45.79619" lon="4.97733">
        <ele>191</ele>
        <time>2015-09-12T12:31:02.1Z</time>
      </trkpt>
      <trkpt lat="45.79639" lon="4.97694">
        <ele>191</ele>
        <time>2015-09-12T12:31:08.1Z</time>
      </trkpt>
      <trkpt lat="45.79656" lon="4.9765">
        <ele>192</ele>
        <time>2015-09-12T12:31:14.1Z</time>
      </trkpt>
      <trkpt lat="45.79677" lon="4.97627">
        <ele>192</ele>
        <time>2015-09-12T12:31:19.1Z</time>
      </trkpt>
      <trkpt lat="45.79702" lon="4.97615">
        <ele>191</ele>
        <time>2015-09-12T12:31:25.1Z</time>
      </trkpt>
      <trkpt lat="45.79719" lon="4.97598">
        <ele>193</ele>
        <time>2015-09-12T12:31:30.1Z</time>
      </trkpt>
      <trkpt lat="45.79723" lon="4.97575">
        <ele>194</ele>
        <time>2015-09-12T12:31:35.1Z</time>
      </trkpt>
      <trkpt lat="45.79721" lon="4.97542">
        <ele>196</ele>
        <time>2015-09-12T12:31:40.1Z</time>
      </trkpt>
      <trkpt lat="45.79721" lon="4.97509">
        <ele>196</ele>
        <time>2015-09-12T12:31:45.1Z</time>
      </trkpt>
      <trkpt lat="45.79719" lon="4.9747">
        <ele>196</ele>
        <time>2015-09-12T12:31:51.1Z</time>
      </trkpt>
      <trkpt lat="45.79717" lon="4.97429">
        <ele>196</ele>
        <time>2015-09-12T12:31:56.1Z</time>
      </trkpt>
      <trkpt lat="45.79713" lon="4.97376">
        <ele>196</ele>
        <time>2015-09-12T12:32:01.1Z</time>
      </trkpt>
      <trkpt lat="45.79712" lon="4.97329">
        <ele>196</ele>
        <time>2015-09-12T12:32:07.1Z</time>
      </trkpt>
      <trkpt lat="45.79713" lon="4.97267">
        <ele>196</ele>
        <time>2015-09-12T12:32:12.1Z</time>
      </trkpt>
      <trkpt lat="45.79711" lon="4.97204">
        <ele>194</ele>
        <time>2015-09-12T12:32:18.1Z</time>
      </trkpt>
      <trkpt lat="45.79693" lon="4.97157">
        <ele>194</ele>
        <time>2015-09-12T12:32:23.1Z</time>
      </trkpt>
      <trkpt lat="45.79681" lon="4.97103">
        <ele>193</ele>
        <time>2015-09-12T12:32:29.1Z</time>
      </trkpt>
      <trkpt lat="45.79696" lon="4.97044">
        <ele>192</ele>
        <time>2015-09-12T12:32:35.1Z</time>
      </trkpt>
      <trkpt lat="45.79729" lon="4.9702">
        <ele>189</ele>
        <time>2015-09-12T12:32:40.1Z</time>
      </trkpt>
      <trkpt lat="45.7976" lon="4.97025">
        <ele>188</ele>
        <time>2015-09-12T12:32:46.1Z</time>
      </trkpt>
      <trkpt lat="45.7978" lon="4.97003">
        <ele>187</ele>
        <time>2015-09-12T12:32:51.1Z</time>
      </trkpt>
      <trkpt lat="45.79783" lon="4.96985">
        <ele>188</ele>
        <time>2015-09-12T12:32:57.1Z</time>
      </trkpt>
      <trkpt lat="45.79789" lon="4.96948">
        <ele>190</ele>
        <time>2015-09-12T12:33:02.1Z</time>
      </trkpt>
      <trkpt lat="45.79792" lon="4.96912">
        <ele>188</ele>
        <time>2015-09-12T12:33:08.1Z</time>
      </trkpt>
      <trkpt lat="45.79771" lon="4.96879">
        <ele>189</ele>
        <time>2015-09-12T12:33:13.1Z</time>
      </trkpt>
      <trkpt lat="45.79752" lon="4.96826">
        <ele>189</ele>
        <time>2015-09-12T12:33:18.1Z</time>
      </trkpt>
      <trkpt lat="45.79742" lon="4.96787">
        <ele>189</ele>
        <time>2015-09-12T12:33:24.1Z</time>
      </trkpt>
      <trkpt lat="45.79741" lon="4.96749">
        <ele>189</ele>
        <time>2015-09-12T12:33:29.1Z</time>
      </trkpt>
      <trkpt lat="45.79745" lon="4.96701">
        <ele>189</ele>
        <time>2015-09-12T12:33:34.1Z</time>
      </trkpt>
      <trkpt lat="45.7975" lon="4.96659">
        <ele>190</ele>
        <time>2015-09-12T12:33:40.1Z</time>
      </trkpt>
      <trkpt lat="45.79755" lon="4.96608">
        <ele>191</ele>
        <time>2015-09-12T12:33:46.1Z</time>
      </trkpt>
      <trkpt lat="45.7976" lon="4.96564">
        <ele>191</ele>
        <time>2015-09-12T12:33:51.1Z</time>
      </trkpt>
      <trkpt lat="45.79764" lon="4.96511">
        <ele>190</ele>
        <time>2015-09-12T12:33:57.1Z</time>
      </trkpt>
      <trkpt lat="45.79787" lon="4.96494">
        <ele>190</ele>
        <time>2015-09-12T12:34:03.1Z</time>
      </trkpt>
      <trkpt lat="45.79818" lon="4.96496">
        <ele>189</ele>
        <time>2015-09-12T12:34:09.1Z</time>
      </trkpt>
      <trkpt lat="45.79839" lon="4.96489">
        <ele>189</ele>
        <time>2015-09-12T12:34:14.1Z</time>
      </trkpt>
      <trkpt lat="45.79845" lon="4.96452">
        <ele>188</ele>
        <time>2015-09-12T12:34:19.1Z</time>
      </trkpt>
      <trkpt lat="45.79853" lon="4.964">
        <ele>188</ele>
        <time>2015-09-12T12:34:25.1Z</time>
      </trkpt>
      <trkpt lat="45.7986" lon="4.96355">
        <ele>188</ele>
        <time>2015-09-12T12:34:30.1Z</time>
      </trkpt>
      <trkpt lat="45.79867" lon="4.96299">
        <ele>188</ele>
        <time>2015-09-12T12:34:36.1Z</time>
      </trkpt>
      <trkpt lat="45.79874" lon="4.96243">
        <ele>188</ele>
        <time>2015-09-12T12:34:42.1Z</time>
      </trkpt>
      <trkpt lat="45.79873" lon="4.96189">
        <ele>189</ele>
        <time>2015-09-12T12:34:47.1Z</time>
      </trkpt>
      <trkpt lat="45.79872" lon="4.96143">
        <ele>189</ele>
        <time>2015-09-12T12:34:52.1Z</time>
      </trkpt>
      <trkpt lat="45.79865" lon="4.96096">
        <ele>189</ele>
        <time>2015-09-12T12:34:59.1Z</time>
      </trkpt>
      <trkpt lat="45.79861" lon="4.96054">
        <ele>190</ele>
        <time>2015-09-12T12:35:04.1Z</time>
      </trkpt>
      <trkpt lat="45.79861" lon="4.96014">
        <ele>189</ele>
        <time>2015-09-12T12:35:10.1Z</time>
      </trkpt>
      <trkpt lat="45.79863" lon="4.95964">
        <ele>189</ele>
        <time>2015-09-12T12:35:16.1Z</time>
      </trkpt>
      <trkpt lat="45.79861" lon="4.9591">
        <ele>188</ele>
        <time>2015-09-12T12:35:22.1Z</time>
      </trkpt>
      <trkpt lat="45.79859" lon="4.95851">
        <ele>187</ele>
        <time>2015-09-12T12:35:27.1Z</time>
      </trkpt>
      <trkpt lat="45.79856" lon="4.95804">
        <ele>187</ele>
        <time>2015-09-12T12:35:33.1Z</time>
      </trkpt>
      <trkpt lat="45.79854" lon="4.95749">
        <ele>188</ele>
        <time>2015-09-12T12:35:39.1Z</time>
      </trkpt>
      <trkpt lat="45.7985" lon="4.95696">
        <ele>188</ele>
        <time>2015-09-12T12:35:44.1Z</time>
      </trkpt>
      <trkpt lat="45.79847" lon="4.95655">
        <ele>188</ele>
        <time>2015-09-12T12:35:50.1Z</time>
      </trkpt>
      <trkpt lat="45.79847" lon="4.95614">
        <ele>188</ele>
        <time>2015-09-12T12:35:55.1Z</time>
      </trkpt>
      <trkpt lat="45.79847" lon="4.95566">
        <ele>188</ele>
        <time>2015-09-12T12:36:00.1Z</time>
      </trkpt>
      <trkpt lat="45.79847" lon="4.95527">
        <ele>188</ele>
        <time>2015-09-12T12:36:06.1Z</time>
      </trkpt>
      <trkpt lat="45.79843" lon="4.9548">
        <ele>187</ele>
        <time>2015-09-12T12:36:11.1Z</time>
      </trkpt>
      <trkpt lat="45.79839" lon="4.95442">
        <ele>186</ele>
        <time>2015-09-12T12:36:16.1Z</time>
      </trkpt>
      <trkpt lat="45.79837" lon="4.95403">
        <ele>186</ele>
        <time>2015-09-12T12:36:22.1Z</time>
      </trkpt>
      <trkpt lat="45.79837" lon="4.95355">
        <ele>187</ele>
        <time>2015-09-12T12:36:28.1Z</time>
      </trkpt>
      <trkpt lat="45.79838" lon="4.95309">
        <ele>185</ele>
        <time>2015-09-12T12:36:34.1Z</time>
      </trkpt>
      <trkpt lat="45.7984" lon="4.95261">
        <ele>186</ele>
        <time>2015-09-12T12:36:39.1Z</time>
      </trkpt>
      <trkpt lat="45.79839" lon="4.9522">
        <ele>186</ele>
        <time>2015-09-12T12:36:45.1Z</time>
      </trkpt>
      <trkpt lat="45.79834" lon="4.9518">
        <ele>187</ele>
        <time>2015-09-12T12:36:50.1Z</time>
      </trkpt>
      <trkpt lat="45.79823" lon="4.95139">
        <ele>189</ele>
        <time>2015-09-12T12:36:56.1Z</time>
      </trkpt>
      <trkpt lat="45.79809" lon="4.9511">
        <ele>189</ele>
        <time>2015-09-12T12:37:01.1Z</time>
      </trkpt>
      <trkpt lat="45.79797" lon="4.95079">
        <ele>188</ele>
        <time>2015-09-12T12:37:06.1Z</time>
      </trkpt>
      <trkpt lat="45.79791" lon="4.95045">
        <ele>188</ele>
        <time>2015-09-12T12:37:11.1Z</time>
      </trkpt>
      <trkpt lat="45.79792" lon="4.95002">
        <ele>189</ele>
        <time>2015-09-12T12:37:17.1Z</time>
      </trkpt>
      <trkpt lat="45.79789" lon="4.94961">
        <ele>190</ele>
        <time>2015-09-12T12:37:23.1Z</time>
      </trkpt>
      <trkpt lat="45.79792" lon="4.94929">
        <ele>191</ele>
        <time>2015-09-12T12:37:28.1Z</time>
      </trkpt>
      <trkpt lat="45.79811" lon="4.94897">
        <ele>188</ele>
        <time>2015-09-12T12:37:33.1Z</time>
      </trkpt>
      <trkpt lat="45.79824" lon="4.94864">
        <ele>187</ele>
        <time>2015-09-12T12:37:39.1Z</time>
      </trkpt>
      <trkpt lat="45.79823" lon="4.9481">
        <ele>187</ele>
        <time>2015-09-12T12:37:45.1Z</time>
      </trkpt>
      <trkpt lat="45.79821" lon="4.94767">
        <ele>186</ele>
        <time>2015-09-12T12:37:50.1Z</time>
      </trkpt>
      <trkpt lat="45.79818" lon="4.94726">
        <ele>186</ele>
        <time>2015-09-12T12:37:55.1Z</time>
      </trkpt>
      <trkpt lat="45.79817" lon="4.94686">
        <ele>187</ele>
        <time>2015-09-12T12:38:00.1Z</time>
      </trkpt>
      <trkpt lat="45.79815" lon="4.94637">
        <ele>188</ele>
        <time>2015-09-12T12:38:06.1Z</time>
      </trkpt>
      <trkpt lat="45.79812" lon="4.94589">
        <ele>187</ele>
        <time>2015-09-12T12:38:12.1Z</time>
      </trkpt>
      <trkpt lat="45.79811" lon="4.94539">
        <ele>188</ele>
        <time>2015-09-12T12:38:17.1Z</time>
      </trkpt>
      <trkpt lat="45.79808" lon="4.945">
        <ele>188</ele>
        <time>2015-09-12T12:38:22.1Z</time>
      </trkpt>
      <trkpt lat="45.79805" lon="4.9445">
        <ele>187</ele>
        <time>2015-09-12T12:38:29.1Z</time>
      </trkpt>
      <trkpt lat="45.79803" lon="4.94409">
        <ele>188</ele>
        <time>2015-09-12T12:38:34.1Z</time>
      </trkpt>
      <trkpt lat="45.79802" lon="4.94359">
        <ele>188</ele>
        <time>2015-09-12T12:38:39.1Z</time>
      </trkpt>
      <trkpt lat="45.79802" lon="4.94306">
        <ele>188</ele>
        <time>2015-09-12T12:38:45.1Z</time>
      </trkpt>
      <trkpt lat="45.79805" lon="4.94267">
        <ele>189</ele>
        <time>2015-09-12T12:38:50.1Z</time>
      </trkpt>
      <trkpt lat="45.79807" lon="4.94233">
        <ele>189</ele>
        <time>2015-09-12T12:38:55.1Z</time>
      </trkpt>
      <trkpt lat="45.79818" lon="4.94206">
        <ele>189</ele>
        <time>2015-09-12T12:39:00.1Z</time>
      </trkpt>
      <trkpt lat="45.79843" lon="4.94183">
        <ele>189</ele>
        <time>2015-09-12T12:39:06.1Z</time>
      </trkpt>
      <trkpt lat="45.79852" lon="4.94141">
        <ele>189</ele>
        <time>2015-09-12T12:39:12.1Z</time>
      </trkpt>
      <trkpt lat="45.79857" lon="4.94103">
        <ele>189</ele>
        <time>2015-09-12T12:39:18.1Z</time>
      </trkpt>
      <trkpt lat="45.79841" lon="4.94066">
        <ele>190</ele>
        <time>2015-09-12T12:39:24.1Z</time>
      </trkpt>
      <trkpt lat="45.79817" lon="4.94046">
        <ele>191</ele>
        <time>2015-09-12T12:39:30.1Z</time>
      </trkpt>
      <trkpt lat="45.798" lon="4.94016">
        <ele>191</ele>
        <time>2015-09-12T12:39:36.1Z</time>
      </trkpt>
      <trkpt lat="45.79799" lon="4.93973">
        <ele>189</ele>
        <time>2015-09-12T12:39:41.1Z</time>
      </trkpt>
      <trkpt lat="45.79797" lon="4.93933">
        <ele>188</ele>
        <time>2015-09-12T12:39:47.1Z</time>
      </trkpt>
      <trkpt lat="45.79802" lon="4.93894">
        <ele>189</ele>
        <time>2015-09-12T12:39:52.1Z</time>
      </trkpt>
      <trkpt lat="45.79816" lon="4.93849">
        <ele>190</ele>
        <time>2015-09-12T12:39:57.1Z</time>
      </trkpt>
      <trkpt lat="45.79837" lon="4.93822">
        <ele>191</ele>
        <time>2015-09-12T12:40:03.1Z</time>
      </trkpt>
      <trkpt lat="45.79865" lon="4.93797">
        <ele>190</ele>
        <time>2015-09-12T12:40:08.1Z</time>
      </trkpt>
      <trkpt lat="45.79892" lon="4.93782">
        <ele>190</ele>
        <time>2015-09-12T12:40:14.1Z</time>
      </trkpt>
      <trkpt lat="45.79926" lon="4.93765">
        <ele>191</ele>
        <time>2015-09-12T12:40:20.1Z</time>
      </trkpt>
      <trkpt lat="45.79961" lon="4.93747">
        <ele>190</ele>
        <time>2015-09-12T12:40:25.1Z</time>
      </trkpt>
      <trkpt lat="45.79989" lon="4.9372">
        <ele>190</ele>
        <time>2015-09-12T12:40:31.1Z</time>
      </trkpt>
      <trkpt lat="45.80027" lon="4.93696">
        <ele>189</ele>
        <time>2015-09-12T12:40:36.1Z</time>
      </trkpt>
      <trkpt lat="45.80059" lon="4.93689">
        <ele>189</ele>
        <time>2015-09-12T12:40:41.1Z</time>
      </trkpt>
      <trkpt lat="45.80087" lon="4.93671">
        <ele>190</ele>
        <time>2015-09-12T12:40:46.1Z</time>
      </trkpt>
      <trkpt lat="45.80115" lon="4.93652">
        <ele>190</ele>
        <time>2015-09-12T12:40:51.1Z</time>
      </trkpt>
      <trkpt lat="45.80145" lon="4.9363">
        <ele>191</ele>
        <time>2015-09-12T12:40:58.1Z</time>
      </trkpt>
      <trkpt lat="45.80168" lon="4.93607">
        <ele>190</ele>
        <time>2015-09-12T12:41:03.1Z</time>
      </trkpt>
      <trkpt lat="45.80194" lon="4.93575">
        <ele>190</ele>
        <time>2015-09-12T12:41:09.1Z</time>
      </trkpt>
      <trkpt lat="45.80218" lon="4.93539">
        <ele>190</ele>
        <time>2015-09-12T12:41:14.1Z</time>
      </trkpt>
      <trkpt lat="45.80242" lon="4.93521">
        <ele>190</ele>
        <time>2015-09-12T12:41:19.1Z</time>
      </trkpt>
      <trkpt lat="45.80261" lon="4.93506">
        <ele>190</ele>
        <time>2015-09-12T12:41:24.1Z</time>
      </trkpt>
      <trkpt lat="45.80273" lon="4.93486">
        <ele>188</ele>
        <time>2015-09-12T12:41:30.1Z</time>
      </trkpt>
      <trkpt lat="45.8028" lon="4.93458">
        <ele>187</ele>
        <time>2015-09-12T12:41:35.1Z</time>
      </trkpt>
      <trkpt lat="45.80294" lon="4.93429">
        <ele>189</ele>
        <time>2015-09-12T12:41:41.1Z</time>
      </trkpt>
      <trkpt lat="45.80311" lon="4.93411">
        <ele>189</ele>
        <time>2015-09-12T12:41:46.1Z</time>
      </trkpt>
      <trkpt lat="45.80318" lon="4.93385">
        <ele>189</ele>
        <time>2015-09-12T12:41:52.1Z</time>
      </trkpt>
      <trkpt lat="45.80311" lon="4.9335">
        <ele>190</ele>
        <time>2015-09-12T12:41:58.1Z</time>
      </trkpt>
      <trkpt lat="45.80306" lon="4.93317">
        <ele>190</ele>
        <time>2015-09-12T12:42:04.1Z</time>
      </trkpt>
      <trkpt lat="45.80301" lon="4.93273">
        <ele>189</ele>
        <time>2015-09-12T12:42:09.1Z</time>
      </trkpt>
      <trkpt lat="45.80298" lon="4.93235">
        <ele>188</ele>
        <time>2015-09-12T12:42:14.1Z</time>
      </trkpt>
      <trkpt lat="45.80291" lon="4.93186">
        <ele>189</ele>
        <time>2015-09-12T12:42:20.1Z</time>
      </trkpt>
      <trkpt lat="45.80284" lon="4.93145">
        <ele>188</ele>
        <time>2015-09-12T12:42:25.1Z</time>
      </trkpt>
      <trkpt lat="45.80275" lon="4.93094">
        <ele>187</ele>
        <time>2015-09-12T12:42:31.1Z</time>
      </trkpt>
      <trkpt lat="45.80267" lon="4.93046">
        <ele>186</ele>
        <time>2015-09-12T12:42:37.1Z</time>
      </trkpt>
      <trkpt lat="45.80259" lon="4.92998">
        <ele>186</ele>
        <time>2015-09-12T12:42:43.1Z</time>
      </trkpt>
      <trkpt lat="45.80248" lon="4.92951">
        <ele>186</ele>
        <time>2015-09-12T12:42:49.1Z</time>
      </trkpt>
      <trkpt lat="45.8024" lon="4.92911">
        <ele>187</ele>
        <time>2015-09-12T12:42:54.1Z</time>
      </trkpt>
      <trkpt lat="45.80232" lon="4.92872">
        <ele>186</ele>
        <time>2015-09-12T12:43:00.1Z</time>
      </trkpt>
      <trkpt lat="45.80223" lon="4.92825">
        <ele>186</ele>
        <time>2015-09-12T12:43:05.1Z</time>
      </trkpt>
      <trkpt lat="45.8022" lon="4.92777">
        <ele>186</ele>
        <time>2015-09-12T12:43:11.1Z</time>
      </trkpt>
      <trkpt lat="45.80214" lon="4.92718">
        <ele>185</ele>
        <time>2015-09-12T12:43:17.1Z</time>
      </trkpt>
      <trkpt lat="45.80213" lon="4.92667">
        <ele>184</ele>
        <time>2015-09-12T12:43:22.1Z</time>
      </trkpt>
      <trkpt lat="45.80195" lon="4.92614">
        <ele>184</ele>
        <time>2015-09-12T12:43:28.1Z</time>
      </trkpt>
      <trkpt lat="45.8016" lon="4.92597">
        <ele>185</ele>
        <time>2015-09-12T12:43:34.1Z</time>
      </trkpt>
      <trkpt lat="45.80136" lon="4.92629">
        <ele>186</ele>
        <time>2015-09-12T12:43:40.1Z</time>
      </trkpt>
      <trkpt lat="45.80126" lon="4.92666">
        <ele>187</ele>
        <time>2015-09-12T12:43:46.1Z</time>
      </trkpt>
      <trkpt lat="45.801" lon="4.9269">
        <ele>188</ele>
        <time>2015-09-12T12:43:51.1Z</time>
      </trkpt>
      <trkpt lat="45.80069" lon="4.92702">
        <ele>188</ele>
        <time>2015-09-12T12:43:57.1Z</time>
      </trkpt>
      <trkpt lat="45.80035" lon="4.92713">
        <ele>188</ele>
        <time>2015-09-12T12:44:03.1Z</time>
      </trkpt>
      <trkpt lat="45.80005" lon="4.92719">
        <ele>189</ele>
        <time>2015-09-12T12:44:09.1Z</time>
      </trkpt>
      <trkpt lat="45.79968" lon="4.92723">
        <ele>188</ele>
        <time>2015-09-12T12:44:14.1Z</time>
      </trkpt>
      <trkpt lat="45.79937" lon="4.92719">
        <ele>188</ele>
        <time>2015-09-12T12:44:19.1Z</time>
      </trkpt>
      <trkpt lat="45.79898" lon="4.92708">
        <ele>188</ele>
        <time>2015-09-12T12:44:25.1Z</time>
      </trkpt>
      <trkpt lat="45.79859" lon="4.92695">
        <ele>187</ele>
        <time>2015-09-12T12:44:31.1Z</time>
      </trkpt>
      <trkpt lat="45.79828" lon="4.92675">
        <ele>186</ele>
        <time>2015-09-12T12:44:36.1Z</time>
      </trkpt>
      <trkpt lat="45.798" lon="4.92651">
        <ele>186</ele>
        <time>2015-09-12T12:44:41.1Z</time>
      </trkpt>
      <trkpt lat="45.79777" lon="4.92624">
        <ele>186</ele>
        <time>2015-09-12T12:44:46.1Z</time>
      </trkpt>
      <trkpt lat="45.79748" lon="4.92598">
        <ele>186</ele>
        <time>2015-09-12T12:44:52.1Z</time>
      </trkpt>
      <trkpt lat="45.79724" lon="4.92581">
        <ele>185</ele>
        <time>2015-09-12T12:44:57.1Z</time>
      </trkpt>
      <trkpt lat="45.79695" lon="4.92566">
        <ele>186</ele>
        <time>2015-09-12T12:45:03.1Z</time>
      </trkpt>
      <trkpt lat="45.7967" lon="4.92557">
        <ele>186</ele>
        <time>2015-09-12T12:45:08.1Z</time>
      </trkpt>
      <trkpt lat="45.79645" lon="4.92548">
        <ele>185</ele>
        <time>2015-09-12T12:45:13.1Z</time>
      </trkpt>
      <trkpt lat="45.79614" lon="4.92537">
        <ele>186</ele>
        <time>2015-09-12T12:45:19.1Z</time>
      </trkpt>
      <trkpt lat="45.79582" lon="4.92524">
        <ele>187</ele>
        <time>2015-09-12T12:45:25.1Z</time>
      </trkpt>
      <trkpt lat="45.79551" lon="4.92508">
        <ele>186</ele>
        <time>2015-09-12T12:45:31.1Z</time>
      </trkpt>
      <trkpt lat="45.79526" lon="4.92491">
        <ele>186</ele>
        <time>2015-09-12T12:45:36.1Z</time>
      </trkpt>
      <trkpt lat="45.79498" lon="4.92467">
        <ele>186</ele>
        <time>2015-09-12T12:45:42.1Z</time>
      </trkpt>
      <trkpt lat="45.7948" lon="4.9243">
        <ele>186</ele>
        <time>2015-09-12T12:45:48.1Z</time>
      </trkpt>
      <trkpt lat="45.7947" lon="4.92393">
        <ele>184</ele>
        <time>2015-09-12T12:45:54.1Z</time>
      </trkpt>
      <trkpt lat="45.79453" lon="4.92347">
        <ele>183</ele>
        <time>2015-09-12T12:45:59.1Z</time>
      </trkpt>
      <trkpt lat="45.79443" lon="4.92299">
        <ele>182</ele>
        <time>2015-09-12T12:46:05.1Z</time>
      </trkpt>
      <trkpt lat="45.79435" lon="4.92258">
        <ele>184</ele>
        <time>2015-09-12T12:46:11.1Z</time>
      </trkpt>
      <trkpt lat="45.79426" lon="4.9222">
        <ele>185</ele>
        <time>2015-09-12T12:46:16.1Z</time>
      </trkpt>
      <trkpt lat="45.79415" lon="4.9217">
        <ele>184</ele>
        <time>2015-09-12T12:46:22.1Z</time>
      </trkpt>
      <trkpt lat="45.79404" lon="4.92123">
        <ele>184</ele>
        <time>2015-09-12T12:46:28.1Z</time>
      </trkpt>
      <trkpt lat="45.79393" lon="4.92073">
        <ele>187</ele>
        <time>2015-09-12T12:46:34.1Z</time>
      </trkpt>
      <trkpt lat="45.79383" lon="4.92031">
        <ele>189</ele>
        <time>2015-09-12T12:46:39.1Z</time>
      </trkpt>
      <trkpt lat="45.79374" lon="4.9199">
        <ele>192</ele>
        <time>2015-09-12T12:46:45.1Z</time>
      </trkpt>
      <trkpt lat="45.79363" lon="4.91938">
        <ele>194</ele>
        <time>2015-09-12T12:46:50.1Z</time>
      </trkpt>
      <trkpt lat="45.79352" lon="4.91887">
        <ele>195</ele>
        <time>2015-09-12T12:46:56.1Z</time>
      </trkpt>
      <trkpt lat="45.79341" lon="4.91837">
        <ele>196</ele>
        <time>2015-09-12T12:47:02.1Z</time>
      </trkpt>
      <trkpt lat="45.7933" lon="4.91793">
        <ele>198</ele>
        <time>2015-09-12T12:47:07.1Z</time>
      </trkpt>
      <trkpt lat="45.79319" lon="4.91743">
        <ele>199</ele>
        <time>2015-09-12T12:47:13.1Z</time>
      </trkpt>
      <trkpt lat="45.7931" lon="4.91702">
        <ele>194</ele>
        <time>2015-09-12T12:47:18.1Z</time>
      </trkpt>
      <trkpt lat="45.79298" lon="4.91652">
        <ele>183</ele>
        <time>2015-09-12T12:47:24.1Z</time>
      </trkpt>
      <trkpt lat="45.7929" lon="4.91612">
        <ele>183</ele>
        <time>2015-09-12T12:47:29.1Z</time>
      </trkpt>
      <trkpt lat="45.79279" lon="4.91566">
        <ele>183</ele>
        <time>2015-09-12T12:47:35.1Z</time>
      </trkpt>
      <trkpt lat="45.79271" lon="4.91529">
        <ele>184</ele>
        <time>2015-09-12T12:47:40.1Z</time>
      </trkpt>
      <trkpt lat="45.79259" lon="4.91482">
        <ele>183</ele>
        <time>2015-09-12T12:47:46.1Z</time>
      </trkpt>
      <trkpt lat="45.79249" lon="4.91445">
        <ele>183</ele>
        <time>2015-09-12T12:47:52.1Z</time>
      </trkpt>
      <trkpt lat="45.79239" lon="4.914">
        <ele>190</ele>
        <time>2015-09-12T12:47:57.1Z</time>
      </trkpt>
      <trkpt lat="45.79228" lon="4.91366">
        <ele>198</ele>
        <time>2015-09-12T12:48:02.1Z</time>
      </trkpt>
      <trkpt lat="45.79219" lon="4.91329">
        <ele>196</ele>
        <time>2015-09-12T12:48:08.1Z</time>
      </trkpt>
      <trkpt lat="45.79207" lon="4.91284">
        <ele>186</ele>
        <time>2015-09-12T12:48:13.1Z</time>
      </trkpt>
      <trkpt lat="45.79197" lon="4.91243">
        <ele>184</ele>
        <time>2015-09-12T12:48:19.1Z</time>
      </trkpt>
      <trkpt lat="45.79188" lon="4.912">
        <ele>177</ele>
        <time>2015-09-12T12:48:25.1Z</time>
      </trkpt>
      <trkpt lat="45.7918" lon="4.91163">
        <ele>182</ele>
        <time>2015-09-12T12:48:31.1Z</time>
      </trkpt>
      <trkpt lat="45.79169" lon="4.91115">
        <ele>197</ele>
        <time>2015-09-12T12:48:36.1Z</time>
      </trkpt>
      <trkpt lat="45.79159" lon="4.91075">
        <ele>192</ele>
        <time>2015-09-12T12:48:41.1Z</time>
      </trkpt>
      <trkpt lat="45.79147" lon="4.91026">
        <ele>184</ele>
        <time>2015-09-12T12:48:47.1Z</time>
      </trkpt>
      <trkpt lat="45.79139" lon="4.90988">
        <ele>183</ele>
        <time>2015-09-12T12:48:53.1Z</time>
      </trkpt>
      <trkpt lat="45.79129" lon="4.90944">
        <ele>184</ele>
        <time>2015-09-12T12:48:58.1Z</time>
      </trkpt>
      <trkpt lat="45.7912" lon="4.90905">
        <ele>184</ele>
        <time>2015-09-12T12:49:04.1Z</time>
      </trkpt>
      <trkpt lat="45.79113" lon="4.90864">
        <ele>185</ele>
        <time>2015-09-12T12:49:10.1Z</time>
      </trkpt>
      <trkpt lat="45.79108" lon="4.90827">
        <ele>185</ele>
        <time>2015-09-12T12:49:16.1Z</time>
      </trkpt>
      <trkpt lat="45.79107" lon="4.90781">
        <ele>185</ele>
        <time>2015-09-12T12:49:21.1Z</time>
      </trkpt>
      <trkpt lat="45.79107" lon="4.90736">
        <ele>185</ele>
        <time>2015-09-12T12:49:27.1Z</time>
      </trkpt>
      <trkpt lat="45.79109" lon="4.90694">
        <ele>185</ele>
        <time>2015-09-12T12:49:33.1Z</time>
      </trkpt>
      <trkpt lat="45.79113" lon="4.90654">
        <ele>185</ele>
        <time>2015-09-12T12:49:39.1Z</time>
      </trkpt>
      <trkpt lat="45.79119" lon="4.90604">
        <ele>186</ele>
        <time>2015-09-12T12:49:44.1Z</time>
      </trkpt>
      <trkpt lat="45.79125" lon="4.90555">
        <ele>185</ele>
        <time>2015-09-12T12:49:50.1Z</time>
      </trkpt>
      <trkpt lat="45.79129" lon="4.90505">
        <ele>185</ele>
        <time>2015-09-12T12:49:56.1Z</time>
      </trkpt>
      <trkpt lat="45.79129" lon="4.90463">
        <ele>185</ele>
        <time>2015-09-12T12:50:02.1Z</time>
      </trkpt>
      <trkpt lat="45.79124" lon="4.90415">
        <ele>185</ele>
        <time>2015-09-12T12:50:07.1Z</time>
      </trkpt>
      <trkpt lat="45.79116" lon="4.90376">
        <ele>185</ele>
        <time>2015-09-12T12:50:12.1Z</time>
      </trkpt>
      <trkpt lat="45.79103" lon="4.90332">
        <ele>185</ele>
        <time>2015-09-12T12:50:18.1Z</time>
      </trkpt>
      <trkpt lat="45.79084" lon="4.9029">
        <ele>185</ele>
        <time>2015-09-12T12:50:24.1Z</time>
      </trkpt>
      <trkpt lat="45.79061" lon="4.90255">
        <ele>186</ele>
        <time>2015-09-12T12:50:30.1Z</time>
      </trkpt>
      <trkpt lat="45.79039" lon="4.90231">
        <ele>186</ele>
        <time>2015-09-12T12:50:35.1Z</time>
      </trkpt>
      <trkpt lat="45.79015" lon="4.90205">
        <ele>187</ele>
        <time>2015-09-12T12:50:41.1Z</time>
      </trkpt>
      <trkpt lat="45.78989" lon="4.9017">
        <ele>185</ele>
        <time>2015-09-12T12:50:47.1Z</time>
      </trkpt>
      <trkpt lat="45.78967" lon="4.90124">
        <ele>185</ele>
        <time>2015-09-12T12:50:53.1Z</time>
      </trkpt>
      <trkpt lat="45.78949" lon="4.90086">
        <ele>185</ele>
        <time>2015-09-12T12:50:58.1Z</time>
      </trkpt>
      <trkpt lat="45.78932" lon="4.90039">
        <ele>185</ele>
        <time>2015-09-12T12:51:04.1Z</time>
      </trkpt>
      <trkpt lat="45.78922" lon="4.90001">
        <ele>185</ele>
        <time>2015-09-12T12:51:10.1Z</time>
      </trkpt>
      <trkpt lat="45.78912" lon="4.89952">
        <ele>185</ele>
        <time>2015-09-12T12:51:15.1Z</time>
      </trkpt>
      <trkpt lat="45.78904" lon="4.8991">
        <ele>183</ele>
        <time>2015-09-12T12:51:20.1Z</time>
      </trkpt>
      <trkpt lat="45.78893" lon="4.8986">
        <ele>181</ele>
        <time>2015-09-12T12:51:26.1Z</time>
      </trkpt>
      <trkpt lat="45.78883" lon="4.89819">
        <ele>181</ele>
        <time>2015-09-12T12:51:31.1Z</time>
      </trkpt>
      <trkpt lat="45.78873" lon="4.89769">
        <ele>181</ele>
        <time>2015-09-12T12:51:37.1Z</time>
      </trkpt>
      <trkpt lat="45.78871" lon="4.89726">
        <ele>181</ele>
        <time>2015-09-12T12:51:42.1Z</time>
      </trkpt>
      <trkpt lat="45.78876" lon="4.89676">
        <ele>182</ele>
        <time>2015-09-12T12:51:48.1Z</time>
      </trkpt>
      <trkpt lat="45.78884" lon="4.89634">
        <ele>182</ele>
        <time>2015-09-12T12:51:54.1Z</time>
      </trkpt>
      <trkpt lat="45.78899" lon="4.89591">
        <ele>182</ele>
        <time>2015-09-12T12:51:59.1Z</time>
      </trkpt>
      <trkpt lat="45.78882" lon="4.89555">
        <ele>181</ele>
        <time>2015-09-12T12:52:05.1Z</time>
      </trkpt>
      <trkpt lat="45.78859" lon="4.89517">
        <ele>181</ele>
        <time>2015-09-12T12:52:11.1Z</time>
      </trkpt>
      <trkpt lat="45.7884" lon="4.89483">
        <ele>181</ele>
        <time>2015-09-12T12:52:17.1Z</time>
      </trkpt>
      <trkpt lat="45.7882" lon="4.8944">
        <ele>181</ele>
        <time>2015-09-12T12:52:22.1Z</time>
      </trkpt>
      <trkpt lat="45.78802" lon="4.89395">
        <ele>181</ele>
        <time>2015-09-12T12:52:28.1Z</time>
      </trkpt>
      <trkpt lat="45.78787" lon="4.89348">
        <ele>181</ele>
        <time>2015-09-12T12:52:34.1Z</time>
      </trkpt>
      <trkpt lat="45.78774" lon="4.89301">
        <ele>181</ele>
        <time>2015-09-12T12:52:40.1Z</time>
      </trkpt>
      <trkpt lat="45.78766" lon="4.89252">
        <ele>181</ele>
        <time>2015-09-12T12:52:46.1Z</time>
      </trkpt>
      <trkpt lat="45.78761" lon="4.89213">
        <ele>181</ele>
        <time>2015-09-12T12:52:51.1Z</time>
      </trkpt>
      <trkpt lat="45.78741" lon="4.89203">
        <ele>181</ele>
        <time>2015-09-12T12:52:57.1Z</time>
      </trkpt>
      <trkpt lat="45.78719" lon="4.89225">
        <ele>181</ele>
        <time>2015-09-12T12:53:03.1Z</time>
      </trkpt>
      <trkpt lat="45.78693" lon="4.89247">
        <ele>182</ele>
        <time>2015-09-12T12:53:09.1Z</time>
      </trkpt>
      <trkpt lat="45.78665" lon="4.89267">
        <ele>182</ele>
        <time>2015-09-12T12:53:15.1Z</time>
      </trkpt>
      <trkpt lat="45.78641" lon="4.89286">
        <ele>183</ele>
        <time>2015-09-12T12:53:21.1Z</time>
      </trkpt>
      <trkpt lat="45.78618" lon="4.89307">
        <ele>183</ele>
        <time>2015-09-12T12:53:27.1Z</time>
      </trkpt>
      <trkpt lat="45.78585" lon="4.89328">
        <ele>182</ele>
        <time>2015-09-12T12:53:33.1Z</time>
      </trkpt>
      <trkpt lat="45.7855" lon="4.89347">
        <ele>182</ele>
        <time>2015-09-12T12:53:39.1Z</time>
      </trkpt>
      <trkpt lat="45.78514" lon="4.89368">
        <ele>181</ele>
        <time>2015-09-12T12:53:45.1Z</time>
      </trkpt>
      <trkpt lat="45.78477" lon="4.89386">
        <ele>181</ele>
        <time>2015-09-12T12:53:51.1Z</time>
      </trkpt>
      <trkpt lat="45.78442" lon="4.89404">
        <ele>180</ele>
        <time>2015-09-12T12:53:57.1Z</time>
      </trkpt>
      <trkpt lat="45.78418" lon="4.89428">
        <ele>181</ele>
        <time>2015-09-12T12:54:03.1Z</time>
      </trkpt>
      <trkpt lat="45.78424" lon="4.89467">
        <ele>182</ele>
        <time>2015-09-12T12:54:09.1Z</time>
      </trkpt>
      <trkpt lat="45.78433" lon="4.89494">
        <ele>181</ele>
        <time>2015-09-12T12:54:14.1Z</time>
      </trkpt>
      <trkpt lat="45.78431" lon="4.89513">
        <ele>181</ele>
        <time>2015-09-12T12:54:19.1Z</time>
      </trkpt>
      <trkpt lat="45.78439" lon="4.89535">
        <ele>182</ele>
        <time>2015-09-12T12:54:25.1Z</time>
      </trkpt>
      <trkpt lat="45.78431" lon="4.89535">
        <ele>183</ele>
        <time>2015-09-12T12:54:30.1Z</time>
      </trkpt>
      <trkpt lat="45.7842" lon="4.89507">
        <ele>184</ele>
        <time>2015-09-12T12:54:36.1Z</time>
      </trkpt>
      <trkpt lat="45.7841" lon="4.89485">
        <ele>185</ele>
        <time>2015-09-12T12:54:41.1Z</time>
      </trkpt>
      <trkpt lat="45.78401" lon="4.89458">
        <ele>183</ele>
        <time>2015-09-12T12:54:47.1Z</time>
      </trkpt>
      <trkpt lat="45.78395" lon="4.89431">
        <ele>181</ele>
        <time>2015-09-12T12:54:53.1Z</time>
      </trkpt>
      <trkpt lat="45.78389" lon="4.89406">
        <ele>184</ele>
        <time>2015-09-12T12:54:58.1Z</time>
      </trkpt>
      <trkpt lat="45.78381" lon="4.89374">
        <ele>185</ele>
        <time>2015-09-12T12:55:04.1Z</time>
      </trkpt>
      <trkpt lat="45.78373" lon="4.89338">
        <ele>191</ele>
        <time>2015-09-12T12:55:10.1Z</time>
      </trkpt>
      <trkpt lat="45.78365" lon="4.89305">
        <ele>207</ele>
        <time>2015-09-12T12:55:15.1Z</time>
      </trkpt>
      <trkpt lat="45.78357" lon="4.89265">
        <ele>222</ele>
        <time>2015-09-12T12:55:21.1Z</time>
      </trkpt>
      <trkpt lat="45.78359" lon="4.89227">
        <ele>241</ele>
        <time>2015-09-12T12:55:26.1Z</time>
      </trkpt>
      <trkpt lat="45.78378" lon="4.892">
        <ele>252</ele>
        <time>2015-09-12T12:55:31.1Z</time>
      </trkpt>
      <trkpt lat="45.78403" lon="4.89175">
        <ele>255</ele>
        <time>2015-09-12T12:55:37.1Z</time>
      </trkpt>
      <trkpt lat="45.78425" lon="4.89164">
        <ele>254</ele>
        <time>2015-09-12T12:55:42.1Z</time>
      </trkpt>
      <trkpt lat="45.78411" lon="4.8919">
        <ele>254</ele>
        <time>2015-09-12T12:55:48.1Z</time>
      </trkpt>
      <trkpt lat="45.78407" lon="4.89218">
        <ele>256</ele>
        <time>2015-09-12T12:55:54.1Z</time>
      </trkpt>
      <trkpt lat="45.78427" lon="4.89217">
        <ele>258</ele>
        <time>2015-09-12T12:56:00.1Z</time>
      </trkpt>
      <trkpt lat="45.78444" lon="4.89215">
        <ele>258</ele>
        <time>2015-09-12T12:56:06.1Z</time>
      </trkpt>
      <trkpt lat="45.78445" lon="4.89243">
        <ele>259</ele>
        <time>2015-09-12T12:56:11.1Z</time>
      </trkpt>
      <trkpt lat="45.78467" lon="4.89237">
        <ele>261</ele>
        <time>2015-09-12T12:56:17.1Z</time>
      </trkpt>
      <trkpt lat="45.78497" lon="4.89221">
        <ele>263</ele>
        <time>2015-09-12T12:56:23.1Z</time>
      </trkpt>
      <trkpt lat="45.78524" lon="4.89209">
        <ele>264</ele>
        <time>2015-09-12T12:56:28.1Z</time>
      </trkpt>
      <trkpt lat="45.78552" lon="4.89195">
        <ele>264</ele>
        <time>2015-09-12T12:56:33.1Z</time>
      </trkpt>
      <trkpt lat="45.78587" lon="4.89178">
        <ele>265</ele>
        <time>2015-09-12T12:56:39.1Z</time>
      </trkpt>
      <trkpt lat="45.78622" lon="4.89156">
        <ele>267</ele>
        <time>2015-09-12T12:56:45.1Z</time>
      </trkpt>
      <trkpt lat="45.78654" lon="4.89125">
        <ele>268</ele>
        <time>2015-09-12T12:56:51.1Z</time>
      </trkpt>
      <trkpt lat="45.78682" lon="4.89094">
        <ele>269</ele>
        <time>2015-09-12T12:56:57.1Z</time>
      </trkpt>
      <trkpt lat="45.78714" lon="4.89072">
        <ele>269</ele>
        <time>2015-09-12T12:57:03.1Z</time>
      </trkpt>
      <trkpt lat="45.78744" lon="4.89037">
        <ele>270</ele>
        <time>2015-09-12T12:57:09.1Z</time>
      </trkpt>
      <trkpt lat="45.7877" lon="4.88998">
        <ele>271</ele>
        <time>2015-09-12T12:57:15.1Z</time>
      </trkpt>
      <trkpt lat="45.78793" lon="4.88965">
        <ele>273</ele>
        <time>2015-09-12T12:57:21.1Z</time>
      </trkpt>
      <trkpt lat="45.78814" lon="4.88927">
        <ele>272</ele>
        <time>2015-09-12T12:57:27.1Z</time>
      </trkpt>
      <trkpt lat="45.78835" lon="4.88889">
        <ele>273</ele>
        <time>2015-09-12T12:57:33.1Z</time>
      </trkpt>
      <trkpt lat="45.78856" lon="4.88847">
        <ele>275</ele>
        <time>2015-09-12T12:57:39.1Z</time>
      </trkpt>
      <trkpt lat="45.78874" lon="4.88809">
        <ele>275</ele>
        <time>2015-09-12T12:57:45.1Z</time>
      </trkpt>
      <trkpt lat="45.78897" lon="4.88772">
        <ele>276</ele>
        <time>2015-09-12T12:57:51.1Z</time>
      </trkpt>
      <trkpt lat="45.78923" lon="4.88738">
        <ele>277</ele>
        <time>2015-09-12T12:57:57.1Z</time>
      </trkpt>
      <trkpt lat="45.78944" lon="4.8871">
        <ele>277</ele>
        <time>2015-09-12T12:58:02.1Z</time>
      </trkpt>
      <trkpt lat="45.78972" lon="4.88679">
        <ele>279</ele>
        <time>2015-09-12T12:58:08.1Z</time>
      </trkpt>
      <trkpt lat="45.78997" lon="4.88655">
        <ele>280</ele>
        <time>2015-09-12T12:58:13.1Z</time>
      </trkpt>
      <trkpt lat="45.79027" lon="4.88628">
        <ele>280</ele>
        <time>2015-09-12T12:58:19.1Z</time>
      </trkpt>
      <trkpt lat="45.79057" lon="4.886">
        <ele>281</ele>
        <time>2015-09-12T12:58:25.1Z</time>
      </trkpt>
      <trkpt lat="45.79087" lon="4.88571">
        <ele>282</ele>
        <time>2015-09-12T12:58:31.1Z</time>
      </trkpt>
      <trkpt lat="45.79115" lon="4.88545">
        <ele>283</ele>
        <time>2015-09-12T12:58:37.1Z</time>
      </trkpt>
      <trkpt lat="45.7914" lon="4.88524">
        <ele>284</ele>
        <time>2015-09-12T12:58:42.1Z</time>
      </trkpt>
      <trkpt lat="45.79171" lon="4.88493">
        <ele>284</ele>
        <time>2015-09-12T12:58:48.1Z</time>
      </trkpt>
      <trkpt lat="45.79198" lon="4.88458">
        <ele>284</ele>
        <time>2015-09-12T12:58:54.1Z</time>
      </trkpt>
      <trkpt lat="45.79219" lon="4.88425">
        <ele>285</ele>
        <time>2015-09-12T12:58:59.1Z</time>
      </trkpt>
      <trkpt lat="45.79242" lon="4.88392">
        <ele>286</ele>
        <time>2015-09-12T12:59:04.1Z</time>
      </trkpt>
      <trkpt lat="45.79272" lon="4.8835">
        <ele>287</ele>
        <time>2015-09-12T12:59:10.1Z</time>
      </trkpt>
      <trkpt lat="45.79294" lon="4.88316">
        <ele>287</ele>
        <time>2015-09-12T12:59:15.1Z</time>
      </trkpt>
      <trkpt lat="45.79304" lon="4.88266">
        <ele>287</ele>
        <time>2015-09-12T12:59:21.1Z</time>
      </trkpt>
      <trkpt lat="45.79308" lon="4.88223">
        <ele>288</ele>
        <time>2015-09-12T12:59:26.1Z</time>
      </trkpt>
      <trkpt lat="45.79305" lon="4.88178">
        <ele>289</ele>
        <time>2015-09-12T12:59:31.1Z</time>
      </trkpt>
      <trkpt lat="45.79294" lon="4.8813">
        <ele>290</ele>
        <time>2015-09-12T12:59:37.1Z</time>
      </trkpt>
      <trkpt lat="45.79282" lon="4.881">
        <ele>291</ele>
        <time>2015-09-12T12:59:42.1Z</time>
      </trkpt>
      <trkpt lat="45.79276" lon="4.88093">
        <ele>289</ele>
        <time>2015-09-12T12:59:48.1Z</time>
      </trkpt>
      <trkpt lat="45.79274" lon="4.88094">
        <ele>292</ele>
        <time>2015-09-12T12:59:54.1Z</time>
      </trkpt>
      <trkpt lat="45.79273" lon="4.88095">
        <ele>291</ele>
        <time>2015-09-12T12:59:59.1Z</time>
      </trkpt>
      <trkpt lat="45.79271" lon="4.88096">
        <ele>291</ele>
        <time>2015-09-12T13:00:04.1Z</time>
      </trkpt>
      <trkpt lat="45.7927" lon="4.88098">
        <ele>290</ele>
        <time>2015-09-12T13:00:10.1Z</time>
      </trkpt>
      <trkpt lat="45.79268" lon="4.88098">
        <ele>290</ele>
        <time>2015-09-12T13:00:15.1Z</time>
      </trkpt>
      <trkpt lat="45.79267" lon="4.88097">
        <ele>284</ele>
        <time>2015-09-12T13:00:20.1Z</time>
      </trkpt>
      <trkpt lat="45.79256" lon="4.88088">
        <ele>285</ele>
        <time>2015-09-12T13:00:26.1Z</time>
      </trkpt>
      <trkpt lat="45.79235" lon="4.88072">
        <ele>288</ele>
        <time>2015-09-12T13:00:31.1Z</time>
      </trkpt>
      <trkpt lat="45.79211" lon="4.88053">
        <ele>289</ele>
        <time>2015-09-12T13:00:36.1Z</time>
      </trkpt>
      <trkpt lat="45.79182" lon="4.88029">
        <ele>289</ele>
        <time>2015-09-12T13:00:42.1Z</time>
      </trkpt>
      <trkpt lat="45.79158" lon="4.88005">
        <ele>291</ele>
        <time>2015-09-12T13:00:47.1Z</time>
      </trkpt>
      <trkpt lat="45.79135" lon="4.87982">
        <ele>291</ele>
        <time>2015-09-12T13:00:52.1Z</time>
      </trkpt>
      <trkpt lat="45.79111" lon="4.87959">
        <ele>291</ele>
        <time>2015-09-12T13:00:57.1Z</time>
      </trkpt>
      <trkpt lat="45.79081" lon="4.87932">
        <ele>291</ele>
        <time>2015-09-12T13:01:03.1Z</time>
      </trkpt>
      <trkpt lat="45.79057" lon="4.8791">
        <ele>292</ele>
        <time>2015-09-12T13:01:08.1Z</time>
      </trkpt>
      <trkpt lat="45.79033" lon="4.87886">
        <ele>292</ele>
        <time>2015-09-12T13:01:13.1Z</time>
      </trkpt>
      <trkpt lat="45.79008" lon="4.87863">
        <ele>293</ele>
        <time>2015-09-12T13:01:18.1Z</time>
      </trkpt>
      <trkpt lat="45.78984" lon="4.87841">
        <ele>294</ele>
        <time>2015-09-12T13:01:23.1Z</time>
      </trkpt>
      <trkpt lat="45.78954" lon="4.87814">
        <ele>294</ele>
        <time>2015-09-12T13:01:29.1Z</time>
      </trkpt>
      <trkpt lat="45.78931" lon="4.87792">
        <ele>294</ele>
        <time>2015-09-12T13:01:34.1Z</time>
      </trkpt>
      <trkpt lat="45.78902" lon="4.87766">
        <ele>295</ele>
        <time>2015-09-12T13:01:40.1Z</time>
      </trkpt>
      <trkpt lat="45.78878" lon="4.87745">
        <ele>295</ele>
        <time>2015-09-12T13:01:45.1Z</time>
      </trkpt>
      <trkpt lat="45.78855" lon="4.87724">
        <ele>296</ele>
        <time>2015-09-12T13:01:50.1Z</time>
      </trkpt>
      <trkpt lat="45.78828" lon="4.87701">
        <ele>298</ele>
        <time>2015-09-12T13:01:56.1Z</time>
      </trkpt>
      <trkpt lat="45.78802" lon="4.87678">
        <ele>298</ele>
        <time>2015-09-12T13:02:02.1Z</time>
      </trkpt>
      <trkpt lat="45.7879" lon="4.87652">
        <ele>300</ele>
        <time>2015-09-12T13:02:07.1Z</time>
      </trkpt>
      <trkpt lat="45.78785" lon="4.87619">
        <ele>299</ele>
        <time>2015-09-12T13:02:13.1Z</time>
      </trkpt>
      <trkpt lat="45.78781" lon="4.87582">
        <ele>300</ele>
        <time>2015-09-12T13:02:19.1Z</time>
      </trkpt>
      <trkpt lat="45.78776" lon="4.87541">
        <ele>301</ele>
        <time>2015-09-12T13:02:25.1Z</time>
      </trkpt>
      <trkpt lat="45.78769" lon="4.87497">
        <ele>302</ele>
        <time>2015-09-12T13:02:31.1Z</time>
      </trkpt>
      <trkpt lat="45.78763" lon="4.87454">
        <ele>303</ele>
        <time>2015-09-12T13:02:37.1Z</time>
      </trkpt>
      <trkpt lat="45.78757" lon="4.87409">
        <ele>303</ele>
        <time>2015-09-12T13:02:43.1Z</time>
      </trkpt>
      <trkpt lat="45.78751" lon="4.87361">
        <ele>303</ele>
        <time>2015-09-12T13:02:49.1Z</time>
      </trkpt>
      <trkpt lat="45.78748" lon="4.87316">
        <ele>304</ele>
        <time>2015-09-12T13:02:55.1Z</time>
      </trkpt>
      <trkpt lat="45.78743" lon="4.87278">
        <ele>305</ele>
        <time>2015-09-12T13:03:00.1Z</time>
      </trkpt>
      <trkpt lat="45.7874" lon="4.87233">
        <ele>305</ele>
        <time>2015-09-12T13:03:06.1Z</time>
      </trkpt>
      <trkpt lat="45.78737" lon="4.87189">
        <ele>305</ele>
        <time>2015-09-12T13:03:12.1Z</time>
      </trkpt>
      <trkpt lat="45.78735" lon="4.87142">
        <ele>306</ele>
        <time>2015-09-12T13:03:18.1Z</time>
      </trkpt>
      <trkpt lat="45.78734" lon="4.87104">
        <ele>305</ele>
        <time>2015-09-12T13:03:23.1Z</time>
      </trkpt>
      <trkpt lat="45.78732" lon="4.87054">
        <ele>305</ele>
        <time>2015-09-12T13:03:29.1Z</time>
      </trkpt>
      <trkpt lat="45.78725" lon="4.87003">
        <ele>306</ele>
        <time>2015-09-12T13:03:35.1Z</time>
      </trkpt>
      <trkpt lat="45.78711" lon="4.86961">
        <ele>306</ele>
        <time>2015-09-12T13:03:41.1Z</time>
      </trkpt>
      <trkpt lat="45.78698" lon="4.86927">
        <ele>307</ele>
        <time>2015-09-12T13:03:46.1Z</time>
      </trkpt>
      <trkpt lat="45.78683" lon="4.86887">
        <ele>307</ele>
        <time>2015-09-12T13:03:52.1Z</time>
      </trkpt>
      <trkpt lat="45.78669" lon="4.86842">
        <ele>307</ele>
        <time>2015-09-12T13:03:58.1Z</time>
      </trkpt>
      <trkpt lat="45.78656" lon="4.86797">
        <ele>307</ele>
        <time>2015-09-12T13:04:04.1Z</time>
      </trkpt>
      <trkpt lat="45.78641" lon="4.86748">
        <ele>307</ele>
        <time>2015-09-12T13:04:10.1Z</time>
      </trkpt>
      <trkpt lat="45.78628" lon="4.86703">
        <ele>308</ele>
        <time>2015-09-12T13:04:16.1Z</time>
      </trkpt>
      <trkpt lat="45.78621" lon="4.86664">
        <ele>308</ele>
        <time>2015-09-12T13:04:22.1Z</time>
      </trkpt>
      <trkpt lat="45.78612" lon="4.86624">
        <ele>307</ele>
        <time>2015-09-12T13:04:28.1Z</time>
      </trkpt>
      <trkpt lat="45.78601" lon="4.86575">
        <ele>308</ele>
        <time>2015-09-12T13:04:34.1Z</time>
      </trkpt>
      <trkpt lat="45.78591" lon="4.86525">
        <ele>309</ele>
        <time>2015-09-12T13:04:40.1Z</time>
      </trkpt>
      <trkpt lat="45.78585" lon="4.86471">
        <ele>309</ele>
        <time>2015-09-12T13:04:46.1Z</time>
      </trkpt>
      <trkpt lat="45.78579" lon="4.86428">
        <ele>309</ele>
        <time>2015-09-12T13:04:51.1Z</time>
      </trkpt>
      <trkpt lat="45.78572" lon="4.86378">
        <ele>309</ele>
        <time>2015-09-12T13:04:57.1Z</time>
      </trkpt>
      <trkpt lat="45.78576" lon="4.86331">
        <ele>308</ele>
        <time>2015-09-12T13:05:03.1Z</time>
      </trkpt>
      <trkpt lat="45.78588" lon="4.86288">
        <ele>307</ele>
        <time>2015-09-12T13:05:09.1Z</time>
      </trkpt>
      <trkpt lat="45.78596" lon="4.86248">
        <ele>306</ele>
        <time>2015-09-12T13:05:14.1Z</time>
      </trkpt>
      <trkpt lat="45.78597" lon="4.86216">
        <ele>303</ele>
        <time>2015-09-12T13:05:20.1Z</time>
      </trkpt>
      <trkpt lat="45.78592" lon="4.86232">
        <ele>304</ele>
        <time>2015-09-12T13:05:26.1Z</time>
      </trkpt>
      <trkpt lat="45.78584" lon="4.86261">
        <ele>305</ele>
        <time>2015-09-12T13:05:32.1Z</time>
      </trkpt>
      <trkpt lat="45.78575" lon="4.86289">
        <ele>307</ele>
        <time>2015-09-12T13:05:37.1Z</time>
      </trkpt>
      <trkpt lat="45.78567" lon="4.86301">
        <ele>307</ele>
        <time>2015-09-12T13:05:43.1Z</time>
      </trkpt>
      <trkpt lat="45.78573" lon="4.86276">
        <ele>309</ele>
        <time>2015-09-12T13:05:49.1Z</time>
      </trkpt>
      <trkpt lat="45.7858" lon="4.86243">
        <ele>308</ele>
        <time>2015-09-12T13:05:55.1Z</time>
      </trkpt>
      <trkpt lat="45.78587" lon="4.86211">
        <ele>307</ele>
        <time>2015-09-12T13:06:00.1Z</time>
      </trkpt>
      <trkpt lat="45.78594" lon="4.86168">
        <ele>307</ele>
        <time>2015-09-12T13:06:06.1Z</time>
      </trkpt>
      <trkpt lat="45.78599" lon="4.86129">
        <ele>307</ele>
        <time>2015-09-12T13:06:11.1Z</time>
      </trkpt>
      <trkpt lat="45.78604" lon="4.86081">
        <ele>308</ele>
        <time>2015-09-12T13:06:17.1Z</time>
      </trkpt>
      <trkpt lat="45.78605" lon="4.86035">
        <ele>305</ele>
        <time>2015-09-12T13:06:23.1Z</time>
      </trkpt>
      <trkpt lat="45.78603" lon="4.8599">
        <ele>303</ele>
        <time>2015-09-12T13:06:29.1Z</time>
      </trkpt>
      <trkpt lat="45.78605" lon="4.85945">
        <ele>306</ele>
        <time>2015-09-12T13:06:35.1Z</time>
      </trkpt>
      <trkpt lat="45.78608" lon="4.85914">
        <ele>305</ele>
        <time>2015-09-12T13:06:41.1Z</time>
      </trkpt>
      <trkpt lat="45.78608" lon="4.85901">
        <ele>304</ele>
        <time>2015-09-12T13:06:46.1Z</time>
      </trkpt>
      <trkpt lat="45.78609" lon="4.859">
        <ele>304</ele>
        <time>2015-09-12T13:06:52.1Z</time>
      </trkpt>
      <trkpt lat="45.78611" lon="4.85902">
        <ele>303</ele>
        <time>2015-09-12T13:06:58.1Z</time>
      </trkpt>
      <trkpt lat="45.7861" lon="4.85903">
        <ele>304</ele>
        <time>2015-09-12T13:07:04.1Z</time>
      </trkpt>
      <trkpt lat="45.7861" lon="4.85903">
        <ele>301</ele>
        <time>2015-09-12T13:07:09.1Z</time>
      </trkpt>
      <trkpt lat="45.786" lon="4.859">
        <ele>302</ele>
        <time>2015-09-12T13:07:14.1Z</time>
      </trkpt>
      <trkpt lat="45.7858" lon="4.85896">
        <ele>304</ele>
        <time>2015-09-12T13:07:19.1Z</time>
      </trkpt>
      <trkpt lat="45.7856" lon="4.85894">
        <ele>303</ele>
        <time>2015-09-12T13:07:25.1Z</time>
      </trkpt>
      <trkpt lat="45.78533" lon="4.85896">
        <ele>302</ele>
        <time>2015-09-12T13:07:31.1Z</time>
      </trkpt>
      <trkpt lat="45.78506" lon="4.85905">
        <ele>303</ele>
        <time>2015-09-12T13:07:37.1Z</time>
      </trkpt>
      <trkpt lat="45.78479" lon="4.85911">
        <ele>304</ele>
        <time>2015-09-12T13:07:43.1Z</time>
      </trkpt>
      <trkpt lat="45.78455" lon="4.85907">
        <ele>304</ele>
        <time>2015-09-12T13:07:49.1Z</time>
      </trkpt>
      <trkpt lat="45.78425" lon="4.85898">
        <ele>303</ele>
        <time>2015-09-12T13:07:55.1Z</time>
      </trkpt>
      <trkpt lat="45.7839" lon="4.85887">
        <ele>304</ele>
        <time>2015-09-12T13:08:00.1Z</time>
      </trkpt>
      <trkpt lat="45.78347" lon="4.85861">
        <ele>304</ele>
        <time>2015-09-12T13:08:06.1Z</time>
      </trkpt>
      <trkpt lat="45.78308" lon="4.85829">
        <ele>305</ele>
        <time>2015-09-12T13:08:12.1Z</time>
      </trkpt>
      <trkpt lat="45.78278" lon="4.85817">
        <ele>306</ele>
        <time>2015-09-12T13:08:17.1Z</time>
      </trkpt>
      <trkpt lat="45.78246" lon="4.85834">
        <ele>306</ele>
        <time>2015-09-12T13:08:23.1Z</time>
      </trkpt>
      <trkpt lat="45.78218" lon="4.85838">
        <ele>307</ele>
        <time>2015-09-12T13:08:28.1Z</time>
      </trkpt>
      <trkpt lat="45.78182" lon="4.85848">
        <ele>307</ele>
        <time>2015-09-12T13:08:34.1Z</time>
      </trkpt>
      <trkpt lat="45.78141" lon="4.85857">
        <ele>307</ele>
        <time>2015-09-12T13:08:40.1Z</time>
      </trkpt>
      <trkpt lat="45.78098" lon="4.85865">
        <ele>307</ele>
        <time>2015-09-12T13:08:46.1Z</time>
      </trkpt>
      <trkpt lat="45.78062" lon="4.85868">
        <ele>308</ele>
        <time>2015-09-12T13:08:51.1Z</time>
      </trkpt>
      <trkpt lat="45.78022" lon="4.85871">
        <ele>308</ele>
        <time>2015-09-12T13:08:57.1Z</time>
      </trkpt>
      <trkpt lat="45.77989" lon="4.85871">
        <ele>308</ele>
        <time>2015-09-12T13:09:02.1Z</time>
      </trkpt>
      <trkpt lat="45.77952" lon="4.85869">
        <ele>273</ele>
        <time>2015-09-12T13:09:08.1Z</time>
      </trkpt>
      <trkpt lat="45.77922" lon="4.85867">
        <ele>299</ele>
        <time>2015-09-12T13:09:13.1Z</time>
      </trkpt>
      <trkpt lat="45.77893" lon="4.85862">
        <ele>309</ele>
        <time>2015-09-12T13:09:18.1Z</time>
      </trkpt>
      <trkpt lat="45.77863" lon="4.85855">
        <ele>310</ele>
        <time>2015-09-12T13:09:23.1Z</time>
      </trkpt>
      <trkpt lat="45.7783" lon="4.85845">
        <ele>309</ele>
        <time>2015-09-12T13:09:28.1Z</time>
      </trkpt>
      <trkpt lat="45.77795" lon="4.85837">
        <ele>309</ele>
        <time>2015-09-12T13:09:33.1Z</time>
      </trkpt>
      <trkpt lat="45.77754" lon="4.85826">
        <ele>309</ele>
        <time>2015-09-12T13:09:39.1Z</time>
      </trkpt>
      <trkpt lat="45.7772" lon="4.85819">
        <ele>310</ele>
        <time>2015-09-12T13:09:44.1Z</time>
      </trkpt>
      <trkpt lat="45.77681" lon="4.85819">
        <ele>310</ele>
        <time>2015-09-12T13:09:50.1Z</time>
      </trkpt>
      <trkpt lat="45.77651" lon="4.85823">
        <ele>312</ele>
        <time>2015-09-12T13:09:55.1Z</time>
      </trkpt>
      <trkpt lat="45.77621" lon="4.85828">
        <ele>312</ele>
        <time>2015-09-12T13:10:00.1Z</time>
      </trkpt>
      <trkpt lat="45.77591" lon="4.8583">
        <ele>312</ele>
        <time>2015-09-12T13:10:05.1Z</time>
      </trkpt>
      <trkpt lat="45.77553" lon="4.85825">
        <ele>312</ele>
        <time>2015-09-12T13:10:11.1Z</time>
      </trkpt>
      <trkpt lat="45.77522" lon="4.8582">
        <ele>312</ele>
        <time>2015-09-12T13:10:16.1Z</time>
      </trkpt>
      <trkpt lat="45.77492" lon="4.85808">
        <ele>313</ele>
        <time>2015-09-12T13:10:21.1Z</time>
      </trkpt>
      <trkpt lat="45.77462" lon="4.85793">
        <ele>313</ele>
        <time>2015-09-12T13:10:26.1Z</time>
      </trkpt>
      <trkpt lat="45.77434" lon="4.85774">
        <ele>313</ele>
        <time>2015-09-12T13:10:31.1Z</time>
      </trkpt>
      <trkpt lat="45.77415" lon="4.8574">
        <ele>313</ele>
        <time>2015-09-12T13:10:36.1Z</time>
      </trkpt>
      <trkpt lat="45.77404" lon="4.85699">
        <ele>313</ele>
        <time>2015-09-12T13:10:41.1Z</time>
      </trkpt>
      <trkpt lat="45.77397" lon="4.8566">
        <ele>313</ele>
        <time>2015-09-12T13:10:46.1Z</time>
      </trkpt>
      <trkpt lat="45.77371" lon="4.8564">
        <ele>314</ele>
        <time>2015-09-12T13:10:52.1Z</time>
      </trkpt>
      <trkpt lat="45.7734" lon="4.85642">
        <ele>313</ele>
        <time>2015-09-12T13:10:58.1Z</time>
      </trkpt>
      <trkpt lat="45.77311" lon="4.85646">
        <ele>314</ele>
        <time>2015-09-12T13:11:04.1Z</time>
      </trkpt>
      <trkpt lat="45.77297" lon="4.85644">
        <ele>312</ele>
        <time>2015-09-12T13:11:10.1Z</time>
      </trkpt>
      <trkpt lat="45.77288" lon="4.85641">
        <ele>312</ele>
        <time>2015-09-12T13:11:16.1Z</time>
      </trkpt>
      <trkpt lat="45.7728" lon="4.85649">
        <ele>313</ele>
        <time>2015-09-12T13:11:21.1Z</time>
      </trkpt>
      <trkpt lat="45.77277" lon="4.85653">
        <ele>313</ele>
        <time>2015-09-12T13:11:27.1Z</time>
      </trkpt>
      <trkpt lat="45.77275" lon="4.85655">
        <ele>311</ele>
        <time>2015-09-12T13:11:32.1Z</time>
      </trkpt>
      <trkpt lat="45.77274" lon="4.85658">
        <ele>311</ele>
        <time>2015-09-12T13:11:37.1Z</time>
      </trkpt>
      <trkpt lat="45.77272" lon="4.8566">
        <ele>312</ele>
        <time>2015-09-12T13:11:43.1Z</time>
      </trkpt>
      <trkpt lat="45.77272" lon="4.85662">
        <ele>311</ele>
        <time>2015-09-12T13:11:49.1Z</time>
      </trkpt>
      <trkpt lat="45.77261" lon="4.85662">
        <ele>309</ele>
        <time>2015-09-12T13:11:55.1Z</time>
      </trkpt>
      <trkpt lat="45.77244" lon="4.85666">
        <ele>310</ele>
        <time>2015-09-12T13:12:00.1Z</time>
      </trkpt>
      <trkpt lat="45.77227" lon="4.85652">
        <ele>311</ele>
        <time>2015-09-12T13:12:05.1Z</time>
      </trkpt>
      <trkpt lat="45.77204" lon="4.85646">
        <ele>311</ele>
        <time>2015-09-12T13:12:11.1Z</time>
      </trkpt>
      <trkpt lat="45.77178" lon="4.8566">
        <ele>311</ele>
        <time>2015-09-12T13:12:17.1Z</time>
      </trkpt>
      <trkpt lat="45.77154" lon="4.85673">
        <ele>311</ele>
        <time>2015-09-12T13:12:22.1Z</time>
      </trkpt>
      <trkpt lat="45.7713" lon="4.85672">
        <ele>311</ele>
        <time>2015-09-12T13:12:27.1Z</time>
      </trkpt>
      <trkpt lat="45.77106" lon="4.85674">
        <ele>311</ele>
        <time>2015-09-12T13:12:33.1Z</time>
      </trkpt>
      <trkpt lat="45.77093" lon="4.85697">
        <ele>311</ele>
        <time>2015-09-12T13:12:39.1Z</time>
      </trkpt>
      <trkpt lat="45.77072" lon="4.85713">
        <ele>310</ele>
        <time>2015-09-12T13:12:45.1Z</time>
      </trkpt>
      <trkpt lat="45.7705" lon="4.85728">
        <ele>312</ele>
        <time>2015-09-12T13:12:51.1Z</time>
      </trkpt>
      <trkpt lat="45.77032" lon="4.85732">
        <ele>310</ele>
        <time>2015-09-12T13:12:56.1Z</time>
      </trkpt>
      <trkpt lat="45.77022" lon="4.85731">
        <ele>308</ele>
        <time>2015-09-12T13:13:02.1Z</time>
      </trkpt>
      <trkpt lat="45.77016" lon="4.85721">
        <ele>311</ele>
        <time>2015-09-12T13:13:08.1Z</time>
      </trkpt>
      <trkpt lat="45.77008" lon="4.85705">
        <ele>310</ele>
        <time>2015-09-12T13:13:14.1Z</time>
      </trkpt>
      <trkpt lat="45.77" lon="4.85692">
        <ele>310</ele>
        <time>2015-09-12T13:13:20.1Z</time>
      </trkpt>
      <trkpt lat="45.76997" lon="4.8569">
        <ele>309</ele>
        <time>2015-09-12T13:13:25.1Z</time>
      </trkpt>
      <trkpt lat="45.76994" lon="4.85689">
        <ele>308</ele>
        <time>2015-09-12T13:13:30.1Z</time>
      </trkpt>
      <trkpt lat="45.76991" lon="4.8569">
        <ele>307</ele>
        <time>2015-09-12T13:13:35.1Z</time>
      </trkpt>
      <trkpt lat="45.76989" lon="4.85692">
        <ele>306</ele>
        <time>2015-09-12T13:13:40.1Z</time>
      </trkpt>
      <trkpt lat="45.76982" lon="4.85695">
        <ele>304</ele>
        <time>2015-09-12T13:13:46.1Z</time>
      </trkpt>
      <trkpt lat="45.76963" lon="4.85698">
        <ele>304</ele>
        <time>2015-09-12T13:13:52.1Z</time>
      </trkpt>
      <trkpt lat="45.76947" lon="4.85692">
        <ele>306</ele>
        <time>2015-09-12T13:13:58.1Z</time>
      </trkpt>
      <trkpt lat="45.7694" lon="4.85697">
        <ele>305</ele>
        <time>2015-09-12T13:14:03.1Z</time>
      </trkpt>
      <trkpt lat="45.76921" lon="4.85701">
        <ele>306</ele>
        <time>2015-09-12T13:14:08.1Z</time>
      </trkpt>
      <trkpt lat="45.76888" lon="4.85703">
        <ele>307</ele>
        <time>2015-09-12T13:14:14.1Z</time>
      </trkpt>
      <trkpt lat="45.76857" lon="4.85699">
        <ele>307</ele>
        <time>2015-09-12T13:14:20.1Z</time>
      </trkpt>
      <trkpt lat="45.76848" lon="4.85679">
        <ele>306</ele>
        <time>2015-09-12T13:14:25.1Z</time>
      </trkpt>
      <trkpt lat="45.7684" lon="4.85639">
        <ele>307</ele>
        <time>2015-09-12T13:14:31.1Z</time>
      </trkpt>
      <trkpt lat="45.76833" lon="4.85598">
        <ele>307</ele>
        <time>2015-09-12T13:14:37.1Z</time>
      </trkpt>
      <trkpt lat="45.76831" lon="4.85588">
        <ele>305</ele>
        <time>2015-09-12T13:14:42.1Z</time>
      </trkpt>
      <trkpt lat="45.76831" lon="4.85585">
        <ele>305</ele>
        <time>2015-09-12T13:14:48.1Z</time>
      </trkpt>
      <trkpt lat="45.7683" lon="4.85581">
        <ele>305</ele>
        <time>2015-09-12T13:14:54.1Z</time>
      </trkpt>
      <trkpt lat="45.76829" lon="4.85584">
        <ele>305</ele>
        <time>2015-09-12T13:15:00.1Z</time>
      </trkpt>
      <trkpt lat="45.76833" lon="4.85599">
        <ele>305</ele>
        <time>2015-09-12T13:15:15.1Z</time>
      </trkpt>
      <trkpt lat="45.76833" lon="4.85599">
        <ele>289</ele>
        <time>2015-09-12T13:16:39.1Z</time>
      </trkpt>
    </trkseg>
  </trk>
</gpx>